<?xml version="1.0" encoding="UTF-8" standalone="no" ?>
<gpx xmlns="http://www.topografix.com/GPX/1/1" xmlns:xsi="http://www.w3.org/2001/XMLSchema-instance" xsi:schemaLocation="http://www.topografix.com/GPX/1/1 http://www.topografix.com/GPX/1/1/gpx.xsd" version="1.1" creator="VisuGPX - https://www.visugpx.com">
  <metadata>
    <name>Tete Pelouse 14/01/2012</name>
    <desc><![CDATA[Tete Pelouse -12°C au parking des cofins
ciel clair soleil en haut avec un vent froid]]></desc>
  </metadata>
  <trk>
    <name><![CDATA[Tete Pelouse 14/01/2012]]></name>
    <trkseg>
      <trkpt lat="45.92265" lon="6.48409">
        <ele>1440.67</ele>
        <time>2012-01-14T06:28:42Z</time>
      </trkpt>
      <trkpt lat="45.92265" lon="6.48409">
        <ele>1440.67</ele>
        <time>2012-01-14T06:28:58Z</time>
      </trkpt>
      <trkpt lat="45.92265" lon="6.48409">
        <ele>1440.67</ele>
        <time>2012-01-14T06:29:10Z</time>
      </trkpt>
      <trkpt lat="45.92265" lon="6.48409">
        <ele>1440.67</ele>
        <time>2012-01-14T06:29:31Z</time>
      </trkpt>
      <trkpt lat="45.92265" lon="6.48409">
        <ele>1440.67</ele>
        <time>2012-01-14T06:29:59Z</time>
      </trkpt>
      <trkpt lat="45.92265" lon="6.48409">
        <ele>1440.67</ele>
        <time>2012-01-14T06:30:20Z</time>
      </trkpt>
      <trkpt lat="45.92265" lon="6.48409">
        <ele>1440.19</ele>
        <time>2012-01-14T06:30:36Z</time>
      </trkpt>
      <trkpt lat="45.92265" lon="6.48409">
        <ele>1440.19</ele>
        <time>2012-01-14T06:30:56Z</time>
      </trkpt>
      <trkpt lat="45.92265" lon="6.48409">
        <ele>1440.19</ele>
        <time>2012-01-14T06:31:14Z</time>
      </trkpt>
      <trkpt lat="45.92265" lon="6.48409">
        <ele>1440.19</ele>
        <time>2012-01-14T06:31:43Z</time>
      </trkpt>
      <trkpt lat="45.92265" lon="6.48409">
        <ele>1440.19</ele>
        <time>2012-01-14T06:31:59Z</time>
      </trkpt>
      <trkpt lat="45.92265" lon="6.48409">
        <ele>1440.19</ele>
        <time>2012-01-14T06:32:17Z</time>
      </trkpt>
      <trkpt lat="45.92265" lon="6.48409">
        <ele>1440.19</ele>
        <time>2012-01-14T06:32:34Z</time>
      </trkpt>
      <trkpt lat="45.92262" lon="6.48409">
        <ele>1442.11</ele>
        <time>2012-01-14T06:32:49Z</time>
      </trkpt>
      <trkpt lat="45.92259" lon="6.48419">
        <ele>1441.15</ele>
        <time>2012-01-14T06:32:58Z</time>
      </trkpt>
      <trkpt lat="45.92254" lon="6.48426">
        <ele>1441.15</ele>
        <time>2012-01-14T06:33:08Z</time>
      </trkpt>
      <trkpt lat="45.92252" lon="6.48427">
        <ele>1442.11</ele>
        <time>2012-01-14T06:33:10Z</time>
      </trkpt>
      <trkpt lat="45.92241" lon="6.48436">
        <ele>1444.04</ele>
        <time>2012-01-14T06:33:24Z</time>
      </trkpt>
      <trkpt lat="45.92238" lon="6.48442">
        <ele>1444.04</ele>
        <time>2012-01-14T06:33:30Z</time>
      </trkpt>
      <trkpt lat="45.92225" lon="6.48454">
        <ele>1443.08</ele>
        <time>2012-01-14T06:33:41Z</time>
      </trkpt>
      <trkpt lat="45.92213" lon="6.48466">
        <ele>1445</ele>
        <time>2012-01-14T06:33:54Z</time>
      </trkpt>
      <trkpt lat="45.92211" lon="6.4847">
        <ele>1445</ele>
        <time>2012-01-14T06:33:57Z</time>
      </trkpt>
      <trkpt lat="45.92201" lon="6.48486">
        <ele>1445</ele>
        <time>2012-01-14T06:34:08Z</time>
      </trkpt>
      <trkpt lat="45.92197" lon="6.48492">
        <ele>1445.48</ele>
        <time>2012-01-14T06:34:13Z</time>
      </trkpt>
      <trkpt lat="45.92196" lon="6.48498">
        <ele>1445.96</ele>
        <time>2012-01-14T06:34:17Z</time>
      </trkpt>
      <trkpt lat="45.92185" lon="6.48517">
        <ele>1447.4</ele>
        <time>2012-01-14T06:34:31Z</time>
      </trkpt>
      <trkpt lat="45.92185" lon="6.48518">
        <ele>1447.88</ele>
        <time>2012-01-14T06:34:32Z</time>
      </trkpt>
      <trkpt lat="45.92184" lon="6.48521">
        <ele>1447.88</ele>
        <time>2012-01-14T06:34:34Z</time>
      </trkpt>
      <trkpt lat="45.92178" lon="6.48538">
        <ele>1448.84</ele>
        <time>2012-01-14T06:34:46Z</time>
      </trkpt>
      <trkpt lat="45.92169" lon="6.48556">
        <ele>1450.77</ele>
        <time>2012-01-14T06:35:01Z</time>
      </trkpt>
      <trkpt lat="45.92167" lon="6.48562">
        <ele>1451.25</ele>
        <time>2012-01-14T06:35:06Z</time>
      </trkpt>
      <trkpt lat="45.92165" lon="6.48571">
        <ele>1451.73</ele>
        <time>2012-01-14T06:35:12Z</time>
      </trkpt>
      <trkpt lat="45.92157" lon="6.48582">
        <ele>1452.69</ele>
        <time>2012-01-14T06:35:21Z</time>
      </trkpt>
      <trkpt lat="45.92155" lon="6.48586">
        <ele>1453.65</ele>
        <time>2012-01-14T06:35:25Z</time>
      </trkpt>
      <trkpt lat="45.92151" lon="6.48591">
        <ele>1454.13</ele>
        <time>2012-01-14T06:35:29Z</time>
      </trkpt>
      <trkpt lat="45.9215" lon="6.48598">
        <ele>1454.61</ele>
        <time>2012-01-14T06:35:34Z</time>
      </trkpt>
      <trkpt lat="45.92149" lon="6.486">
        <ele>1454.61</ele>
        <time>2012-01-14T06:35:36Z</time>
      </trkpt>
      <trkpt lat="45.92147" lon="6.48607">
        <ele>1455.57</ele>
        <time>2012-01-14T06:35:41Z</time>
      </trkpt>
      <trkpt lat="45.92146" lon="6.48612">
        <ele>1455.57</ele>
        <time>2012-01-14T06:35:44Z</time>
      </trkpt>
      <trkpt lat="45.92143" lon="6.48617">
        <ele>1456.53</ele>
        <time>2012-01-14T06:35:49Z</time>
      </trkpt>
      <trkpt lat="45.92141" lon="6.48624">
        <ele>1456.53</ele>
        <time>2012-01-14T06:35:53Z</time>
      </trkpt>
      <trkpt lat="45.92138" lon="6.48626">
        <ele>1456.53</ele>
        <time>2012-01-14T06:35:56Z</time>
      </trkpt>
      <trkpt lat="45.92132" lon="6.48643">
        <ele>1457.98</ele>
        <time>2012-01-14T06:36:08Z</time>
      </trkpt>
      <trkpt lat="45.92132" lon="6.48649">
        <ele>1458.46</ele>
        <time>2012-01-14T06:36:12Z</time>
      </trkpt>
      <trkpt lat="45.92133" lon="6.48668">
        <ele>1458.94</ele>
        <time>2012-01-14T06:36:26Z</time>
      </trkpt>
      <trkpt lat="45.92136" lon="6.48682">
        <ele>1459.9</ele>
        <time>2012-01-14T06:36:40Z</time>
      </trkpt>
      <trkpt lat="45.92137" lon="6.48683">
        <ele>1460.38</ele>
        <time>2012-01-14T06:36:41Z</time>
      </trkpt>
      <trkpt lat="45.92148" lon="6.48698">
        <ele>1461.82</ele>
        <time>2012-01-14T06:36:54Z</time>
      </trkpt>
      <trkpt lat="45.92158" lon="6.48718">
        <ele>1461.34</ele>
        <time>2012-01-14T06:37:07Z</time>
      </trkpt>
      <trkpt lat="45.92166" lon="6.48744">
        <ele>1460.38</ele>
        <time>2012-01-14T06:37:19Z</time>
      </trkpt>
      <trkpt lat="45.92172" lon="6.48769">
        <ele>1457.98</ele>
        <time>2012-01-14T06:37:30Z</time>
      </trkpt>
      <trkpt lat="45.92179" lon="6.48797">
        <ele>1456.53</ele>
        <time>2012-01-14T06:37:43Z</time>
      </trkpt>
      <trkpt lat="45.92177" lon="6.48831">
        <ele>1454.61</ele>
        <time>2012-01-14T06:37:56Z</time>
      </trkpt>
      <trkpt lat="45.92163" lon="6.4886">
        <ele>1453.65</ele>
        <time>2012-01-14T06:38:10Z</time>
      </trkpt>
      <trkpt lat="45.9216" lon="6.48868">
        <ele>1453.65</ele>
        <time>2012-01-14T06:38:14Z</time>
      </trkpt>
      <trkpt lat="45.9216" lon="6.48884">
        <ele>1454.13</ele>
        <time>2012-01-14T06:38:22Z</time>
      </trkpt>
      <trkpt lat="45.92162" lon="6.48895">
        <ele>1454.13</ele>
        <time>2012-01-14T06:38:28Z</time>
      </trkpt>
      <trkpt lat="45.92161" lon="6.48905">
        <ele>1453.65</ele>
        <time>2012-01-14T06:38:35Z</time>
      </trkpt>
      <trkpt lat="45.9216" lon="6.48921">
        <ele>1454.13</ele>
        <time>2012-01-14T06:38:47Z</time>
      </trkpt>
      <trkpt lat="45.92162" lon="6.48939">
        <ele>1454.61</ele>
        <time>2012-01-14T06:39:00Z</time>
      </trkpt>
      <trkpt lat="45.9216" lon="6.48954">
        <ele>1455.09</ele>
        <time>2012-01-14T06:39:12Z</time>
      </trkpt>
      <trkpt lat="45.92162" lon="6.48975">
        <ele>1456.53</ele>
        <time>2012-01-14T06:39:26Z</time>
      </trkpt>
      <trkpt lat="45.92164" lon="6.48992">
        <ele>1458.46</ele>
        <time>2012-01-14T06:39:39Z</time>
      </trkpt>
      <trkpt lat="45.92163" lon="6.48999">
        <ele>1459.42</ele>
        <time>2012-01-14T06:39:45Z</time>
      </trkpt>
      <trkpt lat="45.92163" lon="6.49013">
        <ele>1460.86</ele>
        <time>2012-01-14T06:39:57Z</time>
      </trkpt>
      <trkpt lat="45.92166" lon="6.4903">
        <ele>1462.78</ele>
        <time>2012-01-14T06:40:09Z</time>
      </trkpt>
      <trkpt lat="45.92165" lon="6.49028">
        <ele>1463.26</ele>
        <time>2012-01-14T06:40:20Z</time>
      </trkpt>
      <trkpt lat="45.92164" lon="6.49028">
        <ele>1463.26</ele>
        <time>2012-01-14T06:40:35Z</time>
      </trkpt>
      <trkpt lat="45.92165" lon="6.49028">
        <ele>1463.26</ele>
        <time>2012-01-14T06:40:48Z</time>
      </trkpt>
      <trkpt lat="45.92165" lon="6.49027">
        <ele>1462.78</ele>
        <time>2012-01-14T06:41:06Z</time>
      </trkpt>
      <trkpt lat="45.92165" lon="6.49027">
        <ele>1462.78</ele>
        <time>2012-01-14T06:41:33Z</time>
      </trkpt>
      <trkpt lat="45.92165" lon="6.49027">
        <ele>1462.78</ele>
        <time>2012-01-14T06:42:03Z</time>
      </trkpt>
      <trkpt lat="45.92165" lon="6.49027">
        <ele>1462.78</ele>
        <time>2012-01-14T06:42:38Z</time>
      </trkpt>
      <trkpt lat="45.92165" lon="6.49027">
        <ele>1462.78</ele>
        <time>2012-01-14T06:43:07Z</time>
      </trkpt>
      <trkpt lat="45.92165" lon="6.49027">
        <ele>1462.78</ele>
        <time>2012-01-14T06:43:27Z</time>
      </trkpt>
      <trkpt lat="45.92165" lon="6.49027">
        <ele>1462.78</ele>
        <time>2012-01-14T06:43:51Z</time>
      </trkpt>
      <trkpt lat="45.92165" lon="6.49027">
        <ele>1462.78</ele>
        <time>2012-01-14T06:44:06Z</time>
      </trkpt>
      <trkpt lat="45.92166" lon="6.49027">
        <ele>1463.26</ele>
        <time>2012-01-14T06:44:26Z</time>
      </trkpt>
      <trkpt lat="45.92163" lon="6.49039">
        <ele>1463.74</ele>
        <time>2012-01-14T06:44:38Z</time>
      </trkpt>
      <trkpt lat="45.92162" lon="6.49057">
        <ele>1464.71</ele>
        <time>2012-01-14T06:44:50Z</time>
      </trkpt>
      <trkpt lat="45.92163" lon="6.49072">
        <ele>1466.63</ele>
        <time>2012-01-14T06:45:02Z</time>
      </trkpt>
      <trkpt lat="45.92162" lon="6.49085">
        <ele>1466.63</ele>
        <time>2012-01-14T06:45:13Z</time>
      </trkpt>
      <trkpt lat="45.92164" lon="6.49098">
        <ele>1469.51</ele>
        <time>2012-01-14T06:45:24Z</time>
      </trkpt>
      <trkpt lat="45.92169" lon="6.49112">
        <ele>1473.36</ele>
        <time>2012-01-14T06:45:35Z</time>
      </trkpt>
      <trkpt lat="45.92168" lon="6.49124">
        <ele>1476.72</ele>
        <time>2012-01-14T06:45:47Z</time>
      </trkpt>
      <trkpt lat="45.9217" lon="6.49133">
        <ele>1477.68</ele>
        <time>2012-01-14T06:45:54Z</time>
      </trkpt>
      <trkpt lat="45.9217" lon="6.49149">
        <ele>1481.05</ele>
        <time>2012-01-14T06:46:08Z</time>
      </trkpt>
      <trkpt lat="45.92171" lon="6.49152">
        <ele>1482.49</ele>
        <time>2012-01-14T06:46:12Z</time>
      </trkpt>
      <trkpt lat="45.92171" lon="6.49168">
        <ele>1486.34</ele>
        <time>2012-01-14T06:46:27Z</time>
      </trkpt>
      <trkpt lat="45.92171" lon="6.49171">
        <ele>1486.34</ele>
        <time>2012-01-14T06:46:41Z</time>
      </trkpt>
      <trkpt lat="45.92169" lon="6.49178">
        <ele>1488.74</ele>
        <time>2012-01-14T06:46:56Z</time>
      </trkpt>
      <trkpt lat="45.9217" lon="6.49192">
        <ele>1491.14</ele>
        <time>2012-01-14T06:47:10Z</time>
      </trkpt>
      <trkpt lat="45.92173" lon="6.49199">
        <ele>1494.99</ele>
        <time>2012-01-14T06:47:17Z</time>
      </trkpt>
      <trkpt lat="45.92181" lon="6.4921">
        <ele>1499.79</ele>
        <time>2012-01-14T06:47:31Z</time>
      </trkpt>
      <trkpt lat="45.92189" lon="6.49223">
        <ele>1501.72</ele>
        <time>2012-01-14T06:47:44Z</time>
      </trkpt>
      <trkpt lat="45.92189" lon="6.49224">
        <ele>1501.72</ele>
        <time>2012-01-14T06:47:45Z</time>
      </trkpt>
      <trkpt lat="45.92186" lon="6.49228">
        <ele>1504.12</ele>
        <time>2012-01-14T06:47:53Z</time>
      </trkpt>
      <trkpt lat="45.92186" lon="6.49233">
        <ele>1505.56</ele>
        <time>2012-01-14T06:47:57Z</time>
      </trkpt>
      <trkpt lat="45.92188" lon="6.49243">
        <ele>1507.97</ele>
        <time>2012-01-14T06:48:05Z</time>
      </trkpt>
      <trkpt lat="45.9219" lon="6.49252">
        <ele>1508.93</ele>
        <time>2012-01-14T06:48:12Z</time>
      </trkpt>
      <trkpt lat="45.92192" lon="6.49255">
        <ele>1509.41</ele>
        <time>2012-01-14T06:48:15Z</time>
      </trkpt>
      <trkpt lat="45.92197" lon="6.49265">
        <ele>1512.29</ele>
        <time>2012-01-14T06:48:27Z</time>
      </trkpt>
      <trkpt lat="45.92198" lon="6.49265">
        <ele>1512.77</ele>
        <time>2012-01-14T06:48:28Z</time>
      </trkpt>
      <trkpt lat="45.92199" lon="6.49268">
        <ele>1513.73</ele>
        <time>2012-01-14T06:48:31Z</time>
      </trkpt>
      <trkpt lat="45.922" lon="6.49273">
        <ele>1515.18</ele>
        <time>2012-01-14T06:48:35Z</time>
      </trkpt>
      <trkpt lat="45.92204" lon="6.49284">
        <ele>1517.1</ele>
        <time>2012-01-14T06:48:43Z</time>
      </trkpt>
      <trkpt lat="45.92208" lon="6.49296">
        <ele>1520.94</ele>
        <time>2012-01-14T06:48:56Z</time>
      </trkpt>
      <trkpt lat="45.92208" lon="6.49297">
        <ele>1520.94</ele>
        <time>2012-01-14T06:48:57Z</time>
      </trkpt>
      <trkpt lat="45.92217" lon="6.49305">
        <ele>1520.94</ele>
        <time>2012-01-14T06:49:09Z</time>
      </trkpt>
      <trkpt lat="45.92221" lon="6.49314">
        <ele>1522.39</ele>
        <time>2012-01-14T06:49:20Z</time>
      </trkpt>
      <trkpt lat="45.92221" lon="6.49316">
        <ele>1522.39</ele>
        <time>2012-01-14T06:49:22Z</time>
      </trkpt>
      <trkpt lat="45.92226" lon="6.49327">
        <ele>1523.83</ele>
        <time>2012-01-14T06:49:34Z</time>
      </trkpt>
      <trkpt lat="45.92229" lon="6.49337">
        <ele>1524.79</ele>
        <time>2012-01-14T06:49:44Z</time>
      </trkpt>
      <trkpt lat="45.92231" lon="6.49341">
        <ele>1525.27</ele>
        <time>2012-01-14T06:49:48Z</time>
      </trkpt>
      <trkpt lat="45.92235" lon="6.49356">
        <ele>1526.71</ele>
        <time>2012-01-14T06:50:01Z</time>
      </trkpt>
      <trkpt lat="45.92237" lon="6.49363">
        <ele>1525.27</ele>
        <time>2012-01-14T06:50:11Z</time>
      </trkpt>
      <trkpt lat="45.92242" lon="6.49375">
        <ele>1526.23</ele>
        <time>2012-01-14T06:50:23Z</time>
      </trkpt>
      <trkpt lat="45.92246" lon="6.49386">
        <ele>1528.15</ele>
        <time>2012-01-14T06:50:35Z</time>
      </trkpt>
      <trkpt lat="45.92246" lon="6.49387">
        <ele>1528.15</ele>
        <time>2012-01-14T06:50:37Z</time>
      </trkpt>
      <trkpt lat="45.92246" lon="6.49388">
        <ele>1528.15</ele>
        <time>2012-01-14T06:50:39Z</time>
      </trkpt>
      <trkpt lat="45.92247" lon="6.49391">
        <ele>1528.15</ele>
        <time>2012-01-14T06:50:41Z</time>
      </trkpt>
      <trkpt lat="45.92253" lon="6.49403">
        <ele>1530.08</ele>
        <time>2012-01-14T06:50:54Z</time>
      </trkpt>
      <trkpt lat="45.92254" lon="6.49406">
        <ele>1531.52</ele>
        <time>2012-01-14T06:50:57Z</time>
      </trkpt>
      <trkpt lat="45.92248" lon="6.49415">
        <ele>1535.84</ele>
        <time>2012-01-14T06:51:11Z</time>
      </trkpt>
      <trkpt lat="45.92247" lon="6.49416">
        <ele>1536.8</ele>
        <time>2012-01-14T06:51:13Z</time>
      </trkpt>
      <trkpt lat="45.92241" lon="6.49425">
        <ele>1542.09</ele>
        <time>2012-01-14T06:51:28Z</time>
      </trkpt>
      <trkpt lat="45.92234" lon="6.49438">
        <ele>1547.38</ele>
        <time>2012-01-14T06:51:42Z</time>
      </trkpt>
      <trkpt lat="45.92234" lon="6.49449">
        <ele>1549.3</ele>
        <time>2012-01-14T06:51:55Z</time>
      </trkpt>
      <trkpt lat="45.92242" lon="6.49458">
        <ele>1552.67</ele>
        <time>2012-01-14T06:52:07Z</time>
      </trkpt>
      <trkpt lat="45.92246" lon="6.49463">
        <ele>1554.11</ele>
        <time>2012-01-14T06:52:14Z</time>
      </trkpt>
      <trkpt lat="45.92249" lon="6.49467">
        <ele>1554.59</ele>
        <time>2012-01-14T06:52:20Z</time>
      </trkpt>
      <trkpt lat="45.92259" lon="6.49478">
        <ele>1557.95</ele>
        <time>2012-01-14T06:52:33Z</time>
      </trkpt>
      <trkpt lat="45.92258" lon="6.49479">
        <ele>1558.92</ele>
        <time>2012-01-14T06:52:40Z</time>
      </trkpt>
      <trkpt lat="45.92255" lon="6.49479">
        <ele>1559.88</ele>
        <time>2012-01-14T06:52:43Z</time>
      </trkpt>
      <trkpt lat="45.92248" lon="6.49485">
        <ele>1563.24</ele>
        <time>2012-01-14T06:52:53Z</time>
      </trkpt>
      <trkpt lat="45.92242" lon="6.4949">
        <ele>1566.12</ele>
        <time>2012-01-14T06:53:04Z</time>
      </trkpt>
      <trkpt lat="45.92239" lon="6.49492">
        <ele>1567.09</ele>
        <time>2012-01-14T06:53:09Z</time>
      </trkpt>
      <trkpt lat="45.92235" lon="6.495">
        <ele>1570.93</ele>
        <time>2012-01-14T06:53:22Z</time>
      </trkpt>
      <trkpt lat="45.92235" lon="6.495">
        <ele>1570.93</ele>
        <time>2012-01-14T06:53:23Z</time>
      </trkpt>
      <trkpt lat="45.92238" lon="6.49503">
        <ele>1572.37</ele>
        <time>2012-01-14T06:53:27Z</time>
      </trkpt>
      <trkpt lat="45.92241" lon="6.49507">
        <ele>1573.82</ele>
        <time>2012-01-14T06:53:31Z</time>
      </trkpt>
      <trkpt lat="45.92252" lon="6.49513">
        <ele>1578.14</ele>
        <time>2012-01-14T06:53:44Z</time>
      </trkpt>
      <trkpt lat="45.92255" lon="6.49515">
        <ele>1580.06</ele>
        <time>2012-01-14T06:53:47Z</time>
      </trkpt>
      <trkpt lat="45.92264" lon="6.49522">
        <ele>1583.91</ele>
        <time>2012-01-14T06:54:01Z</time>
      </trkpt>
      <trkpt lat="45.92268" lon="6.49525">
        <ele>1583.43</ele>
        <time>2012-01-14T06:54:08Z</time>
      </trkpt>
      <trkpt lat="45.92278" lon="6.49531">
        <ele>1586.79</ele>
        <time>2012-01-14T06:54:22Z</time>
      </trkpt>
      <trkpt lat="45.92284" lon="6.49543">
        <ele>1587.75</ele>
        <time>2012-01-14T06:54:37Z</time>
      </trkpt>
      <trkpt lat="45.92289" lon="6.49548">
        <ele>1589.68</ele>
        <time>2012-01-14T06:54:49Z</time>
      </trkpt>
      <trkpt lat="45.92294" lon="6.49559">
        <ele>1592.56</ele>
        <time>2012-01-14T06:55:02Z</time>
      </trkpt>
      <trkpt lat="45.92295" lon="6.49564">
        <ele>1593.52</ele>
        <time>2012-01-14T06:55:14Z</time>
      </trkpt>
      <trkpt lat="45.92292" lon="6.49565">
        <ele>1593.52</ele>
        <time>2012-01-14T06:55:19Z</time>
      </trkpt>
      <trkpt lat="45.92282" lon="6.49567">
        <ele>1594.96</ele>
        <time>2012-01-14T06:55:32Z</time>
      </trkpt>
      <trkpt lat="45.92273" lon="6.49573">
        <ele>1596.41</ele>
        <time>2012-01-14T06:55:45Z</time>
      </trkpt>
      <trkpt lat="45.9227" lon="6.49577">
        <ele>1596.89</ele>
        <time>2012-01-14T06:55:50Z</time>
      </trkpt>
      <trkpt lat="45.92267" lon="6.49579">
        <ele>1598.33</ele>
        <time>2012-01-14T06:55:55Z</time>
      </trkpt>
      <trkpt lat="45.92261" lon="6.49582">
        <ele>1599.77</ele>
        <time>2012-01-14T06:56:08Z</time>
      </trkpt>
      <trkpt lat="45.92264" lon="6.49586">
        <ele>1600.73</ele>
        <time>2012-01-14T06:56:13Z</time>
      </trkpt>
      <trkpt lat="45.9227" lon="6.496">
        <ele>1602.66</ele>
        <time>2012-01-14T06:56:27Z</time>
      </trkpt>
      <trkpt lat="45.92274" lon="6.49606">
        <ele>1604.58</ele>
        <time>2012-01-14T06:56:37Z</time>
      </trkpt>
      <trkpt lat="45.92276" lon="6.49613">
        <ele>1606.5</ele>
        <time>2012-01-14T06:56:51Z</time>
      </trkpt>
      <trkpt lat="45.92269" lon="6.49615">
        <ele>1606.02</ele>
        <time>2012-01-14T06:57:03Z</time>
      </trkpt>
      <trkpt lat="45.92265" lon="6.49618">
        <ele>1606.02</ele>
        <time>2012-01-14T06:57:15Z</time>
      </trkpt>
      <trkpt lat="45.92265" lon="6.49619">
        <ele>1606.02</ele>
        <time>2012-01-14T06:57:34Z</time>
      </trkpt>
      <trkpt lat="45.92263" lon="6.49621">
        <ele>1606.5</ele>
        <time>2012-01-14T06:57:37Z</time>
      </trkpt>
      <trkpt lat="45.92252" lon="6.49626">
        <ele>1607.94</ele>
        <time>2012-01-14T06:57:51Z</time>
      </trkpt>
      <trkpt lat="45.92251" lon="6.49626">
        <ele>1608.42</ele>
        <time>2012-01-14T06:57:53Z</time>
      </trkpt>
      <trkpt lat="45.92247" lon="6.49629">
        <ele>1609.38</ele>
        <time>2012-01-14T06:58:06Z</time>
      </trkpt>
      <trkpt lat="45.9225" lon="6.49631">
        <ele>1609.86</ele>
        <time>2012-01-14T06:58:22Z</time>
      </trkpt>
      <trkpt lat="45.92257" lon="6.49639">
        <ele>1613.71</ele>
        <time>2012-01-14T06:58:33Z</time>
      </trkpt>
      <trkpt lat="45.92269" lon="6.49648">
        <ele>1620.92</ele>
        <time>2012-01-14T06:58:46Z</time>
      </trkpt>
      <trkpt lat="45.92269" lon="6.49647">
        <ele>1622.84</ele>
        <time>2012-01-14T06:58:57Z</time>
      </trkpt>
      <trkpt lat="45.92268" lon="6.49647">
        <ele>1623.8</ele>
        <time>2012-01-14T06:58:58Z</time>
      </trkpt>
      <trkpt lat="45.92261" lon="6.49646">
        <ele>1627.17</ele>
        <time>2012-01-14T06:59:06Z</time>
      </trkpt>
      <trkpt lat="45.92252" lon="6.4965">
        <ele>1626.21</ele>
        <time>2012-01-14T06:59:20Z</time>
      </trkpt>
      <trkpt lat="45.92259" lon="6.49659">
        <ele>1627.65</ele>
        <time>2012-01-14T06:59:31Z</time>
      </trkpt>
      <trkpt lat="45.92264" lon="6.49665">
        <ele>1628.61</ele>
        <time>2012-01-14T06:59:46Z</time>
      </trkpt>
      <trkpt lat="45.92259" lon="6.49666">
        <ele>1630.53</ele>
        <time>2012-01-14T06:59:56Z</time>
      </trkpt>
      <trkpt lat="45.92252" lon="6.49668">
        <ele>1632.46</ele>
        <time>2012-01-14T07:00:09Z</time>
      </trkpt>
      <trkpt lat="45.92249" lon="6.49668">
        <ele>1632.94</ele>
        <time>2012-01-14T07:00:23Z</time>
      </trkpt>
      <trkpt lat="45.92249" lon="6.49668">
        <ele>1632.94</ele>
        <time>2012-01-14T07:00:39Z</time>
      </trkpt>
      <trkpt lat="45.9225" lon="6.49667">
        <ele>1632.94</ele>
        <time>2012-01-14T07:00:58Z</time>
      </trkpt>
      <trkpt lat="45.9225" lon="6.49668">
        <ele>1633.9</ele>
        <time>2012-01-14T07:01:18Z</time>
      </trkpt>
      <trkpt lat="45.9225" lon="6.49668">
        <ele>1633.9</ele>
        <time>2012-01-14T07:01:39Z</time>
      </trkpt>
      <trkpt lat="45.92247" lon="6.4967">
        <ele>1634.38</ele>
        <time>2012-01-14T07:01:51Z</time>
      </trkpt>
      <trkpt lat="45.92247" lon="6.4967">
        <ele>1634.38</ele>
        <time>2012-01-14T07:02:22Z</time>
      </trkpt>
      <trkpt lat="45.92252" lon="6.49678">
        <ele>1637.26</ele>
        <time>2012-01-14T07:02:37Z</time>
      </trkpt>
      <trkpt lat="45.92257" lon="6.49685">
        <ele>1638.22</ele>
        <time>2012-01-14T07:02:47Z</time>
      </trkpt>
      <trkpt lat="45.92262" lon="6.4969">
        <ele>1639.19</ele>
        <time>2012-01-14T07:02:58Z</time>
      </trkpt>
      <trkpt lat="45.92264" lon="6.49692">
        <ele>1640.63</ele>
        <time>2012-01-14T07:03:12Z</time>
      </trkpt>
      <trkpt lat="45.92262" lon="6.49692">
        <ele>1640.15</ele>
        <time>2012-01-14T07:03:15Z</time>
      </trkpt>
      <trkpt lat="45.9226" lon="6.49692">
        <ele>1640.63</ele>
        <time>2012-01-14T07:03:18Z</time>
      </trkpt>
      <trkpt lat="45.92251" lon="6.49697">
        <ele>1642.07</ele>
        <time>2012-01-14T07:03:31Z</time>
      </trkpt>
      <trkpt lat="45.92247" lon="6.49699">
        <ele>1642.07</ele>
        <time>2012-01-14T07:03:36Z</time>
      </trkpt>
      <trkpt lat="45.92237" lon="6.49704">
        <ele>1643.51</ele>
        <time>2012-01-14T07:03:49Z</time>
      </trkpt>
      <trkpt lat="45.92228" lon="6.49705">
        <ele>1644.95</ele>
        <time>2012-01-14T07:04:01Z</time>
      </trkpt>
      <trkpt lat="45.92222" lon="6.49712">
        <ele>1645.91</ele>
        <time>2012-01-14T07:04:12Z</time>
      </trkpt>
      <trkpt lat="45.92215" lon="6.49717">
        <ele>1648.8</ele>
        <time>2012-01-14T07:04:25Z</time>
      </trkpt>
      <trkpt lat="45.92209" lon="6.4972">
        <ele>1652.16</ele>
        <time>2012-01-14T07:04:36Z</time>
      </trkpt>
      <trkpt lat="45.92204" lon="6.49721">
        <ele>1653.6</ele>
        <time>2012-01-14T07:04:42Z</time>
      </trkpt>
      <trkpt lat="45.92201" lon="6.49728">
        <ele>1657.45</ele>
        <time>2012-01-14T07:04:54Z</time>
      </trkpt>
      <trkpt lat="45.92207" lon="6.49739">
        <ele>1659.85</ele>
        <time>2012-01-14T07:05:06Z</time>
      </trkpt>
      <trkpt lat="45.92203" lon="6.49738">
        <ele>1660.81</ele>
        <time>2012-01-14T07:05:13Z</time>
      </trkpt>
      <trkpt lat="45.92197" lon="6.49742">
        <ele>1661.78</ele>
        <time>2012-01-14T07:05:22Z</time>
      </trkpt>
      <trkpt lat="45.92189" lon="6.49741">
        <ele>1664.66</ele>
        <time>2012-01-14T07:05:35Z</time>
      </trkpt>
      <trkpt lat="45.92187" lon="6.49742">
        <ele>1665.14</ele>
        <time>2012-01-14T07:05:38Z</time>
      </trkpt>
      <trkpt lat="45.92183" lon="6.49742">
        <ele>1666.58</ele>
        <time>2012-01-14T07:05:43Z</time>
      </trkpt>
      <trkpt lat="45.92172" lon="6.49743">
        <ele>1669.95</ele>
        <time>2012-01-14T07:05:58Z</time>
      </trkpt>
      <trkpt lat="45.92169" lon="6.49743">
        <ele>1670.43</ele>
        <time>2012-01-14T07:06:02Z</time>
      </trkpt>
      <trkpt lat="45.92159" lon="6.49738">
        <ele>1674.27</ele>
        <time>2012-01-14T07:06:17Z</time>
      </trkpt>
      <trkpt lat="45.92158" lon="6.49738">
        <ele>1674.27</ele>
        <time>2012-01-14T07:06:18Z</time>
      </trkpt>
      <trkpt lat="45.92155" lon="6.49738">
        <ele>1674.75</ele>
        <time>2012-01-14T07:06:22Z</time>
      </trkpt>
      <trkpt lat="45.92146" lon="6.4974">
        <ele>1675.23</ele>
        <time>2012-01-14T07:06:35Z</time>
      </trkpt>
      <trkpt lat="45.92135" lon="6.49739">
        <ele>1678.12</ele>
        <time>2012-01-14T07:06:49Z</time>
      </trkpt>
      <trkpt lat="45.92135" lon="6.49745">
        <ele>1680.52</ele>
        <time>2012-01-14T07:07:03Z</time>
      </trkpt>
      <trkpt lat="45.92134" lon="6.49751">
        <ele>1680.04</ele>
        <time>2012-01-14T07:07:10Z</time>
      </trkpt>
      <trkpt lat="45.92135" lon="6.49761">
        <ele>1681</ele>
        <time>2012-01-14T07:07:23Z</time>
      </trkpt>
      <trkpt lat="45.92136" lon="6.49772">
        <ele>1684.37</ele>
        <time>2012-01-14T07:07:35Z</time>
      </trkpt>
      <trkpt lat="45.92137" lon="6.49776">
        <ele>1685.33</ele>
        <time>2012-01-14T07:07:50Z</time>
      </trkpt>
      <trkpt lat="45.92137" lon="6.49776">
        <ele>1685.33</ele>
        <time>2012-01-14T07:08:11Z</time>
      </trkpt>
      <trkpt lat="45.92136" lon="6.49776">
        <ele>1685.33</ele>
        <time>2012-01-14T07:08:36Z</time>
      </trkpt>
      <trkpt lat="45.92136" lon="6.49776">
        <ele>1685.33</ele>
        <time>2012-01-14T07:09:04Z</time>
      </trkpt>
      <trkpt lat="45.92136" lon="6.49776">
        <ele>1685.33</ele>
        <time>2012-01-14T07:09:31Z</time>
      </trkpt>
      <trkpt lat="45.92136" lon="6.49775">
        <ele>1686.77</ele>
        <time>2012-01-14T07:09:52Z</time>
      </trkpt>
      <trkpt lat="45.92136" lon="6.49775">
        <ele>1686.77</ele>
        <time>2012-01-14T07:10:14Z</time>
      </trkpt>
      <trkpt lat="45.92136" lon="6.49775">
        <ele>1686.77</ele>
        <time>2012-01-14T07:10:43Z</time>
      </trkpt>
      <trkpt lat="45.92135" lon="6.49775">
        <ele>1687.25</ele>
        <time>2012-01-14T07:11:08Z</time>
      </trkpt>
      <trkpt lat="45.92135" lon="6.49775">
        <ele>1687.25</ele>
        <time>2012-01-14T07:11:32Z</time>
      </trkpt>
      <trkpt lat="45.92135" lon="6.49776">
        <ele>1687.73</ele>
        <time>2012-01-14T07:12:00Z</time>
      </trkpt>
      <trkpt lat="45.92133" lon="6.49781">
        <ele>1687.73</ele>
        <time>2012-01-14T07:12:15Z</time>
      </trkpt>
      <trkpt lat="45.92132" lon="6.49785">
        <ele>1688.69</ele>
        <time>2012-01-14T07:12:18Z</time>
      </trkpt>
      <trkpt lat="45.9213" lon="6.49788">
        <ele>1689.17</ele>
        <time>2012-01-14T07:12:23Z</time>
      </trkpt>
      <trkpt lat="45.92125" lon="6.49791">
        <ele>1691.1</ele>
        <time>2012-01-14T07:12:35Z</time>
      </trkpt>
      <trkpt lat="45.92116" lon="6.49793">
        <ele>1694.46</ele>
        <time>2012-01-14T07:12:50Z</time>
      </trkpt>
      <trkpt lat="45.92109" lon="6.49791">
        <ele>1696.86</ele>
        <time>2012-01-14T07:13:04Z</time>
      </trkpt>
      <trkpt lat="45.92097" lon="6.49787">
        <ele>1699.75</ele>
        <time>2012-01-14T07:13:19Z</time>
      </trkpt>
      <trkpt lat="45.92092" lon="6.49787">
        <ele>1701.19</ele>
        <time>2012-01-14T07:13:27Z</time>
      </trkpt>
      <trkpt lat="45.92081" lon="6.49782">
        <ele>1705.52</ele>
        <time>2012-01-14T07:13:43Z</time>
      </trkpt>
      <trkpt lat="45.92072" lon="6.49782">
        <ele>1709.36</ele>
        <time>2012-01-14T07:13:55Z</time>
      </trkpt>
      <trkpt lat="45.92063" lon="6.49787">
        <ele>1710.8</ele>
        <time>2012-01-14T07:14:09Z</time>
      </trkpt>
      <trkpt lat="45.92055" lon="6.49788">
        <ele>1713.69</ele>
        <time>2012-01-14T07:14:21Z</time>
      </trkpt>
      <trkpt lat="45.92047" lon="6.49793">
        <ele>1715.13</ele>
        <time>2012-01-14T07:14:33Z</time>
      </trkpt>
      <trkpt lat="45.92042" lon="6.49798">
        <ele>1716.57</ele>
        <time>2012-01-14T07:14:43Z</time>
      </trkpt>
      <trkpt lat="45.92041" lon="6.49801">
        <ele>1717.05</ele>
        <time>2012-01-14T07:14:45Z</time>
      </trkpt>
      <trkpt lat="45.92045" lon="6.49816">
        <ele>1719.46</ele>
        <time>2012-01-14T07:14:59Z</time>
      </trkpt>
      <trkpt lat="45.92045" lon="6.49821">
        <ele>1721.86</ele>
        <time>2012-01-14T07:15:12Z</time>
      </trkpt>
      <trkpt lat="45.92043" lon="6.49827">
        <ele>1726.18</ele>
        <time>2012-01-14T07:15:25Z</time>
      </trkpt>
      <trkpt lat="45.92042" lon="6.49839">
        <ele>1729.55</ele>
        <time>2012-01-14T07:15:37Z</time>
      </trkpt>
      <trkpt lat="45.92042" lon="6.49842">
        <ele>1730.03</ele>
        <time>2012-01-14T07:15:39Z</time>
      </trkpt>
      <trkpt lat="45.92043" lon="6.49848">
        <ele>1730.99</ele>
        <time>2012-01-14T07:15:43Z</time>
      </trkpt>
      <trkpt lat="45.92047" lon="6.49862">
        <ele>1731.95</ele>
        <time>2012-01-14T07:15:48Z</time>
      </trkpt>
      <trkpt lat="45.92048" lon="6.49871">
        <ele>1732.43</ele>
        <time>2012-01-14T07:15:56Z</time>
      </trkpt>
      <trkpt lat="45.92045" lon="6.4988">
        <ele>1734.84</ele>
        <time>2012-01-14T07:16:09Z</time>
      </trkpt>
      <trkpt lat="45.92041" lon="6.49886">
        <ele>1737.24</ele>
        <time>2012-01-14T07:16:21Z</time>
      </trkpt>
      <trkpt lat="45.92041" lon="6.49887">
        <ele>1738.2</ele>
        <time>2012-01-14T07:16:23Z</time>
      </trkpt>
      <trkpt lat="45.9204" lon="6.49898">
        <ele>1742.53</ele>
        <time>2012-01-14T07:16:34Z</time>
      </trkpt>
      <trkpt lat="45.92042" lon="6.4991">
        <ele>1743.97</ele>
        <time>2012-01-14T07:16:46Z</time>
      </trkpt>
      <trkpt lat="45.92042" lon="6.49911">
        <ele>1744.93</ele>
        <time>2012-01-14T07:16:59Z</time>
      </trkpt>
      <trkpt lat="45.92038" lon="6.4991">
        <ele>1745.41</ele>
        <time>2012-01-14T07:17:04Z</time>
      </trkpt>
      <trkpt lat="45.92034" lon="6.49906">
        <ele>1746.85</ele>
        <time>2012-01-14T07:17:12Z</time>
      </trkpt>
      <trkpt lat="45.92028" lon="6.49897">
        <ele>1750.7</ele>
        <time>2012-01-14T07:17:23Z</time>
      </trkpt>
      <trkpt lat="45.9202" lon="6.49891">
        <ele>1753.1</ele>
        <time>2012-01-14T07:17:37Z</time>
      </trkpt>
      <trkpt lat="45.92012" lon="6.49885">
        <ele>1754.54</ele>
        <time>2012-01-14T07:17:49Z</time>
      </trkpt>
      <trkpt lat="45.92002" lon="6.49883">
        <ele>1757.43</ele>
        <time>2012-01-14T07:18:03Z</time>
      </trkpt>
      <trkpt lat="45.92001" lon="6.49883">
        <ele>1757.91</ele>
        <time>2012-01-14T07:18:04Z</time>
      </trkpt>
      <trkpt lat="45.91998" lon="6.49886">
        <ele>1757.91</ele>
        <time>2012-01-14T07:18:09Z</time>
      </trkpt>
      <trkpt lat="45.91999" lon="6.49895">
        <ele>1758.87</ele>
        <time>2012-01-14T07:18:23Z</time>
      </trkpt>
      <trkpt lat="45.91997" lon="6.49901">
        <ele>1760.31</ele>
        <time>2012-01-14T07:18:41Z</time>
      </trkpt>
      <trkpt lat="45.91995" lon="6.49913">
        <ele>1762.71</ele>
        <time>2012-01-14T07:18:53Z</time>
      </trkpt>
      <trkpt lat="45.91992" lon="6.4992">
        <ele>1764.64</ele>
        <time>2012-01-14T07:19:03Z</time>
      </trkpt>
      <trkpt lat="45.91991" lon="6.49929">
        <ele>1768</ele>
        <time>2012-01-14T07:19:14Z</time>
      </trkpt>
      <trkpt lat="45.91988" lon="6.4994">
        <ele>1770.89</ele>
        <time>2012-01-14T07:19:26Z</time>
      </trkpt>
      <trkpt lat="45.91989" lon="6.49939">
        <ele>1770.89</ele>
        <time>2012-01-14T07:19:34Z</time>
      </trkpt>
      <trkpt lat="45.91983" lon="6.49933">
        <ele>1776.17</ele>
        <time>2012-01-14T07:19:49Z</time>
      </trkpt>
      <trkpt lat="45.91976" lon="6.4993">
        <ele>1780.5</ele>
        <time>2012-01-14T07:20:04Z</time>
      </trkpt>
      <trkpt lat="45.91965" lon="6.49926">
        <ele>1783.86</ele>
        <time>2012-01-14T07:20:19Z</time>
      </trkpt>
      <trkpt lat="45.9196" lon="6.4993">
        <ele>1785.79</ele>
        <time>2012-01-14T07:20:33Z</time>
      </trkpt>
      <trkpt lat="45.91958" lon="6.49937">
        <ele>1786.75</ele>
        <time>2012-01-14T07:20:46Z</time>
      </trkpt>
      <trkpt lat="45.91958" lon="6.49939">
        <ele>1787.23</ele>
        <time>2012-01-14T07:20:51Z</time>
      </trkpt>
      <trkpt lat="45.91959" lon="6.49953">
        <ele>1789.15</ele>
        <time>2012-01-14T07:21:06Z</time>
      </trkpt>
      <trkpt lat="45.9196" lon="6.49958">
        <ele>1789.63</ele>
        <time>2012-01-14T07:21:20Z</time>
      </trkpt>
      <trkpt lat="45.91958" lon="6.49958">
        <ele>1792.03</ele>
        <time>2012-01-14T07:21:33Z</time>
      </trkpt>
      <trkpt lat="45.91948" lon="6.49957">
        <ele>1795.4</ele>
        <time>2012-01-14T07:21:49Z</time>
      </trkpt>
      <trkpt lat="45.91941" lon="6.49951">
        <ele>1797.8</ele>
        <time>2012-01-14T07:22:04Z</time>
      </trkpt>
      <trkpt lat="45.9194" lon="6.49954">
        <ele>1798.76</ele>
        <time>2012-01-14T07:22:16Z</time>
      </trkpt>
      <trkpt lat="45.9194" lon="6.49956">
        <ele>1798.76</ele>
        <time>2012-01-14T07:22:17Z</time>
      </trkpt>
      <trkpt lat="45.91938" lon="6.49965">
        <ele>1799.24</ele>
        <time>2012-01-14T07:22:28Z</time>
      </trkpt>
      <trkpt lat="45.91939" lon="6.4997">
        <ele>1799.73</ele>
        <time>2012-01-14T07:22:39Z</time>
      </trkpt>
      <trkpt lat="45.91941" lon="6.49978">
        <ele>1801.17</ele>
        <time>2012-01-14T07:22:53Z</time>
      </trkpt>
      <trkpt lat="45.91938" lon="6.49979">
        <ele>1803.09</ele>
        <time>2012-01-14T07:23:04Z</time>
      </trkpt>
      <trkpt lat="45.91937" lon="6.49981">
        <ele>1803.57</ele>
        <time>2012-01-14T07:23:08Z</time>
      </trkpt>
      <trkpt lat="45.91932" lon="6.49981">
        <ele>1808.86</ele>
        <time>2012-01-14T07:23:22Z</time>
      </trkpt>
      <trkpt lat="45.91927" lon="6.49979">
        <ele>1811.26</ele>
        <time>2012-01-14T07:23:36Z</time>
      </trkpt>
      <trkpt lat="45.91923" lon="6.49976">
        <ele>1812.7</ele>
        <time>2012-01-14T07:23:43Z</time>
      </trkpt>
      <trkpt lat="45.91921" lon="6.49975">
        <ele>1813.66</ele>
        <time>2012-01-14T07:23:46Z</time>
      </trkpt>
      <trkpt lat="45.91916" lon="6.4997">
        <ele>1817.99</ele>
        <time>2012-01-14T07:23:59Z</time>
      </trkpt>
      <trkpt lat="45.91914" lon="6.49978">
        <ele>1819.91</ele>
        <time>2012-01-14T07:24:11Z</time>
      </trkpt>
      <trkpt lat="45.91914" lon="6.49983">
        <ele>1820.87</ele>
        <time>2012-01-14T07:24:15Z</time>
      </trkpt>
      <trkpt lat="45.91915" lon="6.49993">
        <ele>1822.8</ele>
        <time>2012-01-14T07:24:28Z</time>
      </trkpt>
      <trkpt lat="45.91916" lon="6.49994">
        <ele>1822.8</ele>
        <time>2012-01-14T07:24:35Z</time>
      </trkpt>
      <trkpt lat="45.91916" lon="6.49998">
        <ele>1822.8</ele>
        <time>2012-01-14T07:24:45Z</time>
      </trkpt>
      <trkpt lat="45.91915" lon="6.49997">
        <ele>1823.76</ele>
        <time>2012-01-14T07:24:50Z</time>
      </trkpt>
      <trkpt lat="45.91914" lon="6.49997">
        <ele>1825.2</ele>
        <time>2012-01-14T07:25:02Z</time>
      </trkpt>
      <trkpt lat="45.91914" lon="6.49997">
        <ele>1825.2</ele>
        <time>2012-01-14T07:25:23Z</time>
      </trkpt>
      <trkpt lat="45.91914" lon="6.49997">
        <ele>1825.68</ele>
        <time>2012-01-14T07:25:43Z</time>
      </trkpt>
      <trkpt lat="45.91908" lon="6.49995">
        <ele>1827.12</ele>
        <time>2012-01-14T07:25:59Z</time>
      </trkpt>
      <trkpt lat="45.91899" lon="6.49994">
        <ele>1828.08</ele>
        <time>2012-01-14T07:26:12Z</time>
      </trkpt>
      <trkpt lat="45.91897" lon="6.50006">
        <ele>1830.97</ele>
        <time>2012-01-14T07:26:28Z</time>
      </trkpt>
      <trkpt lat="45.91896" lon="6.50016">
        <ele>1832.89</ele>
        <time>2012-01-14T07:26:40Z</time>
      </trkpt>
      <trkpt lat="45.91899" lon="6.50024">
        <ele>1833.37</ele>
        <time>2012-01-14T07:26:54Z</time>
      </trkpt>
      <trkpt lat="45.91901" lon="6.50035">
        <ele>1835.77</ele>
        <time>2012-01-14T07:27:06Z</time>
      </trkpt>
      <trkpt lat="45.91901" lon="6.50042">
        <ele>1837.22</ele>
        <time>2012-01-14T07:27:17Z</time>
      </trkpt>
      <trkpt lat="45.91897" lon="6.50036">
        <ele>1839.62</ele>
        <time>2012-01-14T07:27:31Z</time>
      </trkpt>
      <trkpt lat="45.91888" lon="6.50034">
        <ele>1843.47</ele>
        <time>2012-01-14T07:27:46Z</time>
      </trkpt>
      <trkpt lat="45.91891" lon="6.50044">
        <ele>1843.95</ele>
        <time>2012-01-14T07:27:59Z</time>
      </trkpt>
      <trkpt lat="45.91893" lon="6.50053">
        <ele>1844.91</ele>
        <time>2012-01-14T07:28:10Z</time>
      </trkpt>
      <trkpt lat="45.91895" lon="6.50064">
        <ele>1846.83</ele>
        <time>2012-01-14T07:28:23Z</time>
      </trkpt>
      <trkpt lat="45.91903" lon="6.50079">
        <ele>1849.23</ele>
        <time>2012-01-14T07:28:34Z</time>
      </trkpt>
      <trkpt lat="45.91908" lon="6.50088">
        <ele>1850.68</ele>
        <time>2012-01-14T07:28:45Z</time>
      </trkpt>
      <trkpt lat="45.91906" lon="6.50089">
        <ele>1852.12</ele>
        <time>2012-01-14T07:28:57Z</time>
      </trkpt>
      <trkpt lat="45.91906" lon="6.50086">
        <ele>1851.64</ele>
        <time>2012-01-14T07:29:01Z</time>
      </trkpt>
      <trkpt lat="45.919" lon="6.50087">
        <ele>1854.52</ele>
        <time>2012-01-14T07:29:14Z</time>
      </trkpt>
      <trkpt lat="45.91889" lon="6.50084">
        <ele>1857.89</ele>
        <time>2012-01-14T07:29:29Z</time>
      </trkpt>
      <trkpt lat="45.91882" lon="6.50086">
        <ele>1860.77</ele>
        <time>2012-01-14T07:29:44Z</time>
      </trkpt>
      <trkpt lat="45.91875" lon="6.50082">
        <ele>1865.09</ele>
        <time>2012-01-14T07:29:56Z</time>
      </trkpt>
      <trkpt lat="45.91868" lon="6.50083">
        <ele>1867.02</ele>
        <time>2012-01-14T07:30:08Z</time>
      </trkpt>
      <trkpt lat="45.91861" lon="6.50088">
        <ele>1869.42</ele>
        <time>2012-01-14T07:30:21Z</time>
      </trkpt>
      <trkpt lat="45.91853" lon="6.50084">
        <ele>1871.34</ele>
        <time>2012-01-14T07:30:34Z</time>
      </trkpt>
      <trkpt lat="45.91848" lon="6.50084">
        <ele>1873.75</ele>
        <time>2012-01-14T07:30:49Z</time>
      </trkpt>
      <trkpt lat="45.91846" lon="6.50085">
        <ele>1876.15</ele>
        <time>2012-01-14T07:31:06Z</time>
      </trkpt>
      <trkpt lat="45.91847" lon="6.50092">
        <ele>1875.67</ele>
        <time>2012-01-14T07:31:11Z</time>
      </trkpt>
      <trkpt lat="45.91851" lon="6.50106">
        <ele>1876.15</ele>
        <time>2012-01-14T07:31:24Z</time>
      </trkpt>
      <trkpt lat="45.91851" lon="6.50108">
        <ele>1875.67</ele>
        <time>2012-01-14T07:31:46Z</time>
      </trkpt>
      <trkpt lat="45.91855" lon="6.50116">
        <ele>1876.15</ele>
        <time>2012-01-14T07:31:56Z</time>
      </trkpt>
      <trkpt lat="45.91858" lon="6.50129">
        <ele>1878.07</ele>
        <time>2012-01-14T07:32:08Z</time>
      </trkpt>
      <trkpt lat="45.91862" lon="6.50138">
        <ele>1880.96</ele>
        <time>2012-01-14T07:32:22Z</time>
      </trkpt>
      <trkpt lat="45.91868" lon="6.50143">
        <ele>1882.88</ele>
        <time>2012-01-14T07:32:34Z</time>
      </trkpt>
      <trkpt lat="45.9187" lon="6.50145">
        <ele>1883.36</ele>
        <time>2012-01-14T07:32:45Z</time>
      </trkpt>
      <trkpt lat="45.9187" lon="6.50144">
        <ele>1884.32</ele>
        <time>2012-01-14T07:32:59Z</time>
      </trkpt>
      <trkpt lat="45.91867" lon="6.50145">
        <ele>1887.69</ele>
        <time>2012-01-14T07:33:19Z</time>
      </trkpt>
      <trkpt lat="45.91864" lon="6.50148">
        <ele>1888.17</ele>
        <time>2012-01-14T07:33:25Z</time>
      </trkpt>
      <trkpt lat="45.91858" lon="6.50152">
        <ele>1890.57</ele>
        <time>2012-01-14T07:33:35Z</time>
      </trkpt>
      <trkpt lat="45.9185" lon="6.50157">
        <ele>1892.97</ele>
        <time>2012-01-14T07:33:47Z</time>
      </trkpt>
      <trkpt lat="45.91844" lon="6.50157">
        <ele>1895.86</ele>
        <time>2012-01-14T07:34:00Z</time>
      </trkpt>
      <trkpt lat="45.91836" lon="6.50156">
        <ele>1899.22</ele>
        <time>2012-01-14T07:34:13Z</time>
      </trkpt>
      <trkpt lat="45.9183" lon="6.50153">
        <ele>1904.03</ele>
        <time>2012-01-14T07:34:29Z</time>
      </trkpt>
      <trkpt lat="45.9183" lon="6.50153">
        <ele>1904.03</ele>
        <time>2012-01-14T07:34:40Z</time>
      </trkpt>
      <trkpt lat="45.91837" lon="6.50172">
        <ele>1904.03</ele>
        <time>2012-01-14T07:34:54Z</time>
      </trkpt>
      <trkpt lat="45.91842" lon="6.50185">
        <ele>1903.07</ele>
        <time>2012-01-14T07:35:08Z</time>
      </trkpt>
      <trkpt lat="45.91845" lon="6.50191">
        <ele>1904.03</ele>
        <time>2012-01-14T07:35:21Z</time>
      </trkpt>
      <trkpt lat="45.91847" lon="6.50196">
        <ele>1905.47</ele>
        <time>2012-01-14T07:35:35Z</time>
      </trkpt>
      <trkpt lat="45.91847" lon="6.50196">
        <ele>1905.95</ele>
        <time>2012-01-14T07:35:50Z</time>
      </trkpt>
      <trkpt lat="45.91847" lon="6.50199">
        <ele>1905.95</ele>
        <time>2012-01-14T07:36:07Z</time>
      </trkpt>
      <trkpt lat="45.91844" lon="6.50204">
        <ele>1908.83</ele>
        <time>2012-01-14T07:36:19Z</time>
      </trkpt>
      <trkpt lat="45.91841" lon="6.50205">
        <ele>1910.76</ele>
        <time>2012-01-14T07:36:32Z</time>
      </trkpt>
      <trkpt lat="45.91831" lon="6.50206">
        <ele>1916.53</ele>
        <time>2012-01-14T07:36:46Z</time>
      </trkpt>
      <trkpt lat="45.91822" lon="6.50205">
        <ele>1918.93</ele>
        <time>2012-01-14T07:37:01Z</time>
      </trkpt>
      <trkpt lat="45.91814" lon="6.50204">
        <ele>1922.77</ele>
        <time>2012-01-14T07:37:15Z</time>
      </trkpt>
      <trkpt lat="45.9181" lon="6.50204">
        <ele>1925.66</ele>
        <time>2012-01-14T07:37:22Z</time>
      </trkpt>
      <trkpt lat="45.91803" lon="6.50203">
        <ele>1928.54</ele>
        <time>2012-01-14T07:37:37Z</time>
      </trkpt>
      <trkpt lat="45.91795" lon="6.50206">
        <ele>1932.39</ele>
        <time>2012-01-14T07:37:52Z</time>
      </trkpt>
      <trkpt lat="45.9179" lon="6.50203">
        <ele>1933.83</ele>
        <time>2012-01-14T07:38:07Z</time>
      </trkpt>
      <trkpt lat="45.9179" lon="6.50203">
        <ele>1933.83</ele>
        <time>2012-01-14T07:38:32Z</time>
      </trkpt>
      <trkpt lat="45.9179" lon="6.50203">
        <ele>1933.83</ele>
        <time>2012-01-14T07:39:02Z</time>
      </trkpt>
      <trkpt lat="45.9179" lon="6.50203">
        <ele>1933.83</ele>
        <time>2012-01-14T07:39:26Z</time>
      </trkpt>
      <trkpt lat="45.9179" lon="6.50203">
        <ele>1933.83</ele>
        <time>2012-01-14T07:39:47Z</time>
      </trkpt>
      <trkpt lat="45.91787" lon="6.50199">
        <ele>1937.19</ele>
        <time>2012-01-14T07:40:01Z</time>
      </trkpt>
      <trkpt lat="45.91786" lon="6.50195">
        <ele>1939.12</ele>
        <time>2012-01-14T07:40:04Z</time>
      </trkpt>
      <trkpt lat="45.9178" lon="6.50182">
        <ele>1942.96</ele>
        <time>2012-01-14T07:40:16Z</time>
      </trkpt>
      <trkpt lat="45.91771" lon="6.50177">
        <ele>1945.36</ele>
        <time>2012-01-14T07:40:27Z</time>
      </trkpt>
      <trkpt lat="45.91762" lon="6.50173">
        <ele>1948.73</ele>
        <time>2012-01-14T07:40:41Z</time>
      </trkpt>
      <trkpt lat="45.91755" lon="6.50171">
        <ele>1951.61</ele>
        <time>2012-01-14T07:40:54Z</time>
      </trkpt>
      <trkpt lat="45.91757" lon="6.50187">
        <ele>1952.09</ele>
        <time>2012-01-14T07:41:07Z</time>
      </trkpt>
      <trkpt lat="45.9176" lon="6.50201">
        <ele>1955.46</ele>
        <time>2012-01-14T07:41:21Z</time>
      </trkpt>
      <trkpt lat="45.91762" lon="6.50211">
        <ele>1958.82</ele>
        <time>2012-01-14T07:41:34Z</time>
      </trkpt>
      <trkpt lat="45.91764" lon="6.50222">
        <ele>1961.71</ele>
        <time>2012-01-14T07:41:47Z</time>
      </trkpt>
      <trkpt lat="45.91757" lon="6.50215">
        <ele>1964.59</ele>
        <time>2012-01-14T07:42:00Z</time>
      </trkpt>
      <trkpt lat="45.91748" lon="6.50212">
        <ele>1966.99</ele>
        <time>2012-01-14T07:42:14Z</time>
      </trkpt>
      <trkpt lat="45.9174" lon="6.50211">
        <ele>1968.44</ele>
        <time>2012-01-14T07:42:29Z</time>
      </trkpt>
      <trkpt lat="45.91741" lon="6.50219">
        <ele>1969.4</ele>
        <time>2012-01-14T07:42:41Z</time>
      </trkpt>
      <trkpt lat="45.91743" lon="6.50227">
        <ele>1971.32</ele>
        <time>2012-01-14T07:42:55Z</time>
      </trkpt>
      <trkpt lat="45.91744" lon="6.5023">
        <ele>1971.32</ele>
        <time>2012-01-14T07:43:17Z</time>
      </trkpt>
      <trkpt lat="45.91746" lon="6.50239">
        <ele>1973.24</ele>
        <time>2012-01-14T07:43:28Z</time>
      </trkpt>
      <trkpt lat="45.91749" lon="6.50252">
        <ele>1976.61</ele>
        <time>2012-01-14T07:43:42Z</time>
      </trkpt>
      <trkpt lat="45.91754" lon="6.50265">
        <ele>1979.01</ele>
        <time>2012-01-14T07:43:57Z</time>
      </trkpt>
      <trkpt lat="45.91754" lon="6.50277">
        <ele>1981.41</ele>
        <time>2012-01-14T07:44:10Z</time>
      </trkpt>
      <trkpt lat="45.91756" lon="6.5029">
        <ele>1982.86</ele>
        <time>2012-01-14T07:44:24Z</time>
      </trkpt>
      <trkpt lat="45.91759" lon="6.50302">
        <ele>1986.7</ele>
        <time>2012-01-14T07:44:37Z</time>
      </trkpt>
      <trkpt lat="45.91761" lon="6.50315">
        <ele>1989.59</ele>
        <time>2012-01-14T07:44:53Z</time>
      </trkpt>
      <trkpt lat="45.91763" lon="6.50321">
        <ele>1991.99</ele>
        <time>2012-01-14T07:45:07Z</time>
      </trkpt>
      <trkpt lat="45.91764" lon="6.50321">
        <ele>1991.99</ele>
        <time>2012-01-14T07:45:23Z</time>
      </trkpt>
      <trkpt lat="45.91764" lon="6.5032">
        <ele>1991.99</ele>
        <time>2012-01-14T07:45:40Z</time>
      </trkpt>
      <trkpt lat="45.91764" lon="6.5032">
        <ele>1991.99</ele>
        <time>2012-01-14T07:45:59Z</time>
      </trkpt>
      <trkpt lat="45.91761" lon="6.50318">
        <ele>1991.51</ele>
        <time>2012-01-14T07:46:11Z</time>
      </trkpt>
      <trkpt lat="45.91757" lon="6.50313">
        <ele>1992.47</ele>
        <time>2012-01-14T07:46:25Z</time>
      </trkpt>
      <trkpt lat="45.91753" lon="6.50309">
        <ele>1993.43</ele>
        <time>2012-01-14T07:46:39Z</time>
      </trkpt>
      <trkpt lat="45.91744" lon="6.50297">
        <ele>1994.87</ele>
        <time>2012-01-14T07:46:53Z</time>
      </trkpt>
      <trkpt lat="45.91743" lon="6.50296">
        <ele>1994.87</ele>
        <time>2012-01-14T07:46:54Z</time>
      </trkpt>
      <trkpt lat="45.91735" lon="6.50283">
        <ele>1997.28</ele>
        <time>2012-01-14T07:47:07Z</time>
      </trkpt>
      <trkpt lat="45.91728" lon="6.50274">
        <ele>1999.68</ele>
        <time>2012-01-14T07:47:20Z</time>
      </trkpt>
      <trkpt lat="45.91717" lon="6.50265">
        <ele>2002.08</ele>
        <time>2012-01-14T07:47:33Z</time>
      </trkpt>
      <trkpt lat="45.91714" lon="6.50263">
        <ele>2002.56</ele>
        <time>2012-01-14T07:47:37Z</time>
      </trkpt>
      <trkpt lat="45.91706" lon="6.50255">
        <ele>2003.04</ele>
        <time>2012-01-14T07:47:49Z</time>
      </trkpt>
      <trkpt lat="45.91703" lon="6.50252">
        <ele>2002.08</ele>
        <time>2012-01-14T07:47:54Z</time>
      </trkpt>
      <trkpt lat="45.917" lon="6.5025">
        <ele>2002.08</ele>
        <time>2012-01-14T07:47:57Z</time>
      </trkpt>
      <trkpt lat="45.91693" lon="6.50245">
        <ele>2004.01</ele>
        <time>2012-01-14T07:48:10Z</time>
      </trkpt>
      <trkpt lat="45.91689" lon="6.50243">
        <ele>2002.56</ele>
        <time>2012-01-14T07:48:21Z</time>
      </trkpt>
      <trkpt lat="45.91676" lon="6.50241">
        <ele>2001.6</ele>
        <time>2012-01-14T07:48:35Z</time>
      </trkpt>
      <trkpt lat="45.91672" lon="6.50232">
        <ele>2003.04</ele>
        <time>2012-01-14T07:48:49Z</time>
      </trkpt>
      <trkpt lat="45.91672" lon="6.5023">
        <ele>2003.04</ele>
        <time>2012-01-14T07:49:05Z</time>
      </trkpt>
      <trkpt lat="45.91668" lon="6.50229">
        <ele>2004.97</ele>
        <time>2012-01-14T07:49:21Z</time>
      </trkpt>
      <trkpt lat="45.91665" lon="6.50228">
        <ele>2005.93</ele>
        <time>2012-01-14T07:49:25Z</time>
      </trkpt>
      <trkpt lat="45.91655" lon="6.50222">
        <ele>2008.81</ele>
        <time>2012-01-14T07:49:40Z</time>
      </trkpt>
      <trkpt lat="45.91654" lon="6.50222">
        <ele>2010.25</ele>
        <time>2012-01-14T07:49:52Z</time>
      </trkpt>
      <trkpt lat="45.91654" lon="6.50226">
        <ele>2010.25</ele>
        <time>2012-01-14T07:50:06Z</time>
      </trkpt>
      <trkpt lat="45.91654" lon="6.50226">
        <ele>2010.25</ele>
        <time>2012-01-14T07:50:26Z</time>
      </trkpt>
      <trkpt lat="45.91654" lon="6.50226">
        <ele>2010.73</ele>
        <time>2012-01-14T07:50:47Z</time>
      </trkpt>
      <trkpt lat="45.91654" lon="6.50226">
        <ele>2010.73</ele>
        <time>2012-01-14T07:51:09Z</time>
      </trkpt>
      <trkpt lat="45.91655" lon="6.50227">
        <ele>2012.18</ele>
        <time>2012-01-14T07:51:23Z</time>
      </trkpt>
      <trkpt lat="45.91656" lon="6.50233">
        <ele>2012.66</ele>
        <time>2012-01-14T07:51:36Z</time>
      </trkpt>
      <trkpt lat="45.91657" lon="6.50235">
        <ele>2014.1</ele>
        <time>2012-01-14T07:51:50Z</time>
      </trkpt>
      <trkpt lat="45.9166" lon="6.50242">
        <ele>2017.94</ele>
        <time>2012-01-14T07:52:02Z</time>
      </trkpt>
      <trkpt lat="45.91658" lon="6.50244">
        <ele>2018.43</ele>
        <time>2012-01-14T07:52:17Z</time>
      </trkpt>
      <trkpt lat="45.9165" lon="6.50242">
        <ele>2020.83</ele>
        <time>2012-01-14T07:52:31Z</time>
      </trkpt>
      <trkpt lat="45.91646" lon="6.50241">
        <ele>2021.31</ele>
        <time>2012-01-14T07:52:46Z</time>
      </trkpt>
      <trkpt lat="45.91645" lon="6.50242">
        <ele>2022.27</ele>
        <time>2012-01-14T07:52:58Z</time>
      </trkpt>
      <trkpt lat="45.91646" lon="6.50255">
        <ele>2025.64</ele>
        <time>2012-01-14T07:53:12Z</time>
      </trkpt>
      <trkpt lat="45.91649" lon="6.50264">
        <ele>2027.56</ele>
        <time>2012-01-14T07:53:22Z</time>
      </trkpt>
      <trkpt lat="45.91654" lon="6.50275">
        <ele>2030.44</ele>
        <time>2012-01-14T07:53:34Z</time>
      </trkpt>
      <trkpt lat="45.91657" lon="6.50288">
        <ele>2032.36</ele>
        <time>2012-01-14T07:53:48Z</time>
      </trkpt>
      <trkpt lat="45.91659" lon="6.50299">
        <ele>2036.21</ele>
        <time>2012-01-14T07:54:03Z</time>
      </trkpt>
      <trkpt lat="45.9166" lon="6.503">
        <ele>2036.69</ele>
        <time>2012-01-14T07:54:06Z</time>
      </trkpt>
      <trkpt lat="45.91665" lon="6.50308">
        <ele>2039.09</ele>
        <time>2012-01-14T07:54:20Z</time>
      </trkpt>
      <trkpt lat="45.91665" lon="6.50308">
        <ele>2039.09</ele>
        <time>2012-01-14T07:54:42Z</time>
      </trkpt>
      <trkpt lat="45.91665" lon="6.50308">
        <ele>2038.61</ele>
        <time>2012-01-14T07:55:06Z</time>
      </trkpt>
      <trkpt lat="45.91665" lon="6.50308">
        <ele>2038.61</ele>
        <time>2012-01-14T07:55:29Z</time>
      </trkpt>
      <trkpt lat="45.91664" lon="6.50308">
        <ele>2039.57</ele>
        <time>2012-01-14T07:55:54Z</time>
      </trkpt>
      <trkpt lat="45.91666" lon="6.5031">
        <ele>2040.05</ele>
        <time>2012-01-14T07:56:21Z</time>
      </trkpt>
      <trkpt lat="45.91669" lon="6.50317">
        <ele>2042.46</ele>
        <time>2012-01-14T07:56:27Z</time>
      </trkpt>
      <trkpt lat="45.91672" lon="6.5033">
        <ele>2047.26</ele>
        <time>2012-01-14T07:56:40Z</time>
      </trkpt>
      <trkpt lat="45.91671" lon="6.50336">
        <ele>2051.59</ele>
        <time>2012-01-14T07:56:51Z</time>
      </trkpt>
      <trkpt lat="45.91669" lon="6.50336">
        <ele>2052.07</ele>
        <time>2012-01-14T07:57:13Z</time>
      </trkpt>
      <trkpt lat="45.91661" lon="6.50341">
        <ele>2054.47</ele>
        <time>2012-01-14T07:57:23Z</time>
      </trkpt>
      <trkpt lat="45.91653" lon="6.50349">
        <ele>2055.44</ele>
        <time>2012-01-14T07:57:36Z</time>
      </trkpt>
      <trkpt lat="45.91645" lon="6.50353">
        <ele>2058.32</ele>
        <time>2012-01-14T07:57:48Z</time>
      </trkpt>
      <trkpt lat="45.91639" lon="6.50359">
        <ele>2063.61</ele>
        <time>2012-01-14T07:58:00Z</time>
      </trkpt>
      <trkpt lat="45.91632" lon="6.50366">
        <ele>2067.45</ele>
        <time>2012-01-14T07:58:13Z</time>
      </trkpt>
      <trkpt lat="45.91625" lon="6.50364">
        <ele>2071.3</ele>
        <time>2012-01-14T07:58:23Z</time>
      </trkpt>
      <trkpt lat="45.91621" lon="6.50363">
        <ele>2071.78</ele>
        <time>2012-01-14T07:58:27Z</time>
      </trkpt>
      <trkpt lat="45.91618" lon="6.50362">
        <ele>2071.78</ele>
        <time>2012-01-14T07:58:31Z</time>
      </trkpt>
      <trkpt lat="45.9161" lon="6.50362">
        <ele>2071.78</ele>
        <time>2012-01-14T07:58:41Z</time>
      </trkpt>
      <trkpt lat="45.916" lon="6.50362">
        <ele>2073.7</ele>
        <time>2012-01-14T07:58:54Z</time>
      </trkpt>
      <trkpt lat="45.91591" lon="6.5036">
        <ele>2073.7</ele>
        <time>2012-01-14T07:59:06Z</time>
      </trkpt>
      <trkpt lat="45.91583" lon="6.50363">
        <ele>2075.14</ele>
        <time>2012-01-14T07:59:19Z</time>
      </trkpt>
      <trkpt lat="45.91578" lon="6.50366">
        <ele>2077.07</ele>
        <time>2012-01-14T07:59:33Z</time>
      </trkpt>
      <trkpt lat="45.91576" lon="6.50367">
        <ele>2077.07</ele>
        <time>2012-01-14T07:59:55Z</time>
      </trkpt>
      <trkpt lat="45.91573" lon="6.50368">
        <ele>2077.55</ele>
        <time>2012-01-14T07:59:59Z</time>
      </trkpt>
      <trkpt lat="45.91565" lon="6.50372">
        <ele>2080.43</ele>
        <time>2012-01-14T08:00:10Z</time>
      </trkpt>
      <trkpt lat="45.91562" lon="6.50375">
        <ele>2080.91</ele>
        <time>2012-01-14T08:00:15Z</time>
      </trkpt>
      <trkpt lat="45.91556" lon="6.50378">
        <ele>2081.39</ele>
        <time>2012-01-14T08:00:23Z</time>
      </trkpt>
      <trkpt lat="45.9155" lon="6.50383">
        <ele>2082.35</ele>
        <time>2012-01-14T08:00:35Z</time>
      </trkpt>
      <trkpt lat="45.91547" lon="6.50386">
        <ele>2082.83</ele>
        <time>2012-01-14T08:00:39Z</time>
      </trkpt>
      <trkpt lat="45.9154" lon="6.5039">
        <ele>2083.79</ele>
        <time>2012-01-14T08:00:51Z</time>
      </trkpt>
      <trkpt lat="45.9153" lon="6.50394">
        <ele>2083.31</ele>
        <time>2012-01-14T08:01:05Z</time>
      </trkpt>
      <trkpt lat="45.91522" lon="6.50398">
        <ele>2083.31</ele>
        <time>2012-01-14T08:01:20Z</time>
      </trkpt>
      <trkpt lat="45.91521" lon="6.50399">
        <ele>2084.28</ele>
        <time>2012-01-14T08:01:37Z</time>
      </trkpt>
      <trkpt lat="45.91513" lon="6.50402">
        <ele>2083.79</ele>
        <time>2012-01-14T08:01:51Z</time>
      </trkpt>
      <trkpt lat="45.91505" lon="6.50401">
        <ele>2084.28</ele>
        <time>2012-01-14T08:02:03Z</time>
      </trkpt>
      <trkpt lat="45.91495" lon="6.50401">
        <ele>2084.76</ele>
        <time>2012-01-14T08:02:15Z</time>
      </trkpt>
      <trkpt lat="45.91486" lon="6.50405">
        <ele>2084.76</ele>
        <time>2012-01-14T08:02:28Z</time>
      </trkpt>
      <trkpt lat="45.91485" lon="6.50406">
        <ele>2085.72</ele>
        <time>2012-01-14T08:02:43Z</time>
      </trkpt>
      <trkpt lat="45.91477" lon="6.50409">
        <ele>2087.16</ele>
        <time>2012-01-14T08:02:58Z</time>
      </trkpt>
      <trkpt lat="45.91469" lon="6.50408">
        <ele>2088.6</ele>
        <time>2012-01-14T08:03:10Z</time>
      </trkpt>
      <trkpt lat="45.91467" lon="6.50409">
        <ele>2090.04</ele>
        <time>2012-01-14T08:03:15Z</time>
      </trkpt>
      <trkpt lat="45.91457" lon="6.50407">
        <ele>2092.45</ele>
        <time>2012-01-14T08:03:28Z</time>
      </trkpt>
      <trkpt lat="45.91457" lon="6.50407">
        <ele>2092.93</ele>
        <time>2012-01-14T08:03:29Z</time>
      </trkpt>
      <trkpt lat="45.91448" lon="6.50404">
        <ele>2094.85</ele>
        <time>2012-01-14T08:03:42Z</time>
      </trkpt>
      <trkpt lat="45.91446" lon="6.50403">
        <ele>2094.85</ele>
        <time>2012-01-14T08:03:57Z</time>
      </trkpt>
      <trkpt lat="45.91446" lon="6.50403">
        <ele>2094.85</ele>
        <time>2012-01-14T08:04:19Z</time>
      </trkpt>
      <trkpt lat="45.91443" lon="6.50404">
        <ele>2096.29</ele>
        <time>2012-01-14T08:04:24Z</time>
      </trkpt>
      <trkpt lat="45.91432" lon="6.50397">
        <ele>2095.81</ele>
        <time>2012-01-14T08:04:38Z</time>
      </trkpt>
      <trkpt lat="45.91428" lon="6.50396">
        <ele>2097.73</ele>
        <time>2012-01-14T08:04:45Z</time>
      </trkpt>
      <trkpt lat="45.91426" lon="6.50394">
        <ele>2098.7</ele>
        <time>2012-01-14T08:04:48Z</time>
      </trkpt>
      <trkpt lat="45.91423" lon="6.50393">
        <ele>2098.7</ele>
        <time>2012-01-14T08:04:53Z</time>
      </trkpt>
      <trkpt lat="45.91415" lon="6.50388">
        <ele>2100.62</ele>
        <time>2012-01-14T08:05:06Z</time>
      </trkpt>
      <trkpt lat="45.91405" lon="6.50378">
        <ele>2103.02</ele>
        <time>2012-01-14T08:05:22Z</time>
      </trkpt>
      <trkpt lat="45.91406" lon="6.50378">
        <ele>2103.02</ele>
        <time>2012-01-14T08:05:43Z</time>
      </trkpt>
      <trkpt lat="45.91399" lon="6.50366">
        <ele>2103.5</ele>
        <time>2012-01-14T08:05:57Z</time>
      </trkpt>
      <trkpt lat="45.9139" lon="6.50356">
        <ele>2107.35</ele>
        <time>2012-01-14T08:06:13Z</time>
      </trkpt>
      <trkpt lat="45.91388" lon="6.50354">
        <ele>2107.83</ele>
        <time>2012-01-14T08:06:30Z</time>
      </trkpt>
      <trkpt lat="45.91386" lon="6.50349">
        <ele>2107.83</ele>
        <time>2012-01-14T08:06:53Z</time>
      </trkpt>
      <trkpt lat="45.91378" lon="6.50342">
        <ele>2109.75</ele>
        <time>2012-01-14T08:07:04Z</time>
      </trkpt>
      <trkpt lat="45.91371" lon="6.50334">
        <ele>2112.15</ele>
        <time>2012-01-14T08:07:17Z</time>
      </trkpt>
      <trkpt lat="45.91363" lon="6.50325">
        <ele>2114.08</ele>
        <time>2012-01-14T08:07:31Z</time>
      </trkpt>
      <trkpt lat="45.91354" lon="6.50319">
        <ele>2115.52</ele>
        <time>2012-01-14T08:07:46Z</time>
      </trkpt>
      <trkpt lat="45.91351" lon="6.50316">
        <ele>2116.48</ele>
        <time>2012-01-14T08:08:00Z</time>
      </trkpt>
      <trkpt lat="45.91351" lon="6.50317">
        <ele>2116.48</ele>
        <time>2012-01-14T08:08:23Z</time>
      </trkpt>
      <trkpt lat="45.91351" lon="6.50317">
        <ele>2116.48</ele>
        <time>2012-01-14T08:08:45Z</time>
      </trkpt>
      <trkpt lat="45.91352" lon="6.50316">
        <ele>2116.96</ele>
        <time>2012-01-14T08:09:05Z</time>
      </trkpt>
      <trkpt lat="45.91351" lon="6.50316">
        <ele>2116.96</ele>
        <time>2012-01-14T08:09:27Z</time>
      </trkpt>
      <trkpt lat="45.91351" lon="6.50317">
        <ele>2117.44</ele>
        <time>2012-01-14T08:09:47Z</time>
      </trkpt>
      <trkpt lat="45.91351" lon="6.50318">
        <ele>2117.92</ele>
        <time>2012-01-14T08:10:05Z</time>
      </trkpt>
      <trkpt lat="45.9135" lon="6.50317">
        <ele>2117.44</ele>
        <time>2012-01-14T08:10:31Z</time>
      </trkpt>
      <trkpt lat="45.9135" lon="6.50318">
        <ele>2117.92</ele>
        <time>2012-01-14T08:10:44Z</time>
      </trkpt>
      <trkpt lat="45.9135" lon="6.50318">
        <ele>2117.92</ele>
        <time>2012-01-14T08:11:02Z</time>
      </trkpt>
      <trkpt lat="45.9135" lon="6.50318">
        <ele>2117.92</ele>
        <time>2012-01-14T08:11:24Z</time>
      </trkpt>
      <trkpt lat="45.91351" lon="6.50317">
        <ele>2117.92</ele>
        <time>2012-01-14T08:11:45Z</time>
      </trkpt>
      <trkpt lat="45.91351" lon="6.50317">
        <ele>2117.92</ele>
        <time>2012-01-14T08:12:11Z</time>
      </trkpt>
      <trkpt lat="45.91343" lon="6.50315">
        <ele>2118.4</ele>
        <time>2012-01-14T08:12:27Z</time>
      </trkpt>
      <trkpt lat="45.91335" lon="6.50307">
        <ele>2121.77</ele>
        <time>2012-01-14T08:12:39Z</time>
      </trkpt>
      <trkpt lat="45.91332" lon="6.50303">
        <ele>2124.65</ele>
        <time>2012-01-14T08:12:46Z</time>
      </trkpt>
      <trkpt lat="45.91324" lon="6.50299">
        <ele>2127.53</ele>
        <time>2012-01-14T08:12:59Z</time>
      </trkpt>
      <trkpt lat="45.91323" lon="6.50313">
        <ele>2130.42</ele>
        <time>2012-01-14T08:13:12Z</time>
      </trkpt>
      <trkpt lat="45.91325" lon="6.50327">
        <ele>2139.55</ele>
        <time>2012-01-14T08:13:26Z</time>
      </trkpt>
      <trkpt lat="45.91324" lon="6.50333">
        <ele>2140.99</ele>
        <time>2012-01-14T08:13:38Z</time>
      </trkpt>
      <trkpt lat="45.91321" lon="6.50344">
        <ele>2142.92</ele>
        <time>2012-01-14T08:13:49Z</time>
      </trkpt>
      <trkpt lat="45.91319" lon="6.50355">
        <ele>2144.36</ele>
        <time>2012-01-14T08:14:00Z</time>
      </trkpt>
      <trkpt lat="45.91318" lon="6.50364">
        <ele>2144.36</ele>
        <time>2012-01-14T08:14:12Z</time>
      </trkpt>
      <trkpt lat="45.91316" lon="6.50378">
        <ele>2146.76</ele>
        <time>2012-01-14T08:14:25Z</time>
      </trkpt>
      <trkpt lat="45.91312" lon="6.50382">
        <ele>2147.24</ele>
        <time>2012-01-14T08:14:39Z</time>
      </trkpt>
      <trkpt lat="45.91303" lon="6.50374">
        <ele>2145.32</ele>
        <time>2012-01-14T08:14:52Z</time>
      </trkpt>
      <trkpt lat="45.91294" lon="6.50367">
        <ele>2148.68</ele>
        <time>2012-01-14T08:15:07Z</time>
      </trkpt>
      <trkpt lat="45.91284" lon="6.50362">
        <ele>2151.57</ele>
        <time>2012-01-14T08:15:22Z</time>
      </trkpt>
      <trkpt lat="45.91276" lon="6.50355">
        <ele>2155.41</ele>
        <time>2012-01-14T08:15:36Z</time>
      </trkpt>
      <trkpt lat="45.91271" lon="6.50352">
        <ele>2156.37</ele>
        <time>2012-01-14T08:15:50Z</time>
      </trkpt>
      <trkpt lat="45.91272" lon="6.50355">
        <ele>2157.82</ele>
        <time>2012-01-14T08:15:58Z</time>
      </trkpt>
      <trkpt lat="45.91276" lon="6.50369">
        <ele>2165.03</ele>
        <time>2012-01-14T08:16:10Z</time>
      </trkpt>
      <trkpt lat="45.91274" lon="6.50385">
        <ele>2165.51</ele>
        <time>2012-01-14T08:16:24Z</time>
      </trkpt>
      <trkpt lat="45.91273" lon="6.50396">
        <ele>2167.91</ele>
        <time>2012-01-14T08:16:36Z</time>
      </trkpt>
      <trkpt lat="45.91268" lon="6.50389">
        <ele>2167.91</ele>
        <time>2012-01-14T08:16:49Z</time>
      </trkpt>
      <trkpt lat="45.91262" lon="6.50379">
        <ele>2170.79</ele>
        <time>2012-01-14T08:17:03Z</time>
      </trkpt>
      <trkpt lat="45.91254" lon="6.50372">
        <ele>2172.24</ele>
        <time>2012-01-14T08:17:17Z</time>
      </trkpt>
      <trkpt lat="45.91253" lon="6.50372">
        <ele>2174.64</ele>
        <time>2012-01-14T08:17:30Z</time>
      </trkpt>
      <trkpt lat="45.91258" lon="6.50385">
        <ele>2179.93</ele>
        <time>2012-01-14T08:17:43Z</time>
      </trkpt>
      <trkpt lat="45.91259" lon="6.50397">
        <ele>2184.25</ele>
        <time>2012-01-14T08:17:53Z</time>
      </trkpt>
      <trkpt lat="45.91255" lon="6.50408">
        <ele>2183.29</ele>
        <time>2012-01-14T08:18:05Z</time>
      </trkpt>
      <trkpt lat="45.91257" lon="6.50419">
        <ele>2185.21</ele>
        <time>2012-01-14T08:18:17Z</time>
      </trkpt>
      <trkpt lat="45.91258" lon="6.50422">
        <ele>2186.66</ele>
        <time>2012-01-14T08:18:33Z</time>
      </trkpt>
      <trkpt lat="45.91251" lon="6.50417">
        <ele>2186.18</ele>
        <time>2012-01-14T08:18:47Z</time>
      </trkpt>
      <trkpt lat="45.91249" lon="6.50416">
        <ele>2186.18</ele>
        <time>2012-01-14T08:18:49Z</time>
      </trkpt>
      <trkpt lat="45.91242" lon="6.50409">
        <ele>2187.62</ele>
        <time>2012-01-14T08:19:02Z</time>
      </trkpt>
      <trkpt lat="45.91234" lon="6.50403">
        <ele>2189.06</ele>
        <time>2012-01-14T08:19:14Z</time>
      </trkpt>
      <trkpt lat="45.91239" lon="6.50412">
        <ele>2193.39</ele>
        <time>2012-01-14T08:19:25Z</time>
      </trkpt>
      <trkpt lat="45.91238" lon="6.50424">
        <ele>2195.79</ele>
        <time>2012-01-14T08:19:37Z</time>
      </trkpt>
      <trkpt lat="45.91237" lon="6.50431">
        <ele>2197.71</ele>
        <time>2012-01-14T08:19:51Z</time>
      </trkpt>
      <trkpt lat="45.91229" lon="6.50423">
        <ele>2197.71</ele>
        <time>2012-01-14T08:20:04Z</time>
      </trkpt>
      <trkpt lat="45.91223" lon="6.50414">
        <ele>2199.15</ele>
        <time>2012-01-14T08:20:18Z</time>
      </trkpt>
      <trkpt lat="45.91223" lon="6.50418">
        <ele>2199.63</ele>
        <time>2012-01-14T08:20:34Z</time>
      </trkpt>
      <trkpt lat="45.91224" lon="6.50427">
        <ele>2203</ele>
        <time>2012-01-14T08:20:46Z</time>
      </trkpt>
      <trkpt lat="45.91226" lon="6.50439">
        <ele>2206.36</ele>
        <time>2012-01-14T08:20:59Z</time>
      </trkpt>
      <trkpt lat="45.91228" lon="6.50451">
        <ele>2208.29</ele>
        <time>2012-01-14T08:21:11Z</time>
      </trkpt>
      <trkpt lat="45.91226" lon="6.50465">
        <ele>2205.88</ele>
        <time>2012-01-14T08:21:26Z</time>
      </trkpt>
      <trkpt lat="45.91228" lon="6.50474">
        <ele>2208.77</ele>
        <time>2012-01-14T08:21:34Z</time>
      </trkpt>
      <trkpt lat="45.91234" lon="6.50483">
        <ele>2212.13</ele>
        <time>2012-01-14T08:21:47Z</time>
      </trkpt>
      <trkpt lat="45.91234" lon="6.50486">
        <ele>2213.57</ele>
        <time>2012-01-14T08:22:03Z</time>
      </trkpt>
      <trkpt lat="45.91236" lon="6.50496">
        <ele>2215.98</ele>
        <time>2012-01-14T08:22:17Z</time>
      </trkpt>
      <trkpt lat="45.91236" lon="6.50507">
        <ele>2216.94</ele>
        <time>2012-01-14T08:22:29Z</time>
      </trkpt>
      <trkpt lat="45.91228" lon="6.50505">
        <ele>2216.94</ele>
        <time>2012-01-14T08:22:43Z</time>
      </trkpt>
      <trkpt lat="45.91227" lon="6.50503">
        <ele>2216.94</ele>
        <time>2012-01-14T08:22:56Z</time>
      </trkpt>
      <trkpt lat="45.91226" lon="6.50503">
        <ele>2216.94</ele>
        <time>2012-01-14T08:23:12Z</time>
      </trkpt>
      <trkpt lat="45.91226" lon="6.50504">
        <ele>2216.94</ele>
        <time>2012-01-14T08:23:31Z</time>
      </trkpt>
      <trkpt lat="45.91226" lon="6.50503">
        <ele>2217.42</ele>
        <time>2012-01-14T08:24:00Z</time>
      </trkpt>
      <trkpt lat="45.91226" lon="6.50503">
        <ele>2217.42</ele>
        <time>2012-01-14T08:24:25Z</time>
      </trkpt>
      <trkpt lat="45.91226" lon="6.50503">
        <ele>2217.42</ele>
        <time>2012-01-14T08:24:47Z</time>
      </trkpt>
      <trkpt lat="45.91226" lon="6.50503">
        <ele>2217.42</ele>
        <time>2012-01-14T08:25:16Z</time>
      </trkpt>
      <trkpt lat="45.91226" lon="6.50503">
        <ele>2216.94</ele>
        <time>2012-01-14T08:25:41Z</time>
      </trkpt>
      <trkpt lat="45.91226" lon="6.50504">
        <ele>2216.94</ele>
        <time>2012-01-14T08:26:05Z</time>
      </trkpt>
      <trkpt lat="45.91227" lon="6.50503">
        <ele>2216.94</ele>
        <time>2012-01-14T08:26:29Z</time>
      </trkpt>
      <trkpt lat="45.91227" lon="6.50503">
        <ele>2216.94</ele>
        <time>2012-01-14T08:26:54Z</time>
      </trkpt>
      <trkpt lat="45.91227" lon="6.50503">
        <ele>2216.94</ele>
        <time>2012-01-14T08:27:18Z</time>
      </trkpt>
      <trkpt lat="45.91227" lon="6.50503">
        <ele>2216.46</ele>
        <time>2012-01-14T08:27:45Z</time>
      </trkpt>
      <trkpt lat="45.91227" lon="6.50503">
        <ele>2216.46</ele>
        <time>2012-01-14T08:28:08Z</time>
      </trkpt>
      <trkpt lat="45.91227" lon="6.50503">
        <ele>2216.46</ele>
        <time>2012-01-14T08:28:28Z</time>
      </trkpt>
      <trkpt lat="45.91227" lon="6.50503">
        <ele>2216.46</ele>
        <time>2012-01-14T08:28:49Z</time>
      </trkpt>
      <trkpt lat="45.91227" lon="6.50503">
        <ele>2216.94</ele>
        <time>2012-01-14T08:29:12Z</time>
      </trkpt>
      <trkpt lat="45.91227" lon="6.50503">
        <ele>2216.94</ele>
        <time>2012-01-14T08:29:30Z</time>
      </trkpt>
      <trkpt lat="45.91227" lon="6.50503">
        <ele>2216.94</ele>
        <time>2012-01-14T08:29:58Z</time>
      </trkpt>
      <trkpt lat="45.91227" lon="6.50503">
        <ele>2216.94</ele>
        <time>2012-01-14T08:30:17Z</time>
      </trkpt>
      <trkpt lat="45.91226" lon="6.50504">
        <ele>2217.9</ele>
        <time>2012-01-14T08:30:41Z</time>
      </trkpt>
      <trkpt lat="45.91225" lon="6.50512">
        <ele>2219.82</ele>
        <time>2012-01-14T08:30:52Z</time>
      </trkpt>
      <trkpt lat="45.91214" lon="6.50508">
        <ele>2222.22</ele>
        <time>2012-01-14T08:31:04Z</time>
      </trkpt>
      <trkpt lat="45.91208" lon="6.50503">
        <ele>2227.03</ele>
        <time>2012-01-14T08:31:16Z</time>
      </trkpt>
      <trkpt lat="45.91206" lon="6.50508">
        <ele>2227.99</ele>
        <time>2012-01-14T08:31:29Z</time>
      </trkpt>
      <trkpt lat="45.91207" lon="6.5052">
        <ele>2230.4</ele>
        <time>2012-01-14T08:31:42Z</time>
      </trkpt>
      <trkpt lat="45.91208" lon="6.5053">
        <ele>2232.8</ele>
        <time>2012-01-14T08:31:54Z</time>
      </trkpt>
      <trkpt lat="45.91207" lon="6.50533">
        <ele>2233.28</ele>
        <time>2012-01-14T08:32:07Z</time>
      </trkpt>
      <trkpt lat="45.91199" lon="6.5053">
        <ele>2234.72</ele>
        <time>2012-01-14T08:32:19Z</time>
      </trkpt>
      <trkpt lat="45.91191" lon="6.50525">
        <ele>2236.64</ele>
        <time>2012-01-14T08:32:35Z</time>
      </trkpt>
      <trkpt lat="45.91189" lon="6.50526">
        <ele>2236.64</ele>
        <time>2012-01-14T08:32:42Z</time>
      </trkpt>
      <trkpt lat="45.91192" lon="6.50535">
        <ele>2241.45</ele>
        <time>2012-01-14T08:32:54Z</time>
      </trkpt>
      <trkpt lat="45.91196" lon="6.50548">
        <ele>2245.78</ele>
        <time>2012-01-14T08:33:08Z</time>
      </trkpt>
      <trkpt lat="45.91198" lon="6.50555">
        <ele>2246.74</ele>
        <time>2012-01-14T08:33:23Z</time>
      </trkpt>
      <trkpt lat="45.91191" lon="6.50553">
        <ele>2247.22</ele>
        <time>2012-01-14T08:33:36Z</time>
      </trkpt>
      <trkpt lat="45.91182" lon="6.50546">
        <ele>2248.66</ele>
        <time>2012-01-14T08:33:51Z</time>
      </trkpt>
      <trkpt lat="45.91178" lon="6.50543">
        <ele>2249.62</ele>
        <time>2012-01-14T08:33:57Z</time>
      </trkpt>
      <trkpt lat="45.91171" lon="6.50535">
        <ele>2252.51</ele>
        <time>2012-01-14T08:34:10Z</time>
      </trkpt>
      <trkpt lat="45.91168" lon="6.50532">
        <ele>2252.51</ele>
        <time>2012-01-14T08:34:23Z</time>
      </trkpt>
      <trkpt lat="45.91164" lon="6.50529">
        <ele>2252.51</ele>
        <time>2012-01-14T08:34:36Z</time>
      </trkpt>
      <trkpt lat="45.91165" lon="6.50543">
        <ele>2252.03</ele>
        <time>2012-01-14T08:34:49Z</time>
      </trkpt>
      <trkpt lat="45.91165" lon="6.50543">
        <ele>2252.03</ele>
        <time>2012-01-14T08:34:50Z</time>
      </trkpt>
      <trkpt lat="45.91166" lon="6.50553">
        <ele>2252.99</ele>
        <time>2012-01-14T08:35:05Z</time>
      </trkpt>
      <trkpt lat="45.91161" lon="6.50548">
        <ele>2257.31</ele>
        <time>2012-01-14T08:35:18Z</time>
      </trkpt>
      <trkpt lat="45.91152" lon="6.50543">
        <ele>2259.72</ele>
        <time>2012-01-14T08:35:31Z</time>
      </trkpt>
      <trkpt lat="45.91146" lon="6.50533">
        <ele>2262.12</ele>
        <time>2012-01-14T08:35:48Z</time>
      </trkpt>
      <trkpt lat="45.91147" lon="6.50538">
        <ele>2262.12</ele>
        <time>2012-01-14T08:36:05Z</time>
      </trkpt>
      <trkpt lat="45.91143" lon="6.50536">
        <ele>2264.04</ele>
        <time>2012-01-14T08:36:16Z</time>
      </trkpt>
      <trkpt lat="45.91139" lon="6.50528">
        <ele>2266.45</ele>
        <time>2012-01-14T08:36:29Z</time>
      </trkpt>
      <trkpt lat="45.9114" lon="6.50534">
        <ele>2266.93</ele>
        <time>2012-01-14T08:36:45Z</time>
      </trkpt>
      <trkpt lat="45.9114" lon="6.50549">
        <ele>2270.29</ele>
        <time>2012-01-14T08:37:00Z</time>
      </trkpt>
      <trkpt lat="45.91141" lon="6.5056">
        <ele>2272.21</ele>
        <time>2012-01-14T08:37:14Z</time>
      </trkpt>
      <trkpt lat="45.91143" lon="6.5057">
        <ele>2275.58</ele>
        <time>2012-01-14T08:37:27Z</time>
      </trkpt>
      <trkpt lat="45.91143" lon="6.50571">
        <ele>2276.06</ele>
        <time>2012-01-14T08:37:43Z</time>
      </trkpt>
      <trkpt lat="45.91143" lon="6.50571">
        <ele>2276.06</ele>
        <time>2012-01-14T08:38:07Z</time>
      </trkpt>
      <trkpt lat="45.91135" lon="6.50564">
        <ele>2274.62</ele>
        <time>2012-01-14T08:38:20Z</time>
      </trkpt>
      <trkpt lat="45.91128" lon="6.50556">
        <ele>2278.46</ele>
        <time>2012-01-14T08:38:33Z</time>
      </trkpt>
      <trkpt lat="45.91125" lon="6.50548">
        <ele>2280.87</ele>
        <time>2012-01-14T08:38:49Z</time>
      </trkpt>
      <trkpt lat="45.91124" lon="6.50553">
        <ele>2282.31</ele>
        <time>2012-01-14T08:39:02Z</time>
      </trkpt>
      <trkpt lat="45.91124" lon="6.50561">
        <ele>2283.27</ele>
        <time>2012-01-14T08:39:14Z</time>
      </trkpt>
      <trkpt lat="45.91123" lon="6.50576">
        <ele>2284.71</ele>
        <time>2012-01-14T08:39:30Z</time>
      </trkpt>
      <trkpt lat="45.91124" lon="6.50587">
        <ele>2287.11</ele>
        <time>2012-01-14T08:39:44Z</time>
      </trkpt>
      <trkpt lat="45.91127" lon="6.506">
        <ele>2290.48</ele>
        <time>2012-01-14T08:40:01Z</time>
      </trkpt>
      <trkpt lat="45.91132" lon="6.50614">
        <ele>2293.36</ele>
        <time>2012-01-14T08:40:16Z</time>
      </trkpt>
      <trkpt lat="45.91136" lon="6.50625">
        <ele>2295.77</ele>
        <time>2012-01-14T08:40:33Z</time>
      </trkpt>
      <trkpt lat="45.9114" lon="6.50638">
        <ele>2301.05</ele>
        <time>2012-01-14T08:40:48Z</time>
      </trkpt>
      <trkpt lat="45.91141" lon="6.50644">
        <ele>2302.98</ele>
        <time>2012-01-14T08:41:02Z</time>
      </trkpt>
      <trkpt lat="45.91141" lon="6.50645">
        <ele>2302.98</ele>
        <time>2012-01-14T08:41:15Z</time>
      </trkpt>
      <trkpt lat="45.91141" lon="6.50645">
        <ele>2302.98</ele>
        <time>2012-01-14T08:41:41Z</time>
      </trkpt>
      <trkpt lat="45.91134" lon="6.50643">
        <ele>2304.42</ele>
        <time>2012-01-14T08:41:56Z</time>
      </trkpt>
      <trkpt lat="45.91125" lon="6.5064">
        <ele>2305.86</ele>
        <time>2012-01-14T08:42:11Z</time>
      </trkpt>
      <trkpt lat="45.91114" lon="6.50639">
        <ele>2309.22</ele>
        <time>2012-01-14T08:42:26Z</time>
      </trkpt>
      <trkpt lat="45.91106" lon="6.50631">
        <ele>2312.59</ele>
        <time>2012-01-14T08:42:39Z</time>
      </trkpt>
      <trkpt lat="45.91102" lon="6.50626">
        <ele>2315.47</ele>
        <time>2012-01-14T08:42:53Z</time>
      </trkpt>
      <trkpt lat="45.91102" lon="6.5063">
        <ele>2316.91</ele>
        <time>2012-01-14T08:43:05Z</time>
      </trkpt>
      <trkpt lat="45.91101" lon="6.50636">
        <ele>2316.91</ele>
        <time>2012-01-14T08:43:19Z</time>
      </trkpt>
      <trkpt lat="45.91095" lon="6.50635">
        <ele>2316.43</ele>
        <time>2012-01-14T08:43:40Z</time>
      </trkpt>
      <trkpt lat="45.91094" lon="6.50634">
        <ele>2316.91</ele>
        <time>2012-01-14T08:43:55Z</time>
      </trkpt>
      <trkpt lat="45.91094" lon="6.50634">
        <ele>2316.91</ele>
        <time>2012-01-14T08:44:25Z</time>
      </trkpt>
      <trkpt lat="45.91095" lon="6.50633">
        <ele>2317.4</ele>
        <time>2012-01-14T08:44:42Z</time>
      </trkpt>
      <trkpt lat="45.91095" lon="6.50632">
        <ele>2317.88</ele>
        <time>2012-01-14T08:45:02Z</time>
      </trkpt>
      <trkpt lat="45.91094" lon="6.50632">
        <ele>2317.4</ele>
        <time>2012-01-14T08:45:19Z</time>
      </trkpt>
      <trkpt lat="45.91094" lon="6.50632">
        <ele>2317.4</ele>
        <time>2012-01-14T08:45:42Z</time>
      </trkpt>
      <trkpt lat="45.91094" lon="6.50632">
        <ele>2317.4</ele>
        <time>2012-01-14T08:46:00Z</time>
      </trkpt>
      <trkpt lat="45.91096" lon="6.50633">
        <ele>2316.91</ele>
        <time>2012-01-14T08:46:18Z</time>
      </trkpt>
      <trkpt lat="45.91096" lon="6.50633">
        <ele>2316.91</ele>
        <time>2012-01-14T08:46:35Z</time>
      </trkpt>
      <trkpt lat="45.91095" lon="6.50632">
        <ele>2316.91</ele>
        <time>2012-01-14T08:47:00Z</time>
      </trkpt>
      <trkpt lat="45.91095" lon="6.50633">
        <ele>2317.4</ele>
        <time>2012-01-14T08:47:21Z</time>
      </trkpt>
      <trkpt lat="45.91087" lon="6.50631">
        <ele>2316.91</ele>
        <time>2012-01-14T08:47:42Z</time>
      </trkpt>
      <trkpt lat="45.91076" lon="6.50626">
        <ele>2316.91</ele>
        <time>2012-01-14T08:47:56Z</time>
      </trkpt>
      <trkpt lat="45.9107" lon="6.50615">
        <ele>2318.84</ele>
        <time>2012-01-14T08:48:09Z</time>
      </trkpt>
      <trkpt lat="45.91067" lon="6.50604">
        <ele>2322.2</ele>
        <time>2012-01-14T08:48:25Z</time>
      </trkpt>
      <trkpt lat="45.91065" lon="6.50589">
        <ele>2327.49</ele>
        <time>2012-01-14T08:48:39Z</time>
      </trkpt>
      <trkpt lat="45.91064" lon="6.50573">
        <ele>2331.81</ele>
        <time>2012-01-14T08:48:54Z</time>
      </trkpt>
      <trkpt lat="45.91058" lon="6.50564">
        <ele>2331.33</ele>
        <time>2012-01-14T08:49:08Z</time>
      </trkpt>
      <trkpt lat="45.91058" lon="6.50564">
        <ele>2331.33</ele>
        <time>2012-01-14T08:49:28Z</time>
      </trkpt>
      <trkpt lat="45.91058" lon="6.50564">
        <ele>2331.33</ele>
        <time>2012-01-14T08:49:53Z</time>
      </trkpt>
      <trkpt lat="45.91049" lon="6.50552">
        <ele>2336.14</ele>
        <time>2012-01-14T08:50:07Z</time>
      </trkpt>
      <trkpt lat="45.91042" lon="6.50536">
        <ele>2337.58</ele>
        <time>2012-01-14T08:50:22Z</time>
      </trkpt>
      <trkpt lat="45.9104" lon="6.50555">
        <ele>2340.47</ele>
        <time>2012-01-14T08:50:37Z</time>
      </trkpt>
      <trkpt lat="45.91039" lon="6.50566">
        <ele>2344.31</ele>
        <time>2012-01-14T08:50:48Z</time>
      </trkpt>
      <trkpt lat="45.91042" lon="6.5058">
        <ele>2347.2</ele>
        <time>2012-01-14T08:51:02Z</time>
      </trkpt>
      <trkpt lat="45.9104" lon="6.50585">
        <ele>2349.12</ele>
        <time>2012-01-14T08:51:16Z</time>
      </trkpt>
      <trkpt lat="45.91032" lon="6.50576">
        <ele>2350.08</ele>
        <time>2012-01-14T08:51:29Z</time>
      </trkpt>
      <trkpt lat="45.91029" lon="6.50572">
        <ele>2350.08</ele>
        <time>2012-01-14T08:51:44Z</time>
      </trkpt>
      <trkpt lat="45.9103" lon="6.50587">
        <ele>2350.56</ele>
        <time>2012-01-14T08:51:57Z</time>
      </trkpt>
      <trkpt lat="45.91032" lon="6.50601">
        <ele>2350.08</ele>
        <time>2012-01-14T08:52:10Z</time>
      </trkpt>
      <trkpt lat="45.91031" lon="6.50609">
        <ele>2352.48</ele>
        <time>2012-01-14T08:52:18Z</time>
      </trkpt>
      <trkpt lat="45.91031" lon="6.5062">
        <ele>2356.81</ele>
        <time>2012-01-14T08:52:31Z</time>
      </trkpt>
      <trkpt lat="45.91033" lon="6.5063">
        <ele>2359.21</ele>
        <time>2012-01-14T08:52:42Z</time>
      </trkpt>
      <trkpt lat="45.91037" lon="6.5064">
        <ele>2364.5</ele>
        <time>2012-01-14T08:52:58Z</time>
      </trkpt>
      <trkpt lat="45.91037" lon="6.50644">
        <ele>2364.98</ele>
        <time>2012-01-14T08:53:14Z</time>
      </trkpt>
      <trkpt lat="45.9103" lon="6.50636">
        <ele>2365.94</ele>
        <time>2012-01-14T08:53:29Z</time>
      </trkpt>
      <trkpt lat="45.91021" lon="6.50627">
        <ele>2365.94</ele>
        <time>2012-01-14T08:53:42Z</time>
      </trkpt>
      <trkpt lat="45.91017" lon="6.50619">
        <ele>2366.42</ele>
        <time>2012-01-14T08:53:56Z</time>
      </trkpt>
      <trkpt lat="45.91014" lon="6.50629">
        <ele>2366.42</ele>
        <time>2012-01-14T08:54:10Z</time>
      </trkpt>
      <trkpt lat="45.91013" lon="6.50638">
        <ele>2365.46</ele>
        <time>2012-01-14T08:54:18Z</time>
      </trkpt>
      <trkpt lat="45.91014" lon="6.5065">
        <ele>2368.35</ele>
        <time>2012-01-14T08:54:31Z</time>
      </trkpt>
      <trkpt lat="45.9102" lon="6.50662">
        <ele>2375.55</ele>
        <time>2012-01-14T08:54:45Z</time>
      </trkpt>
      <trkpt lat="45.91018" lon="6.50659">
        <ele>2376.52</ele>
        <time>2012-01-14T08:55:02Z</time>
      </trkpt>
      <trkpt lat="45.91008" lon="6.5065">
        <ele>2377.96</ele>
        <time>2012-01-14T08:55:16Z</time>
      </trkpt>
      <trkpt lat="45.91002" lon="6.50645">
        <ele>2377.48</ele>
        <time>2012-01-14T08:55:30Z</time>
      </trkpt>
      <trkpt lat="45.90996" lon="6.50638">
        <ele>2378.44</ele>
        <time>2012-01-14T08:55:40Z</time>
      </trkpt>
      <trkpt lat="45.90996" lon="6.50647">
        <ele>2379.88</ele>
        <time>2012-01-14T08:55:55Z</time>
      </trkpt>
      <trkpt lat="45.90996" lon="6.50657">
        <ele>2382.76</ele>
        <time>2012-01-14T08:56:07Z</time>
      </trkpt>
      <trkpt lat="45.90998" lon="6.50668">
        <ele>2387.09</ele>
        <time>2012-01-14T08:56:21Z</time>
      </trkpt>
      <trkpt lat="45.91002" lon="6.50681">
        <ele>2392.86</ele>
        <time>2012-01-14T08:56:36Z</time>
      </trkpt>
      <trkpt lat="45.91004" lon="6.5069">
        <ele>2397.18</ele>
        <time>2012-01-14T08:56:50Z</time>
      </trkpt>
      <trkpt lat="45.91006" lon="6.50697">
        <ele>2400.55</ele>
        <time>2012-01-14T08:57:05Z</time>
      </trkpt>
      <trkpt lat="45.91007" lon="6.50705">
        <ele>2401.99</ele>
        <time>2012-01-14T08:57:25Z</time>
      </trkpt>
      <trkpt lat="45.9101" lon="6.50714">
        <ele>2405.36</ele>
        <time>2012-01-14T08:57:40Z</time>
      </trkpt>
      <trkpt lat="45.91009" lon="6.50714">
        <ele>2405.36</ele>
        <time>2012-01-14T08:57:59Z</time>
      </trkpt>
      <trkpt lat="45.91001" lon="6.50713">
        <ele>2407.28</ele>
        <time>2012-01-14T08:58:18Z</time>
      </trkpt>
      <trkpt lat="45.90993" lon="6.5071">
        <ele>2410.16</ele>
        <time>2012-01-14T08:58:32Z</time>
      </trkpt>
      <trkpt lat="45.90986" lon="6.50703">
        <ele>2413.53</ele>
        <time>2012-01-14T08:58:45Z</time>
      </trkpt>
      <trkpt lat="45.90981" lon="6.50696">
        <ele>2415.93</ele>
        <time>2012-01-14T08:58:59Z</time>
      </trkpt>
      <trkpt lat="45.90978" lon="6.50692">
        <ele>2415.93</ele>
        <time>2012-01-14T08:59:14Z</time>
      </trkpt>
      <trkpt lat="45.90975" lon="6.50701">
        <ele>2415.45</ele>
        <time>2012-01-14T08:59:29Z</time>
      </trkpt>
      <trkpt lat="45.90975" lon="6.50709">
        <ele>2416.89</ele>
        <time>2012-01-14T08:59:41Z</time>
      </trkpt>
      <trkpt lat="45.90976" lon="6.50722">
        <ele>2419.78</ele>
        <time>2012-01-14T08:59:54Z</time>
      </trkpt>
      <trkpt lat="45.90978" lon="6.50735">
        <ele>2420.74</ele>
        <time>2012-01-14T09:00:09Z</time>
      </trkpt>
      <trkpt lat="45.90986" lon="6.50744">
        <ele>2424.58</ele>
        <time>2012-01-14T09:00:26Z</time>
      </trkpt>
      <trkpt lat="45.90987" lon="6.50745">
        <ele>2426.02</ele>
        <time>2012-01-14T09:00:45Z</time>
      </trkpt>
      <trkpt lat="45.90975" lon="6.50752">
        <ele>2426.99</ele>
        <time>2012-01-14T09:01:03Z</time>
      </trkpt>
      <trkpt lat="45.90966" lon="6.50751">
        <ele>2430.35</ele>
        <time>2012-01-14T09:01:17Z</time>
      </trkpt>
      <trkpt lat="45.90964" lon="6.50749">
        <ele>2430.83</ele>
        <time>2012-01-14T09:01:31Z</time>
      </trkpt>
      <trkpt lat="45.90955" lon="6.50743">
        <ele>2433.23</ele>
        <time>2012-01-14T09:01:43Z</time>
      </trkpt>
      <trkpt lat="45.90955" lon="6.50744">
        <ele>2434.2</ele>
        <time>2012-01-14T09:01:59Z</time>
      </trkpt>
      <trkpt lat="45.90954" lon="6.50755">
        <ele>2434.68</ele>
        <time>2012-01-14T09:02:11Z</time>
      </trkpt>
      <trkpt lat="45.90953" lon="6.50758">
        <ele>2435.16</ele>
        <time>2012-01-14T09:02:26Z</time>
      </trkpt>
      <trkpt lat="45.90949" lon="6.50756">
        <ele>2435.64</ele>
        <time>2012-01-14T09:02:40Z</time>
      </trkpt>
      <trkpt lat="45.9094" lon="6.50748">
        <ele>2435.64</ele>
        <time>2012-01-14T09:02:55Z</time>
      </trkpt>
      <trkpt lat="45.9094" lon="6.50748">
        <ele>2435.64</ele>
        <time>2012-01-14T09:03:13Z</time>
      </trkpt>
      <trkpt lat="45.90937" lon="6.50749">
        <ele>2435.16</ele>
        <time>2012-01-14T09:03:35Z</time>
      </trkpt>
      <trkpt lat="45.90935" lon="6.50761">
        <ele>2435.64</ele>
        <time>2012-01-14T09:03:47Z</time>
      </trkpt>
      <trkpt lat="45.90938" lon="6.50773">
        <ele>2439</ele>
        <time>2012-01-14T09:03:59Z</time>
      </trkpt>
      <trkpt lat="45.90941" lon="6.50783">
        <ele>2442.37</ele>
        <time>2012-01-14T09:04:12Z</time>
      </trkpt>
      <trkpt lat="45.90945" lon="6.50797">
        <ele>2445.25</ele>
        <time>2012-01-14T09:04:26Z</time>
      </trkpt>
      <trkpt lat="45.90949" lon="6.50805">
        <ele>2448.13</ele>
        <time>2012-01-14T09:04:38Z</time>
      </trkpt>
      <trkpt lat="45.90949" lon="6.50807">
        <ele>2448.13</ele>
        <time>2012-01-14T09:04:59Z</time>
      </trkpt>
      <trkpt lat="45.9095" lon="6.50817">
        <ele>2450.06</ele>
        <time>2012-01-14T09:05:12Z</time>
      </trkpt>
      <trkpt lat="45.90952" lon="6.50825">
        <ele>2453.9</ele>
        <time>2012-01-14T09:05:27Z</time>
      </trkpt>
      <trkpt lat="45.9095" lon="6.50822">
        <ele>2455.34</ele>
        <time>2012-01-14T09:05:42Z</time>
      </trkpt>
      <trkpt lat="45.90943" lon="6.5082">
        <ele>2457.27</ele>
        <time>2012-01-14T09:05:56Z</time>
      </trkpt>
      <trkpt lat="45.90943" lon="6.50826">
        <ele>2458.23</ele>
        <time>2012-01-14T09:06:10Z</time>
      </trkpt>
      <trkpt lat="45.90946" lon="6.50837">
        <ele>2463.04</ele>
        <time>2012-01-14T09:06:23Z</time>
      </trkpt>
      <trkpt lat="45.90948" lon="6.50845">
        <ele>2466.88</ele>
        <time>2012-01-14T09:06:38Z</time>
      </trkpt>
      <trkpt lat="45.90948" lon="6.50845">
        <ele>2466.88</ele>
        <time>2012-01-14T09:06:56Z</time>
      </trkpt>
      <trkpt lat="45.90948" lon="6.50845">
        <ele>2466.88</ele>
        <time>2012-01-14T09:07:12Z</time>
      </trkpt>
      <trkpt lat="45.90942" lon="6.50842">
        <ele>2466.4</ele>
        <time>2012-01-14T09:07:26Z</time>
      </trkpt>
      <trkpt lat="45.90942" lon="6.50842">
        <ele>2466.4</ele>
        <time>2012-01-14T09:07:43Z</time>
      </trkpt>
      <trkpt lat="45.90942" lon="6.50842">
        <ele>2466.4</ele>
        <time>2012-01-14T09:08:00Z</time>
      </trkpt>
      <trkpt lat="45.90941" lon="6.50842">
        <ele>2466.88</ele>
        <time>2012-01-14T09:08:24Z</time>
      </trkpt>
      <trkpt lat="45.90941" lon="6.50842">
        <ele>2466.88</ele>
        <time>2012-01-14T09:08:41Z</time>
      </trkpt>
      <trkpt lat="45.90934" lon="6.50844">
        <ele>2468.32</ele>
        <time>2012-01-14T09:08:56Z</time>
      </trkpt>
      <trkpt lat="45.90931" lon="6.50842">
        <ele>2468.32</ele>
        <time>2012-01-14T09:09:12Z</time>
      </trkpt>
      <trkpt lat="45.90931" lon="6.50842">
        <ele>2468.32</ele>
        <time>2012-01-14T09:09:33Z</time>
      </trkpt>
      <trkpt lat="45.9093" lon="6.50842">
        <ele>2468.32</ele>
        <time>2012-01-14T09:09:50Z</time>
      </trkpt>
      <trkpt lat="45.9092" lon="6.50841">
        <ele>2475.05</ele>
        <time>2012-01-14T09:10:05Z</time>
      </trkpt>
      <trkpt lat="45.90917" lon="6.50845">
        <ele>2483.22</ele>
        <time>2012-01-14T09:10:18Z</time>
      </trkpt>
      <trkpt lat="45.90918" lon="6.50848">
        <ele>2484.66</ele>
        <time>2012-01-14T09:10:37Z</time>
      </trkpt>
      <trkpt lat="45.90916" lon="6.50852">
        <ele>2485.15</ele>
        <time>2012-01-14T09:10:54Z</time>
      </trkpt>
      <trkpt lat="45.90915" lon="6.50852">
        <ele>2485.63</ele>
        <time>2012-01-14T09:10:56Z</time>
      </trkpt>
      <trkpt lat="45.90909" lon="6.50843">
        <ele>2491.87</ele>
        <time>2012-01-14T09:11:09Z</time>
      </trkpt>
      <trkpt lat="45.9091" lon="6.5084">
        <ele>2493.8</ele>
        <time>2012-01-14T09:11:26Z</time>
      </trkpt>
      <trkpt lat="45.90909" lon="6.5084">
        <ele>2496.68</ele>
        <time>2012-01-14T09:11:40Z</time>
      </trkpt>
      <trkpt lat="45.90904" lon="6.50838">
        <ele>2498.6</ele>
        <time>2012-01-14T09:11:54Z</time>
      </trkpt>
      <trkpt lat="45.90901" lon="6.50833">
        <ele>2500.05</ele>
        <time>2012-01-14T09:12:08Z</time>
      </trkpt>
      <trkpt lat="45.90901" lon="6.50833">
        <ele>2500.53</ele>
        <time>2012-01-14T09:12:22Z</time>
      </trkpt>
      <trkpt lat="45.90901" lon="6.50834">
        <ele>2500.53</ele>
        <time>2012-01-14T09:12:39Z</time>
      </trkpt>
      <trkpt lat="45.90901" lon="6.50834">
        <ele>2500.53</ele>
        <time>2012-01-14T09:12:59Z</time>
      </trkpt>
      <trkpt lat="45.909" lon="6.50833">
        <ele>2501.01</ele>
        <time>2012-01-14T09:13:18Z</time>
      </trkpt>
      <trkpt lat="45.909" lon="6.50838">
        <ele>2501.01</ele>
        <time>2012-01-14T09:13:33Z</time>
      </trkpt>
      <trkpt lat="45.909" lon="6.50839">
        <ele>2501.01</ele>
        <time>2012-01-14T09:13:50Z</time>
      </trkpt>
      <trkpt lat="45.909" lon="6.50839">
        <ele>2501.01</ele>
        <time>2012-01-14T09:14:06Z</time>
      </trkpt>
      <trkpt lat="45.909" lon="6.50839">
        <ele>2501.01</ele>
        <time>2012-01-14T09:14:29Z</time>
      </trkpt>
      <trkpt lat="45.90901" lon="6.50839">
        <ele>2501.01</ele>
        <time>2012-01-14T09:14:44Z</time>
      </trkpt>
      <trkpt lat="45.90904" lon="6.50831">
        <ele>2501.01</ele>
        <time>2012-01-14T09:14:56Z</time>
      </trkpt>
      <trkpt lat="45.90904" lon="6.50829">
        <ele>2500.53</ele>
        <time>2012-01-14T09:15:12Z</time>
      </trkpt>
      <trkpt lat="45.90904" lon="6.50829">
        <ele>2500.53</ele>
        <time>2012-01-14T09:15:22Z</time>
      </trkpt>
      <trkpt lat="45.90903" lon="6.50841">
        <ele>2501.01</ele>
        <time>2012-01-14T09:15:39Z</time>
      </trkpt>
      <trkpt lat="45.90904" lon="6.50841">
        <ele>2500.05</ele>
        <time>2012-01-14T09:15:56Z</time>
      </trkpt>
      <trkpt lat="45.90904" lon="6.50841">
        <ele>2500.05</ele>
        <time>2012-01-14T09:16:19Z</time>
      </trkpt>
      <trkpt lat="45.90904" lon="6.50841">
        <ele>2500.05</ele>
        <time>2012-01-14T09:16:46Z</time>
      </trkpt>
      <trkpt lat="45.90904" lon="6.50841">
        <ele>2500.05</ele>
        <time>2012-01-14T09:17:12Z</time>
      </trkpt>
      <trkpt lat="45.90904" lon="6.50841">
        <ele>2500.05</ele>
        <time>2012-01-14T09:17:38Z</time>
      </trkpt>
      <trkpt lat="45.90903" lon="6.50841">
        <ele>2498.6</ele>
        <time>2012-01-14T09:17:58Z</time>
      </trkpt>
      <trkpt lat="45.90903" lon="6.50841">
        <ele>2498.6</ele>
        <time>2012-01-14T09:18:18Z</time>
      </trkpt>
      <trkpt lat="45.90903" lon="6.50841">
        <ele>2498.6</ele>
        <time>2012-01-14T09:18:40Z</time>
      </trkpt>
      <trkpt lat="45.90903" lon="6.50841">
        <ele>2498.6</ele>
        <time>2012-01-14T09:18:54Z</time>
      </trkpt>
      <trkpt lat="45.90903" lon="6.50841">
        <ele>2498.6</ele>
        <time>2012-01-14T09:19:20Z</time>
      </trkpt>
      <trkpt lat="45.90903" lon="6.50841">
        <ele>2498.6</ele>
        <time>2012-01-14T09:19:36Z</time>
      </trkpt>
      <trkpt lat="45.90903" lon="6.50841">
        <ele>2498.6</ele>
        <time>2012-01-14T09:19:53Z</time>
      </trkpt>
      <trkpt lat="45.90903" lon="6.50841">
        <ele>2498.6</ele>
        <time>2012-01-14T09:20:15Z</time>
      </trkpt>
      <trkpt lat="45.90903" lon="6.50841">
        <ele>2498.6</ele>
        <time>2012-01-14T09:20:36Z</time>
      </trkpt>
      <trkpt lat="45.90902" lon="6.50843">
        <ele>2499.08</ele>
        <time>2012-01-14T09:20:49Z</time>
      </trkpt>
      <trkpt lat="45.90902" lon="6.50843">
        <ele>2499.08</ele>
        <time>2012-01-14T09:21:11Z</time>
      </trkpt>
      <trkpt lat="45.90903" lon="6.50842">
        <ele>2499.08</ele>
        <time>2012-01-14T09:21:30Z</time>
      </trkpt>
      <trkpt lat="45.90903" lon="6.50842">
        <ele>2499.08</ele>
        <time>2012-01-14T09:21:47Z</time>
      </trkpt>
      <trkpt lat="45.90903" lon="6.50842">
        <ele>2499.08</ele>
        <time>2012-01-14T09:22:11Z</time>
      </trkpt>
      <trkpt lat="45.90903" lon="6.50842">
        <ele>2499.08</ele>
        <time>2012-01-14T09:22:28Z</time>
      </trkpt>
      <trkpt lat="45.90903" lon="6.50842">
        <ele>2499.08</ele>
        <time>2012-01-14T09:22:48Z</time>
      </trkpt>
      <trkpt lat="45.90903" lon="6.50841">
        <ele>2499.08</ele>
        <time>2012-01-14T09:23:09Z</time>
      </trkpt>
      <trkpt lat="45.90902" lon="6.50841">
        <ele>2499.08</ele>
        <time>2012-01-14T09:23:27Z</time>
      </trkpt>
      <trkpt lat="45.90903" lon="6.50841">
        <ele>2498.6</ele>
        <time>2012-01-14T09:23:51Z</time>
      </trkpt>
      <trkpt lat="45.90903" lon="6.50841">
        <ele>2498.6</ele>
        <time>2012-01-14T09:24:09Z</time>
      </trkpt>
      <trkpt lat="45.90903" lon="6.50841">
        <ele>2498.6</ele>
        <time>2012-01-14T09:24:31Z</time>
      </trkpt>
      <trkpt lat="45.90901" lon="6.50842">
        <ele>2498.12</ele>
        <time>2012-01-14T09:24:50Z</time>
      </trkpt>
      <trkpt lat="45.90901" lon="6.50842">
        <ele>2498.12</ele>
        <time>2012-01-14T09:25:17Z</time>
      </trkpt>
      <trkpt lat="45.90901" lon="6.50842">
        <ele>2498.12</ele>
        <time>2012-01-14T09:25:42Z</time>
      </trkpt>
      <trkpt lat="45.90901" lon="6.50843">
        <ele>2498.12</ele>
        <time>2012-01-14T09:26:04Z</time>
      </trkpt>
      <trkpt lat="45.90901" lon="6.50843">
        <ele>2498.6</ele>
        <time>2012-01-14T09:26:30Z</time>
      </trkpt>
      <trkpt lat="45.90901" lon="6.50843">
        <ele>2498.6</ele>
        <time>2012-01-14T09:26:50Z</time>
      </trkpt>
      <trkpt lat="45.90901" lon="6.50843">
        <ele>2498.6</ele>
        <time>2012-01-14T09:27:14Z</time>
      </trkpt>
      <trkpt lat="45.90901" lon="6.50842">
        <ele>2498.12</ele>
        <time>2012-01-14T09:27:30Z</time>
      </trkpt>
      <trkpt lat="45.90901" lon="6.50842">
        <ele>2498.12</ele>
        <time>2012-01-14T09:27:52Z</time>
      </trkpt>
      <trkpt lat="45.90902" lon="6.50842">
        <ele>2497.64</ele>
        <time>2012-01-14T09:28:11Z</time>
      </trkpt>
      <trkpt lat="45.90902" lon="6.50842">
        <ele>2497.64</ele>
        <time>2012-01-14T09:28:31Z</time>
      </trkpt>
      <trkpt lat="45.90902" lon="6.50842">
        <ele>2497.64</ele>
        <time>2012-01-14T09:28:51Z</time>
      </trkpt>
      <trkpt lat="45.90902" lon="6.50842">
        <ele>2497.64</ele>
        <time>2012-01-14T09:29:11Z</time>
      </trkpt>
      <trkpt lat="45.90902" lon="6.50841">
        <ele>2497.16</ele>
        <time>2012-01-14T09:29:28Z</time>
      </trkpt>
      <trkpt lat="45.90905" lon="6.50844">
        <ele>2497.16</ele>
        <time>2012-01-14T09:29:41Z</time>
      </trkpt>
      <trkpt lat="45.90905" lon="6.50843">
        <ele>2497.64</ele>
        <time>2012-01-14T09:29:54Z</time>
      </trkpt>
      <trkpt lat="45.90905" lon="6.50843">
        <ele>2497.64</ele>
        <time>2012-01-14T09:30:14Z</time>
      </trkpt>
      <trkpt lat="45.90905" lon="6.50843">
        <ele>2497.64</ele>
        <time>2012-01-14T09:30:26Z</time>
      </trkpt>
      <trkpt lat="45.90903" lon="6.50843">
        <ele>2498.6</ele>
        <time>2012-01-14T09:30:38Z</time>
      </trkpt>
      <trkpt lat="45.90903" lon="6.50843">
        <ele>2498.6</ele>
        <time>2012-01-14T09:30:57Z</time>
      </trkpt>
      <trkpt lat="45.90903" lon="6.50843">
        <ele>2498.6</ele>
        <time>2012-01-14T09:31:15Z</time>
      </trkpt>
      <trkpt lat="45.90902" lon="6.50843">
        <ele>2498.6</ele>
        <time>2012-01-14T09:31:42Z</time>
      </trkpt>
      <trkpt lat="45.90903" lon="6.50842">
        <ele>2498.6</ele>
        <time>2012-01-14T09:32:09Z</time>
      </trkpt>
      <trkpt lat="45.90903" lon="6.50842">
        <ele>2498.6</ele>
        <time>2012-01-14T09:32:29Z</time>
      </trkpt>
      <trkpt lat="45.90903" lon="6.50842">
        <ele>2499.08</ele>
        <time>2012-01-14T09:32:56Z</time>
      </trkpt>
      <trkpt lat="45.90903" lon="6.50842">
        <ele>2499.08</ele>
        <time>2012-01-14T09:33:12Z</time>
      </trkpt>
      <trkpt lat="45.90903" lon="6.50842">
        <ele>2499.08</ele>
        <time>2012-01-14T09:33:36Z</time>
      </trkpt>
      <trkpt lat="45.90902" lon="6.50842">
        <ele>2499.08</ele>
        <time>2012-01-14T09:34:01Z</time>
      </trkpt>
      <trkpt lat="45.90902" lon="6.50842">
        <ele>2499.08</ele>
        <time>2012-01-14T09:34:18Z</time>
      </trkpt>
      <trkpt lat="45.90902" lon="6.50842">
        <ele>2499.08</ele>
        <time>2012-01-14T09:34:33Z</time>
      </trkpt>
      <trkpt lat="45.90902" lon="6.50842">
        <ele>2499.08</ele>
        <time>2012-01-14T09:34:55Z</time>
      </trkpt>
      <trkpt lat="45.90902" lon="6.50842">
        <ele>2499.08</ele>
        <time>2012-01-14T09:35:16Z</time>
      </trkpt>
      <trkpt lat="45.90903" lon="6.50843">
        <ele>2499.08</ele>
        <time>2012-01-14T09:35:37Z</time>
      </trkpt>
      <trkpt lat="45.90902" lon="6.50843">
        <ele>2499.08</ele>
        <time>2012-01-14T09:36:01Z</time>
      </trkpt>
      <trkpt lat="45.90903" lon="6.50843">
        <ele>2498.12</ele>
        <time>2012-01-14T09:36:21Z</time>
      </trkpt>
      <trkpt lat="45.90903" lon="6.50844">
        <ele>2498.12</ele>
        <time>2012-01-14T09:36:35Z</time>
      </trkpt>
      <trkpt lat="45.90903" lon="6.50848">
        <ele>2498.6</ele>
        <time>2012-01-14T09:36:48Z</time>
      </trkpt>
      <trkpt lat="45.90904" lon="6.50849">
        <ele>2497.64</ele>
        <time>2012-01-14T09:37:01Z</time>
      </trkpt>
      <trkpt lat="45.90904" lon="6.50849">
        <ele>2497.64</ele>
        <time>2012-01-14T09:37:26Z</time>
      </trkpt>
      <trkpt lat="45.90904" lon="6.50849">
        <ele>2498.12</ele>
        <time>2012-01-14T09:37:39Z</time>
      </trkpt>
      <trkpt lat="45.90904" lon="6.50848">
        <ele>2498.12</ele>
        <time>2012-01-14T09:37:52Z</time>
      </trkpt>
      <trkpt lat="45.90904" lon="6.50848">
        <ele>2498.12</ele>
        <time>2012-01-14T09:38:04Z</time>
      </trkpt>
      <trkpt lat="45.90904" lon="6.50848">
        <ele>2498.12</ele>
        <time>2012-01-14T09:38:20Z</time>
      </trkpt>
      <trkpt lat="45.90904" lon="6.50848">
        <ele>2498.12</ele>
        <time>2012-01-14T09:38:37Z</time>
      </trkpt>
      <trkpt lat="45.90904" lon="6.50848">
        <ele>2498.6</ele>
        <time>2012-01-14T09:38:53Z</time>
      </trkpt>
      <trkpt lat="45.90904" lon="6.50847">
        <ele>2498.6</ele>
        <time>2012-01-14T09:39:14Z</time>
      </trkpt>
      <trkpt lat="45.90904" lon="6.50847">
        <ele>2498.6</ele>
        <time>2012-01-14T09:39:31Z</time>
      </trkpt>
      <trkpt lat="45.90903" lon="6.50846">
        <ele>2499.08</ele>
        <time>2012-01-14T09:39:58Z</time>
      </trkpt>
      <trkpt lat="45.90904" lon="6.50846">
        <ele>2499.08</ele>
        <time>2012-01-14T09:40:22Z</time>
      </trkpt>
      <trkpt lat="45.90904" lon="6.50846">
        <ele>2499.08</ele>
        <time>2012-01-14T09:40:48Z</time>
      </trkpt>
      <trkpt lat="45.90904" lon="6.50836">
        <ele>2497.64</ele>
        <time>2012-01-14T09:41:05Z</time>
      </trkpt>
      <trkpt lat="45.90907" lon="6.50841">
        <ele>2499.57</ele>
        <time>2012-01-14T09:41:18Z</time>
      </trkpt>
      <trkpt lat="45.90909" lon="6.50851">
        <ele>2499.08</ele>
        <time>2012-01-14T09:41:31Z</time>
      </trkpt>
      <trkpt lat="45.90908" lon="6.50856">
        <ele>2500.05</ele>
        <time>2012-01-14T09:41:43Z</time>
      </trkpt>
      <trkpt lat="45.90908" lon="6.50844">
        <ele>2501.97</ele>
        <time>2012-01-14T09:41:56Z</time>
      </trkpt>
      <trkpt lat="45.90907" lon="6.50838">
        <ele>2500.53</ele>
        <time>2012-01-14T09:42:02Z</time>
      </trkpt>
      <trkpt lat="45.90902" lon="6.50844">
        <ele>2498.6</ele>
        <time>2012-01-14T09:42:13Z</time>
      </trkpt>
      <trkpt lat="45.90902" lon="6.50844">
        <ele>2498.6</ele>
        <time>2012-01-14T09:42:31Z</time>
      </trkpt>
      <trkpt lat="45.90901" lon="6.50844">
        <ele>2498.6</ele>
        <time>2012-01-14T09:42:52Z</time>
      </trkpt>
      <trkpt lat="45.90902" lon="6.50843">
        <ele>2498.12</ele>
        <time>2012-01-14T09:43:11Z</time>
      </trkpt>
      <trkpt lat="45.90902" lon="6.50843">
        <ele>2498.12</ele>
        <time>2012-01-14T09:43:33Z</time>
      </trkpt>
      <trkpt lat="45.90903" lon="6.50843">
        <ele>2498.12</ele>
        <time>2012-01-14T09:43:48Z</time>
      </trkpt>
      <trkpt lat="45.90903" lon="6.50843">
        <ele>2498.12</ele>
        <time>2012-01-14T09:44:15Z</time>
      </trkpt>
      <trkpt lat="45.90903" lon="6.50843">
        <ele>2498.12</ele>
        <time>2012-01-14T09:44:43Z</time>
      </trkpt>
      <trkpt lat="45.90903" lon="6.50842">
        <ele>2498.12</ele>
        <time>2012-01-14T09:45:03Z</time>
      </trkpt>
      <trkpt lat="45.90903" lon="6.50842">
        <ele>2498.12</ele>
        <time>2012-01-14T09:45:31Z</time>
      </trkpt>
      <trkpt lat="45.90903" lon="6.50842">
        <ele>2498.12</ele>
        <time>2012-01-14T09:45:51Z</time>
      </trkpt>
      <trkpt lat="45.90903" lon="6.50841">
        <ele>2498.12</ele>
        <time>2012-01-14T09:46:16Z</time>
      </trkpt>
      <trkpt lat="45.90903" lon="6.50841">
        <ele>2498.12</ele>
        <time>2012-01-14T09:46:34Z</time>
      </trkpt>
      <trkpt lat="45.90903" lon="6.50841">
        <ele>2498.12</ele>
        <time>2012-01-14T09:47:02Z</time>
      </trkpt>
      <trkpt lat="45.90903" lon="6.50841">
        <ele>2498.12</ele>
        <time>2012-01-14T09:47:23Z</time>
      </trkpt>
      <trkpt lat="45.90903" lon="6.50841">
        <ele>2498.12</ele>
        <time>2012-01-14T09:47:43Z</time>
      </trkpt>
      <trkpt lat="45.90903" lon="6.50841">
        <ele>2498.12</ele>
        <time>2012-01-14T09:47:59Z</time>
      </trkpt>
      <trkpt lat="45.90903" lon="6.50842">
        <ele>2498.12</ele>
        <time>2012-01-14T09:48:13Z</time>
      </trkpt>
      <trkpt lat="45.90903" lon="6.50842">
        <ele>2498.12</ele>
        <time>2012-01-14T09:48:26Z</time>
      </trkpt>
      <trkpt lat="45.90903" lon="6.50842">
        <ele>2498.12</ele>
        <time>2012-01-14T09:48:40Z</time>
      </trkpt>
      <trkpt lat="45.90903" lon="6.50842">
        <ele>2498.12</ele>
        <time>2012-01-14T09:49:04Z</time>
      </trkpt>
      <trkpt lat="45.90903" lon="6.50842">
        <ele>2497.64</ele>
        <time>2012-01-14T09:49:20Z</time>
      </trkpt>
      <trkpt lat="45.90903" lon="6.50842">
        <ele>2497.64</ele>
        <time>2012-01-14T09:49:43Z</time>
      </trkpt>
      <trkpt lat="45.90903" lon="6.50842">
        <ele>2497.16</ele>
        <time>2012-01-14T09:50:06Z</time>
      </trkpt>
      <trkpt lat="45.90903" lon="6.50838">
        <ele>2497.16</ele>
        <time>2012-01-14T09:50:20Z</time>
      </trkpt>
      <trkpt lat="45.90903" lon="6.50838">
        <ele>2497.16</ele>
        <time>2012-01-14T09:50:43Z</time>
      </trkpt>
      <trkpt lat="45.90903" lon="6.50837">
        <ele>2497.16</ele>
        <time>2012-01-14T09:51:05Z</time>
      </trkpt>
      <trkpt lat="45.90903" lon="6.50837">
        <ele>2497.16</ele>
        <time>2012-01-14T09:51:30Z</time>
      </trkpt>
      <trkpt lat="45.90904" lon="6.50832">
        <ele>2496.2</ele>
        <time>2012-01-14T09:51:41Z</time>
      </trkpt>
      <trkpt lat="45.90905" lon="6.50833">
        <ele>2495.72</ele>
        <time>2012-01-14T09:51:58Z</time>
      </trkpt>
      <trkpt lat="45.90905" lon="6.50832">
        <ele>2495.72</ele>
        <time>2012-01-14T09:52:17Z</time>
      </trkpt>
      <trkpt lat="45.90905" lon="6.50833">
        <ele>2495.72</ele>
        <time>2012-01-14T09:52:44Z</time>
      </trkpt>
      <trkpt lat="45.90905" lon="6.50833">
        <ele>2495.72</ele>
        <time>2012-01-14T09:53:12Z</time>
      </trkpt>
      <trkpt lat="45.90905" lon="6.50833">
        <ele>2495.72</ele>
        <time>2012-01-14T09:53:36Z</time>
      </trkpt>
      <trkpt lat="45.90915" lon="6.50845">
        <ele>2495.24</ele>
        <time>2012-01-14T09:53:41Z</time>
      </trkpt>
      <trkpt lat="45.90925" lon="6.50852">
        <ele>2493.32</ele>
        <time>2012-01-14T09:53:50Z</time>
      </trkpt>
      <trkpt lat="45.90925" lon="6.50845">
        <ele>2491.87</ele>
        <time>2012-01-14T09:53:58Z</time>
      </trkpt>
      <trkpt lat="45.90925" lon="6.50845">
        <ele>2491.87</ele>
        <time>2012-01-14T09:54:03Z</time>
      </trkpt>
      <trkpt lat="45.90931" lon="6.50835">
        <ele>2488.51</ele>
        <time>2012-01-14T09:54:10Z</time>
      </trkpt>
      <trkpt lat="45.9093" lon="6.50833">
        <ele>2487.55</ele>
        <time>2012-01-14T09:54:23Z</time>
      </trkpt>
      <trkpt lat="45.9093" lon="6.50833">
        <ele>2487.55</ele>
        <time>2012-01-14T09:54:24Z</time>
      </trkpt>
      <trkpt lat="45.90939" lon="6.50819">
        <ele>2480.82</ele>
        <time>2012-01-14T09:54:31Z</time>
      </trkpt>
      <trkpt lat="45.90943" lon="6.50812">
        <ele>2476.49</ele>
        <time>2012-01-14T09:54:36Z</time>
      </trkpt>
      <trkpt lat="45.90943" lon="6.50812">
        <ele>2475.53</ele>
        <time>2012-01-14T09:54:57Z</time>
      </trkpt>
      <trkpt lat="45.90943" lon="6.50812">
        <ele>2475.53</ele>
        <time>2012-01-14T09:54:58Z</time>
      </trkpt>
      <trkpt lat="45.9095" lon="6.508">
        <ele>2471.21</ele>
        <time>2012-01-14T09:55:03Z</time>
      </trkpt>
      <trkpt lat="45.90936" lon="6.50753">
        <ele>2458.71</ele>
        <time>2012-01-14T09:55:15Z</time>
      </trkpt>
      <trkpt lat="45.90936" lon="6.5073">
        <ele>2452.94</ele>
        <time>2012-01-14T09:55:23Z</time>
      </trkpt>
      <trkpt lat="45.90945" lon="6.50716">
        <ele>2450.06</ele>
        <time>2012-01-14T09:55:27Z</time>
      </trkpt>
      <trkpt lat="45.90951" lon="6.50705">
        <ele>2447.17</ele>
        <time>2012-01-14T09:55:30Z</time>
      </trkpt>
      <trkpt lat="45.90962" lon="6.50697">
        <ele>2445.73</ele>
        <time>2012-01-14T09:55:33Z</time>
      </trkpt>
      <trkpt lat="45.90968" lon="6.50687">
        <ele>2443.81</ele>
        <time>2012-01-14T09:55:38Z</time>
      </trkpt>
      <trkpt lat="45.90968" lon="6.50687">
        <ele>2443.81</ele>
        <time>2012-01-14T09:55:55Z</time>
      </trkpt>
      <trkpt lat="45.90968" lon="6.50687">
        <ele>2443.81</ele>
        <time>2012-01-14T09:56:14Z</time>
      </trkpt>
      <trkpt lat="45.90969" lon="6.50688">
        <ele>2443.33</ele>
        <time>2012-01-14T09:56:33Z</time>
      </trkpt>
      <trkpt lat="45.90969" lon="6.50688">
        <ele>2443.33</ele>
        <time>2012-01-14T09:56:58Z</time>
      </trkpt>
      <trkpt lat="45.90969" lon="6.50688">
        <ele>2443.33</ele>
        <time>2012-01-14T09:57:21Z</time>
      </trkpt>
      <trkpt lat="45.90975" lon="6.50683">
        <ele>2441.89</ele>
        <time>2012-01-14T09:57:25Z</time>
      </trkpt>
      <trkpt lat="45.90992" lon="6.50695">
        <ele>2437.08</ele>
        <time>2012-01-14T09:57:33Z</time>
      </trkpt>
      <trkpt lat="45.91003" lon="6.50699">
        <ele>2434.68</ele>
        <time>2012-01-14T09:57:37Z</time>
      </trkpt>
      <trkpt lat="45.91009" lon="6.50692">
        <ele>2431.79</ele>
        <time>2012-01-14T09:57:41Z</time>
      </trkpt>
      <trkpt lat="45.91012" lon="6.50685">
        <ele>2427.95</ele>
        <time>2012-01-14T09:57:50Z</time>
      </trkpt>
      <trkpt lat="45.91012" lon="6.50685">
        <ele>2427.95</ele>
        <time>2012-01-14T09:58:11Z</time>
      </trkpt>
      <trkpt lat="45.91012" lon="6.50685">
        <ele>2427.47</ele>
        <time>2012-01-14T09:58:39Z</time>
      </trkpt>
      <trkpt lat="45.91011" lon="6.50685">
        <ele>2426.5</ele>
        <time>2012-01-14T09:58:51Z</time>
      </trkpt>
      <trkpt lat="45.91018" lon="6.50678">
        <ele>2424.1</ele>
        <time>2012-01-14T09:58:56Z</time>
      </trkpt>
      <trkpt lat="45.91012" lon="6.50627">
        <ele>2414.97</ele>
        <time>2012-01-14T09:59:07Z</time>
      </trkpt>
      <trkpt lat="45.91031" lon="6.50615">
        <ele>2407.76</ele>
        <time>2012-01-14T09:59:14Z</time>
      </trkpt>
      <trkpt lat="45.91035" lon="6.50619">
        <ele>2404.39</ele>
        <time>2012-01-14T09:59:16Z</time>
      </trkpt>
      <trkpt lat="45.91024" lon="6.50613">
        <ele>2387.57</ele>
        <time>2012-01-14T09:59:30Z</time>
      </trkpt>
      <trkpt lat="45.91025" lon="6.50614">
        <ele>2386.61</ele>
        <time>2012-01-14T09:59:53Z</time>
      </trkpt>
      <trkpt lat="45.91046" lon="6.50648">
        <ele>2377.48</ele>
        <time>2012-01-14T10:00:02Z</time>
      </trkpt>
      <trkpt lat="45.91066" lon="6.5067">
        <ele>2371.23</ele>
        <time>2012-01-14T10:00:09Z</time>
      </trkpt>
      <trkpt lat="45.91066" lon="6.50661">
        <ele>2367.86</ele>
        <time>2012-01-14T10:00:15Z</time>
      </trkpt>
      <trkpt lat="45.91085" lon="6.5067">
        <ele>2365.46</ele>
        <time>2012-01-14T10:00:20Z</time>
      </trkpt>
      <trkpt lat="45.91086" lon="6.5067">
        <ele>2364.5</ele>
        <time>2012-01-14T10:00:24Z</time>
      </trkpt>
      <trkpt lat="45.91075" lon="6.50644">
        <ele>2359.21</ele>
        <time>2012-01-14T10:00:32Z</time>
      </trkpt>
      <trkpt lat="45.91075" lon="6.50644">
        <ele>2359.21</ele>
        <time>2012-01-14T10:00:52Z</time>
      </trkpt>
      <trkpt lat="45.91074" lon="6.50643">
        <ele>2357.77</ele>
        <time>2012-01-14T10:01:06Z</time>
      </trkpt>
      <trkpt lat="45.91097" lon="6.50651">
        <ele>2351.04</ele>
        <time>2012-01-14T10:01:14Z</time>
      </trkpt>
      <trkpt lat="45.91122" lon="6.50667">
        <ele>2345.75</ele>
        <time>2012-01-14T10:01:22Z</time>
      </trkpt>
      <trkpt lat="45.91122" lon="6.50649">
        <ele>2339.99</ele>
        <time>2012-01-14T10:01:29Z</time>
      </trkpt>
      <trkpt lat="45.91127" lon="6.50624">
        <ele>2332.78</ele>
        <time>2012-01-14T10:01:35Z</time>
      </trkpt>
      <trkpt lat="45.9114" lon="6.50631">
        <ele>2326.05</ele>
        <time>2012-01-14T10:01:40Z</time>
      </trkpt>
      <trkpt lat="45.91136" lon="6.50619">
        <ele>2320.28</ele>
        <time>2012-01-14T10:01:47Z</time>
      </trkpt>
      <trkpt lat="45.91136" lon="6.50619">
        <ele>2320.28</ele>
        <time>2012-01-14T10:02:12Z</time>
      </trkpt>
      <trkpt lat="45.91132" lon="6.50605">
        <ele>2316.91</ele>
        <time>2012-01-14T10:02:33Z</time>
      </trkpt>
      <trkpt lat="45.91128" lon="6.50567">
        <ele>2310.19</ele>
        <time>2012-01-14T10:02:43Z</time>
      </trkpt>
      <trkpt lat="45.91134" lon="6.50558">
        <ele>2304.9</ele>
        <time>2012-01-14T10:02:49Z</time>
      </trkpt>
      <trkpt lat="45.91139" lon="6.50548">
        <ele>2301.53</ele>
        <time>2012-01-14T10:02:53Z</time>
      </trkpt>
      <trkpt lat="45.91153" lon="6.5053">
        <ele>2296.25</ele>
        <time>2012-01-14T10:02:59Z</time>
      </trkpt>
      <trkpt lat="45.91164" lon="6.50526">
        <ele>2292.4</ele>
        <time>2012-01-14T10:03:02Z</time>
      </trkpt>
      <trkpt lat="45.91174" lon="6.50526">
        <ele>2287.11</ele>
        <time>2012-01-14T10:03:10Z</time>
      </trkpt>
      <trkpt lat="45.91174" lon="6.50526">
        <ele>2287.11</ele>
        <time>2012-01-14T10:03:30Z</time>
      </trkpt>
      <trkpt lat="45.91174" lon="6.50526">
        <ele>2285.67</ele>
        <time>2012-01-14T10:03:51Z</time>
      </trkpt>
      <trkpt lat="45.91174" lon="6.50526">
        <ele>2285.67</ele>
        <time>2012-01-14T10:04:12Z</time>
      </trkpt>
      <trkpt lat="45.91174" lon="6.50526">
        <ele>2285.19</ele>
        <time>2012-01-14T10:04:42Z</time>
      </trkpt>
      <trkpt lat="45.91174" lon="6.50526">
        <ele>2285.19</ele>
        <time>2012-01-14T10:05:05Z</time>
      </trkpt>
      <trkpt lat="45.91173" lon="6.50526">
        <ele>2284.71</ele>
        <time>2012-01-14T10:05:25Z</time>
      </trkpt>
      <trkpt lat="45.91173" lon="6.50525">
        <ele>2284.23</ele>
        <time>2012-01-14T10:05:57Z</time>
      </trkpt>
      <trkpt lat="45.91173" lon="6.50525">
        <ele>2284.23</ele>
        <time>2012-01-14T10:06:19Z</time>
      </trkpt>
      <trkpt lat="45.91178" lon="6.50471">
        <ele>2273.17</ele>
        <time>2012-01-14T10:06:30Z</time>
      </trkpt>
      <trkpt lat="45.91177" lon="6.50428">
        <ele>2261.16</ele>
        <time>2012-01-14T10:06:40Z</time>
      </trkpt>
      <trkpt lat="45.91175" lon="6.50425">
        <ele>2260.2</ele>
        <time>2012-01-14T10:06:51Z</time>
      </trkpt>
      <trkpt lat="45.91182" lon="6.50419">
        <ele>2255.87</ele>
        <time>2012-01-14T10:06:55Z</time>
      </trkpt>
      <trkpt lat="45.91202" lon="6.50403">
        <ele>2249.14</ele>
        <time>2012-01-14T10:07:01Z</time>
      </trkpt>
      <trkpt lat="45.91203" lon="6.50385">
        <ele>2245.78</ele>
        <time>2012-01-14T10:07:05Z</time>
      </trkpt>
      <trkpt lat="45.91213" lon="6.50402">
        <ele>2237.13</ele>
        <time>2012-01-14T10:07:12Z</time>
      </trkpt>
      <trkpt lat="45.91223" lon="6.50395">
        <ele>2230.88</ele>
        <time>2012-01-14T10:07:17Z</time>
      </trkpt>
      <trkpt lat="45.91222" lon="6.50394">
        <ele>2227.99</ele>
        <time>2012-01-14T10:07:32Z</time>
      </trkpt>
      <trkpt lat="45.91222" lon="6.50394">
        <ele>2227.99</ele>
        <time>2012-01-14T10:07:51Z</time>
      </trkpt>
      <trkpt lat="45.91222" lon="6.50394">
        <ele>2227.99</ele>
        <time>2012-01-14T10:08:05Z</time>
      </trkpt>
      <trkpt lat="45.91224" lon="6.50385">
        <ele>2225.59</ele>
        <time>2012-01-14T10:08:08Z</time>
      </trkpt>
      <trkpt lat="45.91239" lon="6.50386">
        <ele>2221.74</ele>
        <time>2012-01-14T10:08:13Z</time>
      </trkpt>
      <trkpt lat="45.91248" lon="6.50389">
        <ele>2217.42</ele>
        <time>2012-01-14T10:08:18Z</time>
      </trkpt>
      <trkpt lat="45.91246" lon="6.50369">
        <ele>2213.09</ele>
        <time>2012-01-14T10:08:22Z</time>
      </trkpt>
      <trkpt lat="45.91268" lon="6.50352">
        <ele>2207.81</ele>
        <time>2012-01-14T10:08:28Z</time>
      </trkpt>
      <trkpt lat="45.91269" lon="6.50332">
        <ele>2199.63</ele>
        <time>2012-01-14T10:08:34Z</time>
      </trkpt>
      <trkpt lat="45.91267" lon="6.5033">
        <ele>2197.23</ele>
        <time>2012-01-14T10:08:50Z</time>
      </trkpt>
      <trkpt lat="45.91267" lon="6.5033">
        <ele>2197.23</ele>
        <time>2012-01-14T10:08:56Z</time>
      </trkpt>
      <trkpt lat="45.91276" lon="6.50325">
        <ele>2191.46</ele>
        <time>2012-01-14T10:09:01Z</time>
      </trkpt>
      <trkpt lat="45.91289" lon="6.50309">
        <ele>2184.73</ele>
        <time>2012-01-14T10:09:08Z</time>
      </trkpt>
      <trkpt lat="45.9129" lon="6.50305">
        <ele>2183.77</ele>
        <time>2012-01-14T10:09:09Z</time>
      </trkpt>
      <trkpt lat="45.91299" lon="6.5029">
        <ele>2178.48</ele>
        <time>2012-01-14T10:09:18Z</time>
      </trkpt>
      <trkpt lat="45.91316" lon="6.50301">
        <ele>2172.24</ele>
        <time>2012-01-14T10:09:23Z</time>
      </trkpt>
      <trkpt lat="45.91322" lon="6.50289">
        <ele>2165.51</ele>
        <time>2012-01-14T10:09:29Z</time>
      </trkpt>
      <trkpt lat="45.91319" lon="6.5028">
        <ele>2163.58</ele>
        <time>2012-01-14T10:09:31Z</time>
      </trkpt>
      <trkpt lat="45.91315" lon="6.50257">
        <ele>2159.26</ele>
        <time>2012-01-14T10:09:41Z</time>
      </trkpt>
      <trkpt lat="45.91316" lon="6.50256">
        <ele>2158.3</ele>
        <time>2012-01-14T10:09:47Z</time>
      </trkpt>
      <trkpt lat="45.91343" lon="6.50249">
        <ele>2152.05</ele>
        <time>2012-01-14T10:09:53Z</time>
      </trkpt>
      <trkpt lat="45.91356" lon="6.50236">
        <ele>2148.68</ele>
        <time>2012-01-14T10:09:58Z</time>
      </trkpt>
      <trkpt lat="45.91356" lon="6.50236">
        <ele>2148.68</ele>
        <time>2012-01-14T10:10:16Z</time>
      </trkpt>
      <trkpt lat="45.91355" lon="6.50235">
        <ele>2148.68</ele>
        <time>2012-01-14T10:10:40Z</time>
      </trkpt>
      <trkpt lat="45.91355" lon="6.50236">
        <ele>2148.68</ele>
        <time>2012-01-14T10:11:02Z</time>
      </trkpt>
      <trkpt lat="45.91355" lon="6.50235">
        <ele>2148.2</ele>
        <time>2012-01-14T10:11:33Z</time>
      </trkpt>
      <trkpt lat="45.91355" lon="6.50235">
        <ele>2148.2</ele>
        <time>2012-01-14T10:11:57Z</time>
      </trkpt>
      <trkpt lat="45.91355" lon="6.50236">
        <ele>2148.2</ele>
        <time>2012-01-14T10:12:18Z</time>
      </trkpt>
      <trkpt lat="45.91352" lon="6.50233">
        <ele>2146.76</ele>
        <time>2012-01-14T10:12:28Z</time>
      </trkpt>
      <trkpt lat="45.91347" lon="6.50211">
        <ele>2145.32</ele>
        <time>2012-01-14T10:12:32Z</time>
      </trkpt>
      <trkpt lat="45.91339" lon="6.50172">
        <ele>2143.4</ele>
        <time>2012-01-14T10:12:37Z</time>
      </trkpt>
      <trkpt lat="45.91347" lon="6.50123">
        <ele>2140.03</ele>
        <time>2012-01-14T10:12:46Z</time>
      </trkpt>
      <trkpt lat="45.91349" lon="6.50116">
        <ele>2139.55</ele>
        <time>2012-01-14T10:12:47Z</time>
      </trkpt>
      <trkpt lat="45.91353" lon="6.50103">
        <ele>2139.07</ele>
        <time>2012-01-14T10:12:49Z</time>
      </trkpt>
      <trkpt lat="45.91364" lon="6.50068">
        <ele>2137.15</ele>
        <time>2012-01-14T10:12:57Z</time>
      </trkpt>
      <trkpt lat="45.91364" lon="6.50064">
        <ele>2136.67</ele>
        <time>2012-01-14T10:13:10Z</time>
      </trkpt>
      <trkpt lat="45.91362" lon="6.50064">
        <ele>2136.19</ele>
        <time>2012-01-14T10:13:20Z</time>
      </trkpt>
      <trkpt lat="45.91362" lon="6.5008">
        <ele>2135.23</ele>
        <time>2012-01-14T10:13:24Z</time>
      </trkpt>
      <trkpt lat="45.91369" lon="6.50097">
        <ele>2134.74</ele>
        <time>2012-01-14T10:13:29Z</time>
      </trkpt>
      <trkpt lat="45.91379" lon="6.50095">
        <ele>2133.3</ele>
        <time>2012-01-14T10:13:33Z</time>
      </trkpt>
      <trkpt lat="45.91387" lon="6.50094">
        <ele>2133.3</ele>
        <time>2012-01-14T10:13:35Z</time>
      </trkpt>
      <trkpt lat="45.91393" lon="6.50096">
        <ele>2132.82</ele>
        <time>2012-01-14T10:13:36Z</time>
      </trkpt>
      <trkpt lat="45.91398" lon="6.50097">
        <ele>2132.82</ele>
        <time>2012-01-14T10:13:37Z</time>
      </trkpt>
      <trkpt lat="45.91411" lon="6.50112">
        <ele>2132.82</ele>
        <time>2012-01-14T10:13:41Z</time>
      </trkpt>
      <trkpt lat="45.91416" lon="6.50111">
        <ele>2131.38</ele>
        <time>2012-01-14T10:13:49Z</time>
      </trkpt>
      <trkpt lat="45.91416" lon="6.50111">
        <ele>2130.42</ele>
        <time>2012-01-14T10:14:07Z</time>
      </trkpt>
      <trkpt lat="45.91416" lon="6.50111">
        <ele>2130.42</ele>
        <time>2012-01-14T10:14:10Z</time>
      </trkpt>
      <trkpt lat="45.91428" lon="6.50083">
        <ele>2123.69</ele>
        <time>2012-01-14T10:14:18Z</time>
      </trkpt>
      <trkpt lat="45.91447" lon="6.50086">
        <ele>2120.32</ele>
        <time>2012-01-14T10:14:22Z</time>
      </trkpt>
      <trkpt lat="45.91453" lon="6.50086">
        <ele>2120.32</ele>
        <time>2012-01-14T10:14:24Z</time>
      </trkpt>
      <trkpt lat="45.91455" lon="6.50078">
        <ele>2119.84</ele>
        <time>2012-01-14T10:14:26Z</time>
      </trkpt>
      <trkpt lat="45.91463" lon="6.50056">
        <ele>2117.44</ele>
        <time>2012-01-14T10:14:32Z</time>
      </trkpt>
      <trkpt lat="45.91465" lon="6.50055">
        <ele>2116.48</ele>
        <time>2012-01-14T10:14:35Z</time>
      </trkpt>
      <trkpt lat="45.9147" lon="6.50047">
        <ele>2113.6</ele>
        <time>2012-01-14T10:14:43Z</time>
      </trkpt>
      <trkpt lat="45.9147" lon="6.50047">
        <ele>2113.6</ele>
        <time>2012-01-14T10:15:03Z</time>
      </trkpt>
      <trkpt lat="45.9147" lon="6.50046">
        <ele>2111.67</ele>
        <time>2012-01-14T10:15:27Z</time>
      </trkpt>
      <trkpt lat="45.91471" lon="6.5004">
        <ele>2108.31</ele>
        <time>2012-01-14T10:15:33Z</time>
      </trkpt>
      <trkpt lat="45.91475" lon="6.50045">
        <ele>2105.42</ele>
        <time>2012-01-14T10:15:38Z</time>
      </trkpt>
      <trkpt lat="45.91477" lon="6.50049">
        <ele>2104.46</ele>
        <time>2012-01-14T10:15:41Z</time>
      </trkpt>
      <trkpt lat="45.91481" lon="6.50047">
        <ele>2104.46</ele>
        <time>2012-01-14T10:15:43Z</time>
      </trkpt>
      <trkpt lat="45.91487" lon="6.50035">
        <ele>2102.06</ele>
        <time>2012-01-14T10:15:46Z</time>
      </trkpt>
      <trkpt lat="45.91494" lon="6.50028">
        <ele>2099.66</ele>
        <time>2012-01-14T10:15:50Z</time>
      </trkpt>
      <trkpt lat="45.91501" lon="6.50022">
        <ele>2097.73</ele>
        <time>2012-01-14T10:15:54Z</time>
      </trkpt>
      <trkpt lat="45.91509" lon="6.50016">
        <ele>2095.81</ele>
        <time>2012-01-14T10:15:56Z</time>
      </trkpt>
      <trkpt lat="45.91518" lon="6.50027">
        <ele>2094.85</ele>
        <time>2012-01-14T10:15:59Z</time>
      </trkpt>
      <trkpt lat="45.91527" lon="6.5002">
        <ele>2091.97</ele>
        <time>2012-01-14T10:16:03Z</time>
      </trkpt>
      <trkpt lat="45.91527" lon="6.50016">
        <ele>2091.49</ele>
        <time>2012-01-14T10:16:05Z</time>
      </trkpt>
      <trkpt lat="45.91527" lon="6.50009">
        <ele>2091</ele>
        <time>2012-01-14T10:16:07Z</time>
      </trkpt>
      <trkpt lat="45.9153" lon="6.50004">
        <ele>2091</ele>
        <time>2012-01-14T10:16:08Z</time>
      </trkpt>
      <trkpt lat="45.91543" lon="6.49997">
        <ele>2089.56</ele>
        <time>2012-01-14T10:16:12Z</time>
      </trkpt>
      <trkpt lat="45.91548" lon="6.50006">
        <ele>2088.6</ele>
        <time>2012-01-14T10:16:24Z</time>
      </trkpt>
      <trkpt lat="45.91548" lon="6.50006">
        <ele>2088.6</ele>
        <time>2012-01-14T10:16:33Z</time>
      </trkpt>
      <trkpt lat="45.91551" lon="6.50004">
        <ele>2082.83</ele>
        <time>2012-01-14T10:16:41Z</time>
      </trkpt>
      <trkpt lat="45.91551" lon="6.50004">
        <ele>2082.83</ele>
        <time>2012-01-14T10:17:02Z</time>
      </trkpt>
      <trkpt lat="45.91552" lon="6.50001">
        <ele>2080.91</ele>
        <time>2012-01-14T10:17:04Z</time>
      </trkpt>
      <trkpt lat="45.91557" lon="6.50001">
        <ele>2067.45</ele>
        <time>2012-01-14T10:17:10Z</time>
      </trkpt>
      <trkpt lat="45.9156" lon="6.50003">
        <ele>2063.13</ele>
        <time>2012-01-14T10:17:12Z</time>
      </trkpt>
      <trkpt lat="45.91567" lon="6.49981">
        <ele>2055.44</ele>
        <time>2012-01-14T10:17:18Z</time>
      </trkpt>
      <trkpt lat="45.91583" lon="6.49983">
        <ele>2046.3</ele>
        <time>2012-01-14T10:17:23Z</time>
      </trkpt>
      <trkpt lat="45.91587" lon="6.49984">
        <ele>2045.34</ele>
        <time>2012-01-14T10:17:24Z</time>
      </trkpt>
      <trkpt lat="45.91594" lon="6.49985">
        <ele>2042.46</ele>
        <time>2012-01-14T10:17:26Z</time>
      </trkpt>
      <trkpt lat="45.91606" lon="6.49987">
        <ele>2030.44</ele>
        <time>2012-01-14T10:17:34Z</time>
      </trkpt>
      <trkpt lat="45.91607" lon="6.49977">
        <ele>2024.19</ele>
        <time>2012-01-14T10:17:40Z</time>
      </trkpt>
      <trkpt lat="45.91604" lon="6.49972">
        <ele>2021.79</ele>
        <time>2012-01-14T10:17:42Z</time>
      </trkpt>
      <trkpt lat="45.91601" lon="6.49966">
        <ele>2017.46</ele>
        <time>2012-01-14T10:17:52Z</time>
      </trkpt>
      <trkpt lat="45.91611" lon="6.49962">
        <ele>2009.29</ele>
        <time>2012-01-14T10:17:58Z</time>
      </trkpt>
      <trkpt lat="45.91607" lon="6.49943">
        <ele>2003.52</ele>
        <time>2012-01-14T10:18:05Z</time>
      </trkpt>
      <trkpt lat="45.91606" lon="6.4994">
        <ele>2002.56</ele>
        <time>2012-01-14T10:18:06Z</time>
      </trkpt>
      <trkpt lat="45.916" lon="6.49914">
        <ele>1992.47</ele>
        <time>2012-01-14T10:18:16Z</time>
      </trkpt>
      <trkpt lat="45.91597" lon="6.49912">
        <ele>1987.18</ele>
        <time>2012-01-14T10:18:42Z</time>
      </trkpt>
      <trkpt lat="45.91595" lon="6.49912">
        <ele>1986.22</ele>
        <time>2012-01-14T10:18:48Z</time>
      </trkpt>
      <trkpt lat="45.91602" lon="6.49924">
        <ele>1978.05</ele>
        <time>2012-01-14T10:18:54Z</time>
      </trkpt>
      <trkpt lat="45.91608" lon="6.49918">
        <ele>1974.69</ele>
        <time>2012-01-14T10:18:59Z</time>
      </trkpt>
      <trkpt lat="45.91609" lon="6.49903">
        <ele>1971.32</ele>
        <time>2012-01-14T10:19:03Z</time>
      </trkpt>
      <trkpt lat="45.91621" lon="6.49904">
        <ele>1963.15</ele>
        <time>2012-01-14T10:19:11Z</time>
      </trkpt>
      <trkpt lat="45.91629" lon="6.49897">
        <ele>1954.5</ele>
        <time>2012-01-14T10:19:17Z</time>
      </trkpt>
      <trkpt lat="45.91629" lon="6.49902">
        <ele>1950.65</ele>
        <time>2012-01-14T10:19:19Z</time>
      </trkpt>
      <trkpt lat="45.91637" lon="6.49897">
        <ele>1948.25</ele>
        <time>2012-01-14T10:19:22Z</time>
      </trkpt>
      <trkpt lat="45.91638" lon="6.49893">
        <ele>1947.29</ele>
        <time>2012-01-14T10:19:23Z</time>
      </trkpt>
      <trkpt lat="45.91638" lon="6.4989">
        <ele>1946.81</ele>
        <time>2012-01-14T10:19:24Z</time>
      </trkpt>
      <trkpt lat="45.91638" lon="6.49887">
        <ele>1946.33</ele>
        <time>2012-01-14T10:19:25Z</time>
      </trkpt>
      <trkpt lat="45.91638" lon="6.49885">
        <ele>1945.85</ele>
        <time>2012-01-14T10:19:26Z</time>
      </trkpt>
      <trkpt lat="45.91639" lon="6.49879">
        <ele>1944.4</ele>
        <time>2012-01-14T10:19:29Z</time>
      </trkpt>
      <trkpt lat="45.91641" lon="6.49876">
        <ele>1943.44</ele>
        <time>2012-01-14T10:19:30Z</time>
      </trkpt>
      <trkpt lat="45.91643" lon="6.49875">
        <ele>1942.96</ele>
        <time>2012-01-14T10:19:31Z</time>
      </trkpt>
      <trkpt lat="45.91643" lon="6.49885">
        <ele>1936.23</ele>
        <time>2012-01-14T10:19:35Z</time>
      </trkpt>
      <trkpt lat="45.91647" lon="6.49892">
        <ele>1933.83</ele>
        <time>2012-01-14T10:19:48Z</time>
      </trkpt>
      <trkpt lat="45.91647" lon="6.49892">
        <ele>1933.83</ele>
        <time>2012-01-14T10:19:53Z</time>
      </trkpt>
      <trkpt lat="45.91669" lon="6.49907">
        <ele>1930.46</ele>
        <time>2012-01-14T10:20:00Z</time>
      </trkpt>
      <trkpt lat="45.9168" lon="6.49897">
        <ele>1929.98</ele>
        <time>2012-01-14T10:20:03Z</time>
      </trkpt>
      <trkpt lat="45.91686" lon="6.49896">
        <ele>1929.5</ele>
        <time>2012-01-14T10:20:04Z</time>
      </trkpt>
      <trkpt lat="45.91693" lon="6.49895">
        <ele>1928.54</ele>
        <time>2012-01-14T10:20:05Z</time>
      </trkpt>
      <trkpt lat="45.91698" lon="6.49893">
        <ele>1928.06</ele>
        <time>2012-01-14T10:20:06Z</time>
      </trkpt>
      <trkpt lat="45.91701" lon="6.49891">
        <ele>1927.58</ele>
        <time>2012-01-14T10:20:07Z</time>
      </trkpt>
      <trkpt lat="45.91703" lon="6.49887">
        <ele>1926.62</ele>
        <time>2012-01-14T10:20:08Z</time>
      </trkpt>
      <trkpt lat="45.91709" lon="6.49876">
        <ele>1924.7</ele>
        <time>2012-01-14T10:20:10Z</time>
      </trkpt>
      <trkpt lat="45.91709" lon="6.49871">
        <ele>1923.74</ele>
        <time>2012-01-14T10:20:11Z</time>
      </trkpt>
      <trkpt lat="45.91707" lon="6.49866">
        <ele>1922.29</ele>
        <time>2012-01-14T10:20:13Z</time>
      </trkpt>
      <trkpt lat="45.91708" lon="6.49855">
        <ele>1917.97</ele>
        <time>2012-01-14T10:20:19Z</time>
      </trkpt>
      <trkpt lat="45.91708" lon="6.49855">
        <ele>1917.97</ele>
        <time>2012-01-14T10:20:30Z</time>
      </trkpt>
      <trkpt lat="45.91696" lon="6.4983">
        <ele>1914.6</ele>
        <time>2012-01-14T10:20:37Z</time>
      </trkpt>
      <trkpt lat="45.91692" lon="6.49821">
        <ele>1912.2</ele>
        <time>2012-01-14T10:20:45Z</time>
      </trkpt>
      <trkpt lat="45.91691" lon="6.4982">
        <ele>1911.24</ele>
        <time>2012-01-14T10:21:06Z</time>
      </trkpt>
      <trkpt lat="45.91688" lon="6.49814">
        <ele>1909.8</ele>
        <time>2012-01-14T10:21:25Z</time>
      </trkpt>
      <trkpt lat="45.91701" lon="6.49803">
        <ele>1904.51</ele>
        <time>2012-01-14T10:21:31Z</time>
      </trkpt>
      <trkpt lat="45.91699" lon="6.49793">
        <ele>1902.11</ele>
        <time>2012-01-14T10:21:35Z</time>
      </trkpt>
      <trkpt lat="45.91706" lon="6.49789">
        <ele>1896.34</ele>
        <time>2012-01-14T10:21:40Z</time>
      </trkpt>
      <trkpt lat="45.91712" lon="6.49791">
        <ele>1892.01</ele>
        <time>2012-01-14T10:21:44Z</time>
      </trkpt>
      <trkpt lat="45.91715" lon="6.49779">
        <ele>1885.28</ele>
        <time>2012-01-14T10:21:51Z</time>
      </trkpt>
      <trkpt lat="45.9172" lon="6.49769">
        <ele>1880</ele>
        <time>2012-01-14T10:21:57Z</time>
      </trkpt>
      <trkpt lat="45.91717" lon="6.49761">
        <ele>1872.3</ele>
        <time>2012-01-14T10:22:01Z</time>
      </trkpt>
      <trkpt lat="45.9171" lon="6.4975">
        <ele>1865.58</ele>
        <time>2012-01-14T10:22:04Z</time>
      </trkpt>
      <trkpt lat="45.9172" lon="6.4974">
        <ele>1861.25</ele>
        <time>2012-01-14T10:22:08Z</time>
      </trkpt>
      <trkpt lat="45.91717" lon="6.49723">
        <ele>1844.91</ele>
        <time>2012-01-14T10:22:16Z</time>
      </trkpt>
      <trkpt lat="45.91717" lon="6.49719">
        <ele>1843.47</ele>
        <time>2012-01-14T10:22:17Z</time>
      </trkpt>
      <trkpt lat="45.91724" lon="6.49726">
        <ele>1833.85</ele>
        <time>2012-01-14T10:22:24Z</time>
      </trkpt>
      <trkpt lat="45.91725" lon="6.49726">
        <ele>1832.89</ele>
        <time>2012-01-14T10:22:45Z</time>
      </trkpt>
      <trkpt lat="45.91737" lon="6.4974">
        <ele>1828.56</ele>
        <time>2012-01-14T10:23:00Z</time>
      </trkpt>
      <trkpt lat="45.91741" lon="6.49743">
        <ele>1827.6</ele>
        <time>2012-01-14T10:23:02Z</time>
      </trkpt>
      <trkpt lat="45.91749" lon="6.49734">
        <ele>1826.16</ele>
        <time>2012-01-14T10:23:06Z</time>
      </trkpt>
      <trkpt lat="45.91745" lon="6.49724">
        <ele>1823.76</ele>
        <time>2012-01-14T10:23:09Z</time>
      </trkpt>
      <trkpt lat="45.9176" lon="6.49726">
        <ele>1817.03</ele>
        <time>2012-01-14T10:23:16Z</time>
      </trkpt>
      <trkpt lat="45.91758" lon="6.49723">
        <ele>1814.15</ele>
        <time>2012-01-14T10:23:18Z</time>
      </trkpt>
      <trkpt lat="45.91752" lon="6.49698">
        <ele>1806.94</ele>
        <time>2012-01-14T10:23:28Z</time>
      </trkpt>
      <trkpt lat="45.91752" lon="6.49698">
        <ele>1806.94</ele>
        <time>2012-01-14T10:23:32Z</time>
      </trkpt>
      <trkpt lat="45.91756" lon="6.4967">
        <ele>1799.73</ele>
        <time>2012-01-14T10:23:39Z</time>
      </trkpt>
      <trkpt lat="45.91753" lon="6.4966">
        <ele>1797.8</ele>
        <time>2012-01-14T10:23:53Z</time>
      </trkpt>
      <trkpt lat="45.91753" lon="6.49657">
        <ele>1797.8</ele>
        <time>2012-01-14T10:24:02Z</time>
      </trkpt>
      <trkpt lat="45.91764" lon="6.49646">
        <ele>1793.96</ele>
        <time>2012-01-14T10:24:08Z</time>
      </trkpt>
      <trkpt lat="45.9178" lon="6.49675">
        <ele>1790.11</ele>
        <time>2012-01-14T10:24:15Z</time>
      </trkpt>
      <trkpt lat="45.91786" lon="6.49674">
        <ele>1788.67</ele>
        <time>2012-01-14T10:24:18Z</time>
      </trkpt>
      <trkpt lat="45.91789" lon="6.49644">
        <ele>1782.9</ele>
        <time>2012-01-14T10:24:24Z</time>
      </trkpt>
      <trkpt lat="45.91786" lon="6.49626">
        <ele>1777.61</ele>
        <time>2012-01-14T10:24:31Z</time>
      </trkpt>
      <trkpt lat="45.91791" lon="6.49618">
        <ele>1770.89</ele>
        <time>2012-01-14T10:24:40Z</time>
      </trkpt>
      <trkpt lat="45.9179" lon="6.49617">
        <ele>1768.48</ele>
        <time>2012-01-14T10:24:54Z</time>
      </trkpt>
      <trkpt lat="45.91802" lon="6.49607">
        <ele>1764.64</ele>
        <time>2012-01-14T10:25:00Z</time>
      </trkpt>
      <trkpt lat="45.91807" lon="6.49598">
        <ele>1759.35</ele>
        <time>2012-01-14T10:25:06Z</time>
      </trkpt>
      <trkpt lat="45.91813" lon="6.49599">
        <ele>1754.06</ele>
        <time>2012-01-14T10:25:12Z</time>
      </trkpt>
      <trkpt lat="45.91813" lon="6.49599">
        <ele>1754.06</ele>
        <time>2012-01-14T10:25:13Z</time>
      </trkpt>
      <trkpt lat="45.91818" lon="6.49603">
        <ele>1752.14</ele>
        <time>2012-01-14T10:25:15Z</time>
      </trkpt>
      <trkpt lat="45.91835" lon="6.49637">
        <ele>1745.89</ele>
        <time>2012-01-14T10:25:21Z</time>
      </trkpt>
      <trkpt lat="45.91839" lon="6.49616">
        <ele>1739.64</ele>
        <time>2012-01-14T10:25:28Z</time>
      </trkpt>
      <trkpt lat="45.91838" lon="6.49611">
        <ele>1738.68</ele>
        <time>2012-01-14T10:25:29Z</time>
      </trkpt>
      <trkpt lat="45.91837" lon="6.49601">
        <ele>1737.24</ele>
        <time>2012-01-14T10:25:31Z</time>
      </trkpt>
      <trkpt lat="45.91837" lon="6.4958">
        <ele>1734.84</ele>
        <time>2012-01-14T10:25:40Z</time>
      </trkpt>
      <trkpt lat="45.91838" lon="6.4958">
        <ele>1734.84</ele>
        <time>2012-01-14T10:25:42Z</time>
      </trkpt>
      <trkpt lat="45.91849" lon="6.49588">
        <ele>1729.07</ele>
        <time>2012-01-14T10:25:49Z</time>
      </trkpt>
      <trkpt lat="45.91849" lon="6.49588">
        <ele>1729.07</ele>
        <time>2012-01-14T10:25:51Z</time>
      </trkpt>
      <trkpt lat="45.91856" lon="6.4959">
        <ele>1727.15</ele>
        <time>2012-01-14T10:25:54Z</time>
      </trkpt>
      <trkpt lat="45.91861" lon="6.49574">
        <ele>1721.86</ele>
        <time>2012-01-14T10:25:59Z</time>
      </trkpt>
      <trkpt lat="45.91859" lon="6.49548">
        <ele>1716.57</ele>
        <time>2012-01-14T10:26:04Z</time>
      </trkpt>
      <trkpt lat="45.91856" lon="6.49526">
        <ele>1707.44</ele>
        <time>2012-01-14T10:26:13Z</time>
      </trkpt>
      <trkpt lat="45.91857" lon="6.49526">
        <ele>1706.96</ele>
        <time>2012-01-14T10:26:16Z</time>
      </trkpt>
      <trkpt lat="45.91852" lon="6.49503">
        <ele>1703.59</ele>
        <time>2012-01-14T10:26:21Z</time>
      </trkpt>
      <trkpt lat="45.91844" lon="6.4947">
        <ele>1699.27</ele>
        <time>2012-01-14T10:26:26Z</time>
      </trkpt>
      <trkpt lat="45.91849" lon="6.49444">
        <ele>1691.58</ele>
        <time>2012-01-14T10:26:33Z</time>
      </trkpt>
      <trkpt lat="45.91866" lon="6.49438">
        <ele>1684.85</ele>
        <time>2012-01-14T10:26:38Z</time>
      </trkpt>
      <trkpt lat="45.91882" lon="6.49446">
        <ele>1677.16</ele>
        <time>2012-01-14T10:26:46Z</time>
      </trkpt>
      <trkpt lat="45.91882" lon="6.49444">
        <ele>1674.27</ele>
        <time>2012-01-14T10:26:59Z</time>
      </trkpt>
      <trkpt lat="45.91882" lon="6.49444">
        <ele>1674.27</ele>
        <time>2012-01-14T10:27:23Z</time>
      </trkpt>
      <trkpt lat="45.91882" lon="6.49443">
        <ele>1673.79</ele>
        <time>2012-01-14T10:27:29Z</time>
      </trkpt>
      <trkpt lat="45.91894" lon="6.49471">
        <ele>1672.83</ele>
        <time>2012-01-14T10:27:35Z</time>
      </trkpt>
      <trkpt lat="45.91911" lon="6.49464">
        <ele>1669.95</ele>
        <time>2012-01-14T10:27:41Z</time>
      </trkpt>
      <trkpt lat="45.91925" lon="6.49477">
        <ele>1664.66</ele>
        <time>2012-01-14T10:27:47Z</time>
      </trkpt>
      <trkpt lat="45.91934" lon="6.4947">
        <ele>1660.33</ele>
        <time>2012-01-14T10:27:52Z</time>
      </trkpt>
      <trkpt lat="45.9194" lon="6.49469">
        <ele>1657.45</ele>
        <time>2012-01-14T10:27:56Z</time>
      </trkpt>
      <trkpt lat="45.91948" lon="6.49488">
        <ele>1652.16</ele>
        <time>2012-01-14T10:28:06Z</time>
      </trkpt>
      <trkpt lat="45.91954" lon="6.49494">
        <ele>1650.24</ele>
        <time>2012-01-14T10:28:10Z</time>
      </trkpt>
      <trkpt lat="45.91957" lon="6.49493">
        <ele>1648.8</ele>
        <time>2012-01-14T10:28:12Z</time>
      </trkpt>
      <trkpt lat="45.91957" lon="6.49489">
        <ele>1647.36</ele>
        <time>2012-01-14T10:28:15Z</time>
      </trkpt>
      <trkpt lat="45.91955" lon="6.49476">
        <ele>1645.43</ele>
        <time>2012-01-14T10:28:19Z</time>
      </trkpt>
      <trkpt lat="45.91973" lon="6.4947">
        <ele>1638.22</ele>
        <time>2012-01-14T10:28:26Z</time>
      </trkpt>
      <trkpt lat="45.91978" lon="6.4946">
        <ele>1633.42</ele>
        <time>2012-01-14T10:28:31Z</time>
      </trkpt>
      <trkpt lat="45.9199" lon="6.49453">
        <ele>1627.65</ele>
        <time>2012-01-14T10:28:38Z</time>
      </trkpt>
      <trkpt lat="45.91991" lon="6.49455">
        <ele>1626.69</ele>
        <time>2012-01-14T10:28:39Z</time>
      </trkpt>
      <trkpt lat="45.91995" lon="6.49463">
        <ele>1623.8</ele>
        <time>2012-01-14T10:28:42Z</time>
      </trkpt>
      <trkpt lat="45.92" lon="6.49461">
        <ele>1621.4</ele>
        <time>2012-01-14T10:28:49Z</time>
      </trkpt>
      <trkpt lat="45.92" lon="6.49461">
        <ele>1621.4</ele>
        <time>2012-01-14T10:29:13Z</time>
      </trkpt>
      <trkpt lat="45.92" lon="6.49462">
        <ele>1621.4</ele>
        <time>2012-01-14T10:29:36Z</time>
      </trkpt>
      <trkpt lat="45.92" lon="6.49462">
        <ele>1621.4</ele>
        <time>2012-01-14T10:30:03Z</time>
      </trkpt>
      <trkpt lat="45.92001" lon="6.49462">
        <ele>1621.88</ele>
        <time>2012-01-14T10:30:29Z</time>
      </trkpt>
      <trkpt lat="45.92001" lon="6.49463">
        <ele>1622.36</ele>
        <time>2012-01-14T10:30:54Z</time>
      </trkpt>
      <trkpt lat="45.92001" lon="6.49463">
        <ele>1622.36</ele>
        <time>2012-01-14T10:31:21Z</time>
      </trkpt>
      <trkpt lat="45.92001" lon="6.49463">
        <ele>1622.84</ele>
        <time>2012-01-14T10:31:24Z</time>
      </trkpt>
      <trkpt lat="45.92013" lon="6.49449">
        <ele>1617.56</ele>
        <time>2012-01-14T10:31:31Z</time>
      </trkpt>
      <trkpt lat="45.92019" lon="6.49443">
        <ele>1612.75</ele>
        <time>2012-01-14T10:31:36Z</time>
      </trkpt>
      <trkpt lat="45.92024" lon="6.49447">
        <ele>1608.9</ele>
        <time>2012-01-14T10:31:39Z</time>
      </trkpt>
      <trkpt lat="45.92031" lon="6.49448">
        <ele>1605.06</ele>
        <time>2012-01-14T10:31:42Z</time>
      </trkpt>
      <trkpt lat="45.92042" lon="6.4945">
        <ele>1591.6</ele>
        <time>2012-01-14T10:31:51Z</time>
      </trkpt>
      <trkpt lat="45.92047" lon="6.49447">
        <ele>1583.43</ele>
        <time>2012-01-14T10:31:58Z</time>
      </trkpt>
      <trkpt lat="45.92063" lon="6.49448">
        <ele>1581.99</ele>
        <time>2012-01-14T10:32:10Z</time>
      </trkpt>
      <trkpt lat="45.92068" lon="6.49445">
        <ele>1583.91</ele>
        <time>2012-01-14T10:32:14Z</time>
      </trkpt>
      <trkpt lat="45.92081" lon="6.49444">
        <ele>1583.91</ele>
        <time>2012-01-14T10:32:19Z</time>
      </trkpt>
      <trkpt lat="45.92082" lon="6.49446">
        <ele>1583.43</ele>
        <time>2012-01-14T10:32:21Z</time>
      </trkpt>
      <trkpt lat="45.92089" lon="6.49434">
        <ele>1581.51</ele>
        <time>2012-01-14T10:32:27Z</time>
      </trkpt>
      <trkpt lat="45.92105" lon="6.4942">
        <ele>1577.18</ele>
        <time>2012-01-14T10:32:34Z</time>
      </trkpt>
      <trkpt lat="45.92116" lon="6.49406">
        <ele>1569.97</ele>
        <time>2012-01-14T10:32:40Z</time>
      </trkpt>
      <trkpt lat="45.92119" lon="6.49405">
        <ele>1568.53</ele>
        <time>2012-01-14T10:32:41Z</time>
      </trkpt>
      <trkpt lat="45.92125" lon="6.49395">
        <ele>1561.8</ele>
        <time>2012-01-14T10:32:46Z</time>
      </trkpt>
      <trkpt lat="45.92135" lon="6.49379">
        <ele>1553.63</ele>
        <time>2012-01-14T10:32:53Z</time>
      </trkpt>
      <trkpt lat="45.92127" lon="6.49377">
        <ele>1535.36</ele>
        <time>2012-01-14T10:33:11Z</time>
      </trkpt>
      <trkpt lat="45.92127" lon="6.49377">
        <ele>1535.36</ele>
        <time>2012-01-14T10:33:39Z</time>
      </trkpt>
      <trkpt lat="45.9213" lon="6.49381">
        <ele>1535.36</ele>
        <time>2012-01-14T10:33:53Z</time>
      </trkpt>
      <trkpt lat="45.92155" lon="6.49371">
        <ele>1533.44</ele>
        <time>2012-01-14T10:33:59Z</time>
      </trkpt>
      <trkpt lat="45.92167" lon="6.4936">
        <ele>1527.19</ele>
        <time>2012-01-14T10:34:04Z</time>
      </trkpt>
      <trkpt lat="45.92188" lon="6.49355">
        <ele>1519.5</ele>
        <time>2012-01-14T10:34:09Z</time>
      </trkpt>
      <trkpt lat="45.922" lon="6.4935">
        <ele>1514.69</ele>
        <time>2012-01-14T10:34:12Z</time>
      </trkpt>
      <trkpt lat="45.92195" lon="6.49343">
        <ele>1511.81</ele>
        <time>2012-01-14T10:34:14Z</time>
      </trkpt>
      <trkpt lat="45.92191" lon="6.49336">
        <ele>1510.37</ele>
        <time>2012-01-14T10:34:15Z</time>
      </trkpt>
      <trkpt lat="45.92191" lon="6.4933">
        <ele>1509.41</ele>
        <time>2012-01-14T10:34:16Z</time>
      </trkpt>
      <trkpt lat="45.92199" lon="6.49315">
        <ele>1502.68</ele>
        <time>2012-01-14T10:34:21Z</time>
      </trkpt>
      <trkpt lat="45.92208" lon="6.49307">
        <ele>1500.76</ele>
        <time>2012-01-14T10:34:23Z</time>
      </trkpt>
      <trkpt lat="45.92239" lon="6.49279">
        <ele>1500.27</ele>
        <time>2012-01-14T10:34:32Z</time>
      </trkpt>
      <trkpt lat="45.92242" lon="6.49273">
        <ele>1499.79</ele>
        <time>2012-01-14T10:34:33Z</time>
      </trkpt>
      <trkpt lat="45.92242" lon="6.49265">
        <ele>1498.83</ele>
        <time>2012-01-14T10:34:34Z</time>
      </trkpt>
      <trkpt lat="45.92238" lon="6.49257">
        <ele>1498.35</ele>
        <time>2012-01-14T10:34:35Z</time>
      </trkpt>
      <trkpt lat="45.92231" lon="6.49248">
        <ele>1495.95</ele>
        <time>2012-01-14T10:34:40Z</time>
      </trkpt>
      <trkpt lat="45.92231" lon="6.49249">
        <ele>1495.95</ele>
        <time>2012-01-14T10:35:04Z</time>
      </trkpt>
      <trkpt lat="45.92231" lon="6.49249">
        <ele>1495.95</ele>
        <time>2012-01-14T10:35:05Z</time>
      </trkpt>
      <trkpt lat="45.9223" lon="6.4923">
        <ele>1494.99</ele>
        <time>2012-01-14T10:35:09Z</time>
      </trkpt>
      <trkpt lat="45.92212" lon="6.49216">
        <ele>1492.58</ele>
        <time>2012-01-14T10:35:13Z</time>
      </trkpt>
      <trkpt lat="45.92208" lon="6.49213">
        <ele>1492.58</ele>
        <time>2012-01-14T10:35:14Z</time>
      </trkpt>
      <trkpt lat="45.92206" lon="6.49208">
        <ele>1492.1</ele>
        <time>2012-01-14T10:35:15Z</time>
      </trkpt>
      <trkpt lat="45.92207" lon="6.49201">
        <ele>1491.62</ele>
        <time>2012-01-14T10:35:16Z</time>
      </trkpt>
      <trkpt lat="45.9221" lon="6.49196">
        <ele>1491.62</ele>
        <time>2012-01-14T10:35:17Z</time>
      </trkpt>
      <trkpt lat="45.92211" lon="6.49179">
        <ele>1488.74</ele>
        <time>2012-01-14T10:35:23Z</time>
      </trkpt>
      <trkpt lat="45.92203" lon="6.49167">
        <ele>1486.82</ele>
        <time>2012-01-14T10:35:27Z</time>
      </trkpt>
      <trkpt lat="45.922" lon="6.49162">
        <ele>1486.82</ele>
        <time>2012-01-14T10:35:28Z</time>
      </trkpt>
      <trkpt lat="45.92197" lon="6.49158">
        <ele>1486.34</ele>
        <time>2012-01-14T10:35:29Z</time>
      </trkpt>
      <trkpt lat="45.92196" lon="6.49153">
        <ele>1485.37</ele>
        <time>2012-01-14T10:35:30Z</time>
      </trkpt>
      <trkpt lat="45.92197" lon="6.4915">
        <ele>1485.37</ele>
        <time>2012-01-14T10:35:31Z</time>
      </trkpt>
      <trkpt lat="45.92198" lon="6.49149">
        <ele>1484.41</ele>
        <time>2012-01-14T10:35:42Z</time>
      </trkpt>
      <trkpt lat="45.92198" lon="6.49147">
        <ele>1484.41</ele>
        <time>2012-01-14T10:35:47Z</time>
      </trkpt>
      <trkpt lat="45.92197" lon="6.49144">
        <ele>1483.93</ele>
        <time>2012-01-14T10:35:48Z</time>
      </trkpt>
      <trkpt lat="45.92195" lon="6.49141">
        <ele>1483.93</ele>
        <time>2012-01-14T10:35:49Z</time>
      </trkpt>
      <trkpt lat="45.92192" lon="6.4913">
        <ele>1482.97</ele>
        <time>2012-01-14T10:35:51Z</time>
      </trkpt>
      <trkpt lat="45.92191" lon="6.49123">
        <ele>1482.49</ele>
        <time>2012-01-14T10:35:52Z</time>
      </trkpt>
      <trkpt lat="45.92187" lon="6.49106">
        <ele>1481.53</ele>
        <time>2012-01-14T10:35:54Z</time>
      </trkpt>
      <trkpt lat="45.92184" lon="6.49096">
        <ele>1481.05</ele>
        <time>2012-01-14T10:35:55Z</time>
      </trkpt>
      <trkpt lat="45.92183" lon="6.49086">
        <ele>1480.57</ele>
        <time>2012-01-14T10:35:56Z</time>
      </trkpt>
      <trkpt lat="45.92182" lon="6.49075">
        <ele>1479.61</ele>
        <time>2012-01-14T10:35:57Z</time>
      </trkpt>
      <trkpt lat="45.9218" lon="6.49065">
        <ele>1478.65</ele>
        <time>2012-01-14T10:35:58Z</time>
      </trkpt>
      <trkpt lat="45.92179" lon="6.49054">
        <ele>1477.68</ele>
        <time>2012-01-14T10:35:59Z</time>
      </trkpt>
      <trkpt lat="45.92178" lon="6.49042">
        <ele>1476.72</ele>
        <time>2012-01-14T10:36:00Z</time>
      </trkpt>
      <trkpt lat="45.92178" lon="6.4903">
        <ele>1475.28</ele>
        <time>2012-01-14T10:36:01Z</time>
      </trkpt>
      <trkpt lat="45.92178" lon="6.49018">
        <ele>1474.32</ele>
        <time>2012-01-14T10:36:02Z</time>
      </trkpt>
      <trkpt lat="45.92177" lon="6.49006">
        <ele>1472.88</ele>
        <time>2012-01-14T10:36:03Z</time>
      </trkpt>
      <trkpt lat="45.92176" lon="6.48993">
        <ele>1471.44</ele>
        <time>2012-01-14T10:36:04Z</time>
      </trkpt>
      <trkpt lat="45.92175" lon="6.48979">
        <ele>1469.99</ele>
        <time>2012-01-14T10:36:05Z</time>
      </trkpt>
      <trkpt lat="45.92176" lon="6.48966">
        <ele>1468.55</ele>
        <time>2012-01-14T10:36:06Z</time>
      </trkpt>
      <trkpt lat="45.92176" lon="6.48952">
        <ele>1467.11</ele>
        <time>2012-01-14T10:36:07Z</time>
      </trkpt>
      <trkpt lat="45.92176" lon="6.48938">
        <ele>1465.67</ele>
        <time>2012-01-14T10:36:08Z</time>
      </trkpt>
      <trkpt lat="45.92174" lon="6.48925">
        <ele>1464.23</ele>
        <time>2012-01-14T10:36:09Z</time>
      </trkpt>
      <trkpt lat="45.92172" lon="6.48914">
        <ele>1462.78</ele>
        <time>2012-01-14T10:36:10Z</time>
      </trkpt>
      <trkpt lat="45.92168" lon="6.48904">
        <ele>1461.34</ele>
        <time>2012-01-14T10:36:11Z</time>
      </trkpt>
      <trkpt lat="45.92165" lon="6.48894">
        <ele>1460.38</ele>
        <time>2012-01-14T10:36:12Z</time>
      </trkpt>
      <trkpt lat="45.92163" lon="6.48883">
        <ele>1459.42</ele>
        <time>2012-01-14T10:36:13Z</time>
      </trkpt>
      <trkpt lat="45.92162" lon="6.48872">
        <ele>1457.98</ele>
        <time>2012-01-14T10:36:14Z</time>
      </trkpt>
      <trkpt lat="45.92162" lon="6.48862">
        <ele>1457.5</ele>
        <time>2012-01-14T10:36:15Z</time>
      </trkpt>
      <trkpt lat="45.92163" lon="6.48854">
        <ele>1456.53</ele>
        <time>2012-01-14T10:36:16Z</time>
      </trkpt>
      <trkpt lat="45.92165" lon="6.48847">
        <ele>1456.05</ele>
        <time>2012-01-14T10:36:17Z</time>
      </trkpt>
      <trkpt lat="45.92167" lon="6.48842">
        <ele>1456.05</ele>
        <time>2012-01-14T10:36:18Z</time>
      </trkpt>
      <trkpt lat="45.92169" lon="6.48839">
        <ele>1456.05</ele>
        <time>2012-01-14T10:36:19Z</time>
      </trkpt>
      <trkpt lat="45.92171" lon="6.48836">
        <ele>1456.05</ele>
        <time>2012-01-14T10:36:20Z</time>
      </trkpt>
      <trkpt lat="45.92174" lon="6.4883">
        <ele>1457.02</ele>
        <time>2012-01-14T10:36:30Z</time>
      </trkpt>
      <trkpt lat="45.92177" lon="6.48817">
        <ele>1459.42</ele>
        <time>2012-01-14T10:36:44Z</time>
      </trkpt>
      <trkpt lat="45.92177" lon="6.48802">
        <ele>1460.38</ele>
        <time>2012-01-14T10:36:58Z</time>
      </trkpt>
      <trkpt lat="45.92174" lon="6.48787">
        <ele>1462.78</ele>
        <time>2012-01-14T10:37:10Z</time>
      </trkpt>
      <trkpt lat="45.92174" lon="6.48786">
        <ele>1462.78</ele>
        <time>2012-01-14T10:37:11Z</time>
      </trkpt>
      <trkpt lat="45.92171" lon="6.48768">
        <ele>1463.26</ele>
        <time>2012-01-14T10:37:26Z</time>
      </trkpt>
      <trkpt lat="45.9217" lon="6.48765">
        <ele>1463.26</ele>
        <time>2012-01-14T10:37:28Z</time>
      </trkpt>
      <trkpt lat="45.9217" lon="6.48763">
        <ele>1462.78</ele>
        <time>2012-01-14T10:37:29Z</time>
      </trkpt>
      <trkpt lat="45.9217" lon="6.48761">
        <ele>1462.78</ele>
        <time>2012-01-14T10:37:30Z</time>
      </trkpt>
      <trkpt lat="45.92169" lon="6.4876">
        <ele>1462.78</ele>
        <time>2012-01-14T10:37:31Z</time>
      </trkpt>
      <trkpt lat="45.92169" lon="6.48757">
        <ele>1462.3</ele>
        <time>2012-01-14T10:37:33Z</time>
      </trkpt>
      <trkpt lat="45.92164" lon="6.48744">
        <ele>1462.78</ele>
        <time>2012-01-14T10:37:47Z</time>
      </trkpt>
      <trkpt lat="45.9216" lon="6.48729">
        <ele>1463.74</ele>
        <time>2012-01-14T10:38:03Z</time>
      </trkpt>
      <trkpt lat="45.92154" lon="6.48714">
        <ele>1465.19</ele>
        <time>2012-01-14T10:38:19Z</time>
      </trkpt>
      <trkpt lat="45.92146" lon="6.48705">
        <ele>1468.07</ele>
        <time>2012-01-14T10:38:36Z</time>
      </trkpt>
      <trkpt lat="45.92144" lon="6.48702">
        <ele>1468.07</ele>
        <time>2012-01-14T10:38:40Z</time>
      </trkpt>
      <trkpt lat="45.92143" lon="6.48701">
        <ele>1468.07</ele>
        <time>2012-01-14T10:38:41Z</time>
      </trkpt>
      <trkpt lat="45.92133" lon="6.48687">
        <ele>1468.07</ele>
        <time>2012-01-14T10:38:50Z</time>
      </trkpt>
      <trkpt lat="45.92128" lon="6.4868">
        <ele>1469.03</ele>
        <time>2012-01-14T10:38:59Z</time>
      </trkpt>
      <trkpt lat="45.92127" lon="6.48678">
        <ele>1469.51</ele>
        <time>2012-01-14T10:39:00Z</time>
      </trkpt>
      <trkpt lat="45.92126" lon="6.48677">
        <ele>1469.51</ele>
        <time>2012-01-14T10:39:01Z</time>
      </trkpt>
      <trkpt lat="45.92125" lon="6.48675">
        <ele>1469.99</ele>
        <time>2012-01-14T10:39:02Z</time>
      </trkpt>
      <trkpt lat="45.92125" lon="6.48672">
        <ele>1469.99</ele>
        <time>2012-01-14T10:39:03Z</time>
      </trkpt>
      <trkpt lat="45.92125" lon="6.48669">
        <ele>1469.51</ele>
        <time>2012-01-14T10:39:04Z</time>
      </trkpt>
      <trkpt lat="45.92124" lon="6.48649">
        <ele>1467.59</ele>
        <time>2012-01-14T10:39:07Z</time>
      </trkpt>
      <trkpt lat="45.92128" lon="6.4864">
        <ele>1466.63</ele>
        <time>2012-01-14T10:39:08Z</time>
      </trkpt>
      <trkpt lat="45.92133" lon="6.48631">
        <ele>1465.67</ele>
        <time>2012-01-14T10:39:09Z</time>
      </trkpt>
      <trkpt lat="45.92137" lon="6.48623">
        <ele>1465.19</ele>
        <time>2012-01-14T10:39:10Z</time>
      </trkpt>
      <trkpt lat="45.92141" lon="6.48616">
        <ele>1464.23</ele>
        <time>2012-01-14T10:39:11Z</time>
      </trkpt>
      <trkpt lat="45.92144" lon="6.48608">
        <ele>1463.26</ele>
        <time>2012-01-14T10:39:12Z</time>
      </trkpt>
      <trkpt lat="45.92184" lon="6.48515">
        <ele>1457.02</ele>
        <time>2012-01-14T10:39:25Z</time>
      </trkpt>
      <trkpt lat="45.92204" lon="6.48473">
        <ele>1455.09</ele>
        <time>2012-01-14T10:39:31Z</time>
      </trkpt>
      <trkpt lat="45.92247" lon="6.48429">
        <ele>1450.29</ele>
        <time>2012-01-14T10:39:42Z</time>
      </trkpt>
      <trkpt lat="45.92253" lon="6.48426">
        <ele>1449.81</ele>
        <time>2012-01-14T10:39:45Z</time>
      </trkpt>
      <trkpt lat="45.92254" lon="6.48425">
        <ele>1449.81</ele>
        <time>2012-01-14T10:39:46Z</time>
      </trkpt>
      <trkpt lat="45.92254" lon="6.48423">
        <ele>1449.32</ele>
        <time>2012-01-14T10:39:47Z</time>
      </trkpt>
      <trkpt lat="45.92254" lon="6.4842">
        <ele>1449.32</ele>
        <time>2012-01-14T10:39:48Z</time>
      </trkpt>
      <trkpt lat="45.92254" lon="6.48415">
        <ele>1448.84</ele>
        <time>2012-01-14T10:39:51Z</time>
      </trkpt>
      <trkpt lat="45.92265" lon="6.4841">
        <ele>1446.44</ele>
        <time>2012-01-14T10:40:07Z</time>
      </trkpt>
      <trkpt lat="45.92265" lon="6.4841">
        <ele>1445.96</ele>
        <time>2012-01-14T10:40:27Z</time>
      </trkpt>
      <trkpt lat="45.92265" lon="6.4841">
        <ele>1445.96</ele>
        <time>2012-01-14T10:40:44Z</time>
      </trkpt>
      <trkpt lat="45.92266" lon="6.4841">
        <ele>1444.52</ele>
        <time>2012-01-14T10:41:00Z</time>
      </trkpt>
      <trkpt lat="45.92266" lon="6.4841">
        <ele>1444.52</ele>
        <time>2012-01-14T10:41:20Z</time>
      </trkpt>
      <trkpt lat="45.92266" lon="6.4841">
        <ele>1444.52</ele>
        <time>2012-01-14T10:41:39Z</time>
      </trkpt>
      <trkpt lat="45.92266" lon="6.4841">
        <ele>1445.48</ele>
        <time>2012-01-14T10:41:53Z</time>
      </trkpt>
      <trkpt lat="45.92266" lon="6.48411">
        <ele>1445.48</ele>
        <time>2012-01-14T10:42:11Z</time>
      </trkpt>
      <trkpt lat="45.92265" lon="6.48413">
        <ele>1445.48</ele>
        <time>2012-01-14T10:42:30Z</time>
      </trkpt>
      <trkpt lat="45.92265" lon="6.48413">
        <ele>1445.96</ele>
        <time>2012-01-14T10:42:55Z</time>
      </trkpt>
      <trkpt lat="45.92264" lon="6.48412">
        <ele>1445.48</ele>
        <time>2012-01-14T10:43:15Z</time>
      </trkpt>
      <trkpt lat="45.92264" lon="6.48412">
        <ele>1445.48</ele>
        <time>2012-01-14T10:43:36Z</time>
      </trkpt>
      <trkpt lat="45.92264" lon="6.48412">
        <ele>1445.96</ele>
        <time>2012-01-14T10:44:00Z</time>
      </trkpt>
      <trkpt lat="45.92264" lon="6.48412">
        <ele>1446.44</ele>
        <time>2012-01-14T10:44:23Z</time>
      </trkpt>
      <trkpt lat="45.92264" lon="6.48412">
        <ele>1446.44</ele>
        <time>2012-01-14T10:44:40Z</time>
      </trkpt>
      <trkpt lat="45.92264" lon="6.48412">
        <ele>1446.44</ele>
        <time>2012-01-14T10:45:03Z</time>
      </trkpt>
      <trkpt lat="45.92265" lon="6.48414">
        <ele>1445.96</ele>
        <time>2012-01-14T10:45:17Z</time>
      </trkpt>
      <trkpt lat="45.92265" lon="6.48413">
        <ele>1445.96</ele>
        <time>2012-01-14T10:45:34Z</time>
      </trkpt>
      <trkpt lat="45.92265" lon="6.48413">
        <ele>1445.96</ele>
        <time>2012-01-14T10:45:55Z</time>
      </trkpt>
      <trkpt lat="45.92264" lon="6.48413">
        <ele>1445.48</ele>
        <time>2012-01-14T10:46:21Z</time>
      </trkpt>
      <trkpt lat="45.92264" lon="6.48413">
        <ele>1445.48</ele>
        <time>2012-01-14T10:46:44Z</time>
      </trkpt>
      <trkpt lat="45.92264" lon="6.48413">
        <ele>1445</ele>
        <time>2012-01-14T10:47:11Z</time>
      </trkpt>
      <trkpt lat="45.92264" lon="6.48413">
        <ele>1445.48</ele>
        <time>2012-01-14T10:47:32Z</time>
      </trkpt>
      <trkpt lat="45.92264" lon="6.48413">
        <ele>1445.48</ele>
        <time>2012-01-14T10:47:57Z</time>
      </trkpt>
      <trkpt lat="45.92264" lon="6.48413">
        <ele>1445.48</ele>
        <time>2012-01-14T10:48:19Z</time>
      </trkpt>
      <trkpt lat="45.92264" lon="6.48413">
        <ele>1445.48</ele>
        <time>2012-01-14T10:48:38Z</time>
      </trkpt>
      <trkpt lat="45.92265" lon="6.48414">
        <ele>1445</ele>
        <time>2012-01-14T10:48:57Z</time>
      </trkpt>
      <trkpt lat="45.92265" lon="6.48412">
        <ele>1445</ele>
        <time>2012-01-14T10:49:08Z</time>
      </trkpt>
      <trkpt lat="45.92265" lon="6.48413">
        <ele>1445</ele>
        <time>2012-01-14T10:49:22Z</time>
      </trkpt>
      <trkpt lat="45.92265" lon="6.48414">
        <ele>1445</ele>
        <time>2012-01-14T10:49:36Z</time>
      </trkpt>
      <trkpt lat="45.92265" lon="6.48415">
        <ele>1444.52</ele>
        <time>2012-01-14T10:49:53Z</time>
      </trkpt>
      <trkpt lat="45.92265" lon="6.48415">
        <ele>1444.52</ele>
        <time>2012-01-14T10:50:27Z</time>
      </trkpt>
      <trkpt lat="45.92265" lon="6.48414">
        <ele>1444.04</ele>
        <time>2012-01-14T10:50:49Z</time>
      </trkpt>
      <trkpt lat="45.92266" lon="6.48411">
        <ele>1443.08</ele>
        <time>2012-01-14T10:51:02Z</time>
      </trkpt>
      <trkpt lat="45.92266" lon="6.48413">
        <ele>1443.08</ele>
        <time>2012-01-14T10:51:18Z</time>
      </trkpt>
      <trkpt lat="45.92266" lon="6.48412">
        <ele>1442.6</ele>
        <time>2012-01-14T10:51:32Z</time>
      </trkpt>
      <trkpt lat="45.92265" lon="6.48412">
        <ele>1442.11</ele>
        <time>2012-01-14T10:51:44Z</time>
      </trkpt>
      <trkpt lat="45.92266" lon="6.48411">
        <ele>1442.11</ele>
        <time>2012-01-14T10:51:59Z</time>
      </trkpt>
      <trkpt lat="45.92266" lon="6.48411">
        <ele>1442.11</ele>
        <time>2012-01-14T10:52:15Z</time>
      </trkpt>
      <trkpt lat="45.92266" lon="6.48411">
        <ele>1442.11</ele>
        <time>2012-01-14T10:52:30Z</time>
      </trkpt>
      <trkpt lat="45.92266" lon="6.48412">
        <ele>1441.63</ele>
        <time>2012-01-14T10:52:48Z</time>
      </trkpt>
      <trkpt lat="45.92266" lon="6.48411">
        <ele>1442.11</ele>
        <time>2012-01-14T10:53:11Z</time>
      </trkpt>
    </trkseg>
  </trk>
</gpx>